<?xml version="1.0" encoding="UTF-8" standalone="no" ?>
<gpx xmlns="http://www.topografix.com/GPX/1/1" creator="CompeGPS" version="1.1" xmlns:xsi="http://www.w3.org/2001/XMLSchema-instance" xsi:schemaLocation="http://www.topografix.com/GPX/1/1 http://www.topografix.com/GPX/1/1/gpx.xsd">
<wpt lat="42.219261" lon="-1.507777">
<ele>290.000000</ele>
<name>Depart</name>
</wpt>
<wpt lat="42.218226" lon="-1.512206">
<ele>277.000000</ele>
<name>Barranco_Grande</name>
</wpt>
<wpt lat="42.242474" lon="-1.517964">
<ele>314.000000</ele>
<name>Bifurcation</name>
</wpt>
<wpt lat="42.244930" lon="-1.513958">
<ele>314.0</ele>
<name>Bifurcation</name>
</wpt>
<wpt lat="42.259032" lon="-1.515961">
<ele>437.000000</ele>
<name>Plateau_Estroza</name>
</wpt>
<wpt lat="42.255348" lon="-1.488904">
<ele>461.000000</ele>
<name>Punta_Estroza</name>
</wpt>
<wpt lat="42.250043" lon="-1.482993">
<ele>312.000000</ele>
<name>Camino_de_Cabana_Codin</name>
</wpt>
<wpt lat="42.243589" lon="-1.482463">
<ele>290.000000</ele>
<name>Barranco_Grande</name>
</wpt>
<wpt lat="42.219101" lon="-1.511155">
<ele>290.000000</ele>
<name>Sortie_Barranco</name>
</wpt>
<wpt lat="42.219261" lon="-1.507777">
<ele>290.000000</ele>
<name>Depart</name>
</wpt>
<trk>
    <name>Penaflor</name>
    <trkseg>
      <trkpt lat="42.219261" lon="-1.507777">
        <ele>290.0</ele>
        <time>2010-04-30T08:24:06Z</time>
      </trkpt>
      <trkpt lat="42.219188" lon="-1.507849">
        <ele>290.0</ele>
        <time>2010-04-30T08:25:12Z</time>
      </trkpt>
      <trkpt lat="42.219121" lon="-1.507948">
        <ele>290.0</ele>
        <time>2010-04-30T08:25:23Z</time>
      </trkpt>
      <trkpt lat="42.219068" lon="-1.508056">
        <ele>290.0</ele>
        <time>2010-04-30T08:25:32Z</time>
      </trkpt>
      <trkpt lat="42.219027" lon="-1.508173">
        <ele>290.0</ele>
        <time>2010-04-30T08:25:41Z</time>
      </trkpt>
      <trkpt lat="42.218994" lon="-1.508289">
        <ele>290.0</ele>
        <time>2010-04-30T08:25:50Z</time>
      </trkpt>
      <trkpt lat="42.218961" lon="-1.508406">
        <ele>290.0</ele>
        <time>2010-04-30T08:25:59Z</time>
      </trkpt>
      <trkpt lat="42.218961" lon="-1.508541">
        <ele>295.0</ele>
        <time>2010-04-30T08:26:10Z</time>
      </trkpt>
      <trkpt lat="42.218967" lon="-1.508667">
        <ele>295.0</ele>
        <time>2010-04-30T08:26:29Z</time>
      </trkpt>
      <trkpt lat="42.218954" lon="-1.508792">
        <ele>295.0</ele>
        <time>2010-04-30T08:26:41Z</time>
      </trkpt>
      <trkpt lat="42.218947" lon="-1.508927">
        <ele>295.0</ele>
        <time>2010-04-30T08:26:54Z</time>
      </trkpt>
      <trkpt lat="42.218941" lon="-1.509053">
        <ele>295.0</ele>
        <time>2010-04-30T08:27:06Z</time>
      </trkpt>
      <trkpt lat="42.218927" lon="-1.509179">
        <ele>295.0</ele>
        <time>2010-04-30T08:27:17Z</time>
      </trkpt>
      <trkpt lat="42.218907" lon="-1.509313">
        <ele>295.0</ele>
        <time>2010-04-30T08:27:27Z</time>
      </trkpt>
      <trkpt lat="42.218901" lon="-1.509439">
        <ele>295.0</ele>
        <time>2010-04-30T08:27:36Z</time>
      </trkpt>
      <trkpt lat="42.218894" lon="-1.509565">
        <ele>295.0</ele>
        <time>2010-04-30T08:27:45Z</time>
      </trkpt>
      <trkpt lat="42.218881" lon="-1.509700">
        <ele>295.0</ele>
        <time>2010-04-30T08:27:54Z</time>
      </trkpt>
      <trkpt lat="42.218894" lon="-1.509825">
        <ele>295.0</ele>
        <time>2010-04-30T08:28:06Z</time>
      </trkpt>
      <trkpt lat="42.218901" lon="-1.509951">
        <ele>295.0</ele>
        <time>2010-04-30T08:28:23Z</time>
      </trkpt>
      <trkpt lat="42.218927" lon="-1.510086">
        <ele>295.0</ele>
        <time>2010-04-30T08:28:36Z</time>
      </trkpt>
      <trkpt lat="42.218967" lon="-1.510203">
        <ele>295.0</ele>
        <time>2010-04-30T08:28:47Z</time>
      </trkpt>
      <trkpt lat="42.218974" lon="-1.510329">
        <ele>295.0</ele>
        <time>2010-04-30T08:29:01Z</time>
      </trkpt>
      <trkpt lat="42.218987" lon="-1.510454">
        <ele>295.0</ele>
        <time>2010-04-30T08:29:46Z</time>
      </trkpt>
      <trkpt lat="42.219007" lon="-1.510589">
        <ele>295.0</ele>
        <time>2010-04-30T08:29:56Z</time>
      </trkpt>
      <trkpt lat="42.219014" lon="-1.510715">
        <ele>289.0</ele>
        <time>2010-04-30T08:30:07Z</time>
      </trkpt>
      <trkpt lat="42.219027" lon="-1.510841">
        <ele>289.0</ele>
        <time>2010-04-30T08:30:29Z</time>
      </trkpt>
      <trkpt lat="42.219021" lon="-1.510966">
        <ele>289.0</ele>
        <time>2010-04-30T08:30:37Z</time>
      </trkpt>
      <trkpt lat="42.219007" lon="-1.511092">
        <ele>289.0</ele>
        <time>2010-04-30T08:30:45Z</time>
      </trkpt>
      <trkpt lat="42.218961" lon="-1.511209">
        <ele>289.0</ele>
        <time>2010-04-30T08:30:55Z</time>
      </trkpt>
      <trkpt lat="42.218887" lon="-1.511308">
        <ele>289.0</ele>
        <time>2010-04-30T08:31:04Z</time>
      </trkpt>
      <trkpt lat="42.218800" lon="-1.511362">
        <ele>283.0</ele>
        <time>2010-04-30T08:31:11Z</time>
      </trkpt>
      <trkpt lat="42.218720" lon="-1.511433">
        <ele>283.0</ele>
        <time>2010-04-30T08:31:18Z</time>
      </trkpt>
      <trkpt lat="42.218647" lon="-1.511505">
        <ele>283.0</ele>
        <time>2010-04-30T08:31:25Z</time>
      </trkpt>
      <trkpt lat="42.218560" lon="-1.511577">
        <ele>283.0</ele>
        <time>2010-04-30T08:31:33Z</time>
      </trkpt>
      <trkpt lat="42.218480" lon="-1.511649">
        <ele>283.0</ele>
        <time>2010-04-30T08:31:51Z</time>
      </trkpt>
      <trkpt lat="42.218406" lon="-1.511730">
        <ele>283.0</ele>
        <time>2010-04-30T08:32:00Z</time>
      </trkpt>
      <trkpt lat="42.218320" lon="-1.511775">
        <ele>283.0</ele>
        <time>2010-04-30T08:32:10Z</time>
      </trkpt>
      <trkpt lat="42.218233" lon="-1.511820">
        <ele>283.0</ele>
        <time>2010-04-30T08:32:37Z</time>
      </trkpt>
      <trkpt lat="42.218246" lon="-1.511945">
        <ele>277.0</ele>
        <time>2010-04-30T08:34:20Z</time>
      </trkpt>
      <trkpt lat="42.218246" lon="-1.512071">
        <ele>277.0</ele>
        <time>2010-04-30T08:34:30Z</time>
      </trkpt>
      <trkpt lat="42.218226" lon="-1.512206">
        <ele>277.0</ele>
        <time>2010-04-30T08:34:38Z</time>
      </trkpt>
      <trkpt lat="42.218300" lon="-1.512278">
        <ele>277.0</ele>
        <time>2010-04-30T08:34:48Z</time>
      </trkpt>
      <trkpt lat="42.218346" lon="-1.512395">
        <ele>283.0</ele>
        <time>2010-04-30T08:34:57Z</time>
      </trkpt>
      <trkpt lat="42.218420" lon="-1.512484">
        <ele>283.0</ele>
        <time>2010-04-30T08:35:09Z</time>
      </trkpt>
      <trkpt lat="42.218493" lon="-1.512395">
        <ele>283.0</ele>
        <time>2010-04-30T08:35:21Z</time>
      </trkpt>
      <trkpt lat="42.218567" lon="-1.512314">
        <ele>283.0</ele>
        <time>2010-04-30T08:35:29Z</time>
      </trkpt>
      <trkpt lat="42.218647" lon="-1.512233">
        <ele>283.0</ele>
        <time>2010-04-30T08:35:37Z</time>
      </trkpt>
      <trkpt lat="42.218727" lon="-1.512152">
        <ele>288.0</ele>
        <time>2010-04-30T08:35:45Z</time>
      </trkpt>
      <trkpt lat="42.218807" lon="-1.512089">
        <ele>288.0</ele>
        <time>2010-04-30T08:35:52Z</time>
      </trkpt>
      <trkpt lat="42.218901" lon="-1.512044">
        <ele>288.0</ele>
        <time>2010-04-30T08:36:01Z</time>
      </trkpt>
      <trkpt lat="42.218987" lon="-1.511990">
        <ele>288.0</ele>
        <time>2010-04-30T08:36:09Z</time>
      </trkpt>
      <trkpt lat="42.219074" lon="-1.511936">
        <ele>288.0</ele>
        <time>2010-04-30T08:36:17Z</time>
      </trkpt>
      <trkpt lat="42.219154" lon="-1.511874">
        <ele>288.0</ele>
        <time>2010-04-30T08:36:25Z</time>
      </trkpt>
      <trkpt lat="42.219228" lon="-1.511793">
        <ele>288.0</ele>
        <time>2010-04-30T08:36:33Z</time>
      </trkpt>
      <trkpt lat="42.219301" lon="-1.511703">
        <ele>288.0</ele>
        <time>2010-04-30T08:36:41Z</time>
      </trkpt>
      <trkpt lat="42.219375" lon="-1.511631">
        <ele>288.0</ele>
        <time>2010-04-30T08:36:49Z</time>
      </trkpt>
      <trkpt lat="42.219455" lon="-1.511559">
        <ele>288.0</ele>
        <time>2010-04-30T08:36:56Z</time>
      </trkpt>
      <trkpt lat="42.219535" lon="-1.511496">
        <ele>288.0</ele>
        <time>2010-04-30T08:37:04Z</time>
      </trkpt>
      <trkpt lat="42.219628" lon="-1.511433">
        <ele>288.0</ele>
        <time>2010-04-30T08:37:12Z</time>
      </trkpt>
      <trkpt lat="42.219715" lon="-1.511380">
        <ele>288.0</ele>
        <time>2010-04-30T08:37:20Z</time>
      </trkpt>
      <trkpt lat="42.219809" lon="-1.511326">
        <ele>288.0</ele>
        <time>2010-04-30T08:37:29Z</time>
      </trkpt>
      <trkpt lat="42.219902" lon="-1.511272">
        <ele>288.0</ele>
        <time>2010-04-30T08:37:38Z</time>
      </trkpt>
      <trkpt lat="42.219989" lon="-1.511200">
        <ele>288.0</ele>
        <time>2010-04-30T08:37:46Z</time>
      </trkpt>
      <trkpt lat="42.220076" lon="-1.511128">
        <ele>288.0</ele>
        <time>2010-04-30T08:37:54Z</time>
      </trkpt>
      <trkpt lat="42.220169" lon="-1.511083">
        <ele>288.0</ele>
        <time>2010-04-30T08:38:02Z</time>
      </trkpt>
      <trkpt lat="42.220263" lon="-1.511074">
        <ele>288.0</ele>
        <time>2010-04-30T08:38:10Z</time>
      </trkpt>
      <trkpt lat="42.220356" lon="-1.511119">
        <ele>288.0</ele>
        <time>2010-04-30T08:38:18Z</time>
      </trkpt>
      <trkpt lat="42.220436" lon="-1.511191">
        <ele>288.0</ele>
        <time>2010-04-30T08:38:26Z</time>
      </trkpt>
      <trkpt lat="42.220530" lon="-1.511245">
        <ele>288.0</ele>
        <time>2010-04-30T08:38:35Z</time>
      </trkpt>
      <trkpt lat="42.220623" lon="-1.511299">
        <ele>288.0</ele>
        <time>2010-04-30T08:38:44Z</time>
      </trkpt>
      <trkpt lat="42.220710" lon="-1.511344">
        <ele>288.0</ele>
        <time>2010-04-30T08:38:52Z</time>
      </trkpt>
      <trkpt lat="42.220804" lon="-1.511397">
        <ele>288.0</ele>
        <time>2010-04-30T08:39:00Z</time>
      </trkpt>
      <trkpt lat="42.220897" lon="-1.511433">
        <ele>288.0</ele>
        <time>2010-04-30T08:39:09Z</time>
      </trkpt>
      <trkpt lat="42.220991" lon="-1.511442">
        <ele>288.0</ele>
        <time>2010-04-30T08:39:17Z</time>
      </trkpt>
      <trkpt lat="42.221077" lon="-1.511478">
        <ele>288.0</ele>
        <time>2010-04-30T08:39:52Z</time>
      </trkpt>
      <trkpt lat="42.221171" lon="-1.511487">
        <ele>288.0</ele>
        <time>2010-04-30T08:40:40Z</time>
      </trkpt>
      <trkpt lat="42.221264" lon="-1.511487">
        <ele>288.0</ele>
        <time>2010-04-30T08:40:50Z</time>
      </trkpt>
      <trkpt lat="42.221364" lon="-1.511469">
        <ele>288.0</ele>
        <time>2010-04-30T08:41:00Z</time>
      </trkpt>
      <trkpt lat="42.221451" lon="-1.511433">
        <ele>288.0</ele>
        <time>2010-04-30T08:41:08Z</time>
      </trkpt>
      <trkpt lat="42.221545" lon="-1.511424">
        <ele>288.0</ele>
        <time>2010-04-30T08:41:16Z</time>
      </trkpt>
      <trkpt lat="42.221638" lon="-1.511424">
        <ele>288.0</ele>
        <time>2010-04-30T08:41:38Z</time>
      </trkpt>
      <trkpt lat="42.221732" lon="-1.511415">
        <ele>288.0</ele>
        <time>2010-04-30T08:41:53Z</time>
      </trkpt>
      <trkpt lat="42.221825" lon="-1.511389">
        <ele>288.0</ele>
        <time>2010-04-30T08:42:04Z</time>
      </trkpt>
      <trkpt lat="42.221912" lon="-1.511442">
        <ele>288.0</ele>
        <time>2010-04-30T08:42:14Z</time>
      </trkpt>
      <trkpt lat="42.221979" lon="-1.511532">
        <ele>288.0</ele>
        <time>2010-04-30T08:42:22Z</time>
      </trkpt>
      <trkpt lat="42.222059" lon="-1.511622">
        <ele>293.0</ele>
        <time>2010-04-30T08:42:30Z</time>
      </trkpt>
      <trkpt lat="42.222132" lon="-1.511703">
        <ele>293.0</ele>
        <time>2010-04-30T08:42:38Z</time>
      </trkpt>
      <trkpt lat="42.222206" lon="-1.511784">
        <ele>293.0</ele>
        <time>2010-04-30T08:42:46Z</time>
      </trkpt>
      <trkpt lat="42.222273" lon="-1.511874">
        <ele>293.0</ele>
        <time>2010-04-30T08:42:54Z</time>
      </trkpt>
      <trkpt lat="42.222333" lon="-1.511972">
        <ele>293.0</ele>
        <time>2010-04-30T08:43:02Z</time>
      </trkpt>
      <trkpt lat="42.222386" lon="-1.512071">
        <ele>293.0</ele>
        <time>2010-04-30T08:43:09Z</time>
      </trkpt>
      <trkpt lat="42.222460" lon="-1.512161">
        <ele>293.0</ele>
        <time>2010-04-30T08:43:18Z</time>
      </trkpt>
      <trkpt lat="42.222546" lon="-1.512224">
        <ele>293.0</ele>
        <time>2010-04-30T08:43:26Z</time>
      </trkpt>
      <trkpt lat="42.222620" lon="-1.512314">
        <ele>293.0</ele>
        <time>2010-04-30T08:43:34Z</time>
      </trkpt>
      <trkpt lat="42.222687" lon="-1.512422">
        <ele>293.0</ele>
        <time>2010-04-30T08:43:42Z</time>
      </trkpt>
      <trkpt lat="42.222740" lon="-1.512529">
        <ele>293.0</ele>
        <time>2010-04-30T08:43:50Z</time>
      </trkpt>
      <trkpt lat="42.222787" lon="-1.512646">
        <ele>293.0</ele>
        <time>2010-04-30T08:43:58Z</time>
      </trkpt>
      <trkpt lat="42.222800" lon="-1.512772">
        <ele>293.0</ele>
        <time>2010-04-30T08:44:06Z</time>
      </trkpt>
      <trkpt lat="42.222780" lon="-1.512907">
        <ele>293.0</ele>
        <time>2010-04-30T08:44:15Z</time>
      </trkpt>
      <trkpt lat="42.222767" lon="-1.513032">
        <ele>293.0</ele>
        <time>2010-04-30T08:44:23Z</time>
      </trkpt>
      <trkpt lat="42.222747" lon="-1.513158">
        <ele>293.0</ele>
        <time>2010-04-30T08:44:31Z</time>
      </trkpt>
      <trkpt lat="42.222747" lon="-1.513293">
        <ele>293.0</ele>
        <time>2010-04-30T08:44:40Z</time>
      </trkpt>
      <trkpt lat="42.222773" lon="-1.513410">
        <ele>293.0</ele>
        <time>2010-04-30T08:44:48Z</time>
      </trkpt>
      <trkpt lat="42.222807" lon="-1.513527">
        <ele>293.0</ele>
        <time>2010-04-30T08:44:56Z</time>
      </trkpt>
      <trkpt lat="42.222827" lon="-1.513652">
        <ele>293.0</ele>
        <time>2010-04-30T08:45:04Z</time>
      </trkpt>
      <trkpt lat="42.222860" lon="-1.513769">
        <ele>293.0</ele>
        <time>2010-04-30T08:45:12Z</time>
      </trkpt>
      <trkpt lat="42.222880" lon="-1.513904">
        <ele>293.0</ele>
        <time>2010-04-30T08:45:21Z</time>
      </trkpt>
      <trkpt lat="42.222867" lon="-1.514039">
        <ele>293.0</ele>
        <time>2010-04-30T08:45:29Z</time>
      </trkpt>
      <trkpt lat="42.222840" lon="-1.514164">
        <ele>293.0</ele>
        <time>2010-04-30T08:45:37Z</time>
      </trkpt>
      <trkpt lat="42.222813" lon="-1.514281">
        <ele>293.0</ele>
        <time>2010-04-30T08:45:44Z</time>
      </trkpt>
      <trkpt lat="42.222793" lon="-1.514407">
        <ele>293.0</ele>
        <time>2010-04-30T08:45:52Z</time>
      </trkpt>
      <trkpt lat="42.222787" lon="-1.514542">
        <ele>293.0</ele>
        <time>2010-04-30T08:46:00Z</time>
      </trkpt>
      <trkpt lat="42.222773" lon="-1.514667">
        <ele>293.0</ele>
        <time>2010-04-30T08:46:08Z</time>
      </trkpt>
      <trkpt lat="42.222767" lon="-1.514802">
        <ele>293.0</ele>
        <time>2010-04-30T08:46:16Z</time>
      </trkpt>
      <trkpt lat="42.222767" lon="-1.514937">
        <ele>293.0</ele>
        <time>2010-04-30T08:46:24Z</time>
      </trkpt>
      <trkpt lat="42.222767" lon="-1.515063">
        <ele>293.0</ele>
        <time>2010-04-30T08:46:32Z</time>
      </trkpt>
      <trkpt lat="42.222773" lon="-1.515197">
        <ele>293.0</ele>
        <time>2010-04-30T08:46:40Z</time>
      </trkpt>
      <trkpt lat="42.222773" lon="-1.515323">
        <ele>293.0</ele>
        <time>2010-04-30T08:46:48Z</time>
      </trkpt>
      <trkpt lat="42.222773" lon="-1.515458">
        <ele>293.0</ele>
        <time>2010-04-30T08:46:56Z</time>
      </trkpt>
      <trkpt lat="42.222773" lon="-1.515584">
        <ele>293.0</ele>
        <time>2010-04-30T08:47:04Z</time>
      </trkpt>
      <trkpt lat="42.222773" lon="-1.515709">
        <ele>293.0</ele>
        <time>2010-04-30T08:47:12Z</time>
      </trkpt>
      <trkpt lat="42.222780" lon="-1.515835">
        <ele>293.0</ele>
        <time>2010-04-30T08:47:20Z</time>
      </trkpt>
      <trkpt lat="42.222787" lon="-1.515970">
        <ele>293.0</ele>
        <time>2010-04-30T08:47:29Z</time>
      </trkpt>
      <trkpt lat="42.222800" lon="-1.516096">
        <ele>299.0</ele>
        <time>2010-04-30T08:47:37Z</time>
      </trkpt>
      <trkpt lat="42.222820" lon="-1.516221">
        <ele>299.0</ele>
        <time>2010-04-30T08:47:45Z</time>
      </trkpt>
      <trkpt lat="42.222840" lon="-1.516347">
        <ele>299.0</ele>
        <time>2010-04-30T08:47:54Z</time>
      </trkpt>
      <trkpt lat="42.222867" lon="-1.516473">
        <ele>299.0</ele>
        <time>2010-04-30T08:48:03Z</time>
      </trkpt>
      <trkpt lat="42.222907" lon="-1.516599">
        <ele>299.0</ele>
        <time>2010-04-30T08:48:41Z</time>
      </trkpt>
      <trkpt lat="42.222947" lon="-1.516716">
        <ele>299.0</ele>
        <time>2010-04-30T08:48:49Z</time>
      </trkpt>
      <trkpt lat="42.222980" lon="-1.516832">
        <ele>299.0</ele>
        <time>2010-04-30T08:48:57Z</time>
      </trkpt>
      <trkpt lat="42.223027" lon="-1.516940">
        <ele>299.0</ele>
        <time>2010-04-30T08:49:06Z</time>
      </trkpt>
      <trkpt lat="42.223067" lon="-1.517057">
        <ele>299.0</ele>
        <time>2010-04-30T08:49:14Z</time>
      </trkpt>
      <trkpt lat="42.223121" lon="-1.517174">
        <ele>299.0</ele>
        <time>2010-04-30T08:49:23Z</time>
      </trkpt>
      <trkpt lat="42.223167" lon="-1.517290">
        <ele>299.0</ele>
        <time>2010-04-30T08:49:32Z</time>
      </trkpt>
      <trkpt lat="42.223221" lon="-1.517407">
        <ele>299.0</ele>
        <time>2010-04-30T08:49:40Z</time>
      </trkpt>
      <trkpt lat="42.223274" lon="-1.517515">
        <ele>299.0</ele>
        <time>2010-04-30T08:49:49Z</time>
      </trkpt>
      <trkpt lat="42.223314" lon="-1.517632">
        <ele>299.0</ele>
        <time>2010-04-30T08:49:57Z</time>
      </trkpt>
      <trkpt lat="42.223368" lon="-1.517749">
        <ele>299.0</ele>
        <time>2010-04-30T08:50:05Z</time>
      </trkpt>
      <trkpt lat="42.223428" lon="-1.517856">
        <ele>299.0</ele>
        <time>2010-04-30T08:50:14Z</time>
      </trkpt>
      <trkpt lat="42.223494" lon="-1.517955">
        <ele>299.0</ele>
        <time>2010-04-30T08:50:23Z</time>
      </trkpt>
      <trkpt lat="42.223561" lon="-1.518045">
        <ele>299.0</ele>
        <time>2010-04-30T08:50:32Z</time>
      </trkpt>
      <trkpt lat="42.223635" lon="-1.518117">
        <ele>299.0</ele>
        <time>2010-04-30T08:50:41Z</time>
      </trkpt>
      <trkpt lat="42.223721" lon="-1.518153">
        <ele>299.0</ele>
        <time>2010-04-30T08:50:49Z</time>
      </trkpt>
      <trkpt lat="42.223815" lon="-1.518171">
        <ele>299.0</ele>
        <time>2010-04-30T08:50:58Z</time>
      </trkpt>
      <trkpt lat="42.223908" lon="-1.518171">
        <ele>299.0</ele>
        <time>2010-04-30T08:51:06Z</time>
      </trkpt>
      <trkpt lat="42.224002" lon="-1.518180">
        <ele>299.0</ele>
        <time>2010-04-30T08:51:14Z</time>
      </trkpt>
      <trkpt lat="42.224102" lon="-1.518189">
        <ele>299.0</ele>
        <time>2010-04-30T08:51:23Z</time>
      </trkpt>
      <trkpt lat="42.224196" lon="-1.518207">
        <ele>299.0</ele>
        <time>2010-04-30T08:51:34Z</time>
      </trkpt>
      <trkpt lat="42.224289" lon="-1.518216">
        <ele>299.0</ele>
        <time>2010-04-30T08:51:58Z</time>
      </trkpt>
      <trkpt lat="42.224362" lon="-1.518144">
        <ele>299.0</ele>
        <time>2010-04-30T08:52:45Z</time>
      </trkpt>
      <trkpt lat="42.224416" lon="-1.518036">
        <ele>299.0</ele>
        <time>2010-04-30T08:52:56Z</time>
      </trkpt>
      <trkpt lat="42.224469" lon="-1.517928">
        <ele>299.0</ele>
        <time>2010-04-30T08:53:05Z</time>
      </trkpt>
      <trkpt lat="42.224523" lon="-1.517829">
        <ele>299.0</ele>
        <time>2010-04-30T08:53:13Z</time>
      </trkpt>
      <trkpt lat="42.224596" lon="-1.517740">
        <ele>299.0</ele>
        <time>2010-04-30T08:53:21Z</time>
      </trkpt>
      <trkpt lat="42.224683" lon="-1.517686">
        <ele>299.0</ele>
        <time>2010-04-30T08:53:29Z</time>
      </trkpt>
      <trkpt lat="42.224783" lon="-1.517695">
        <ele>293.0</ele>
        <time>2010-04-30T08:53:38Z</time>
      </trkpt>
      <trkpt lat="42.224877" lon="-1.517722">
        <ele>293.0</ele>
        <time>2010-04-30T08:53:47Z</time>
      </trkpt>
      <trkpt lat="42.224963" lon="-1.517758">
        <ele>293.0</ele>
        <time>2010-04-30T08:53:55Z</time>
      </trkpt>
      <trkpt lat="42.225050" lon="-1.517802">
        <ele>293.0</ele>
        <time>2010-04-30T08:54:03Z</time>
      </trkpt>
      <trkpt lat="42.225144" lon="-1.517847">
        <ele>293.0</ele>
        <time>2010-04-30T08:54:12Z</time>
      </trkpt>
      <trkpt lat="42.225230" lon="-1.517892">
        <ele>293.0</ele>
        <time>2010-04-30T08:54:21Z</time>
      </trkpt>
      <trkpt lat="42.225324" lon="-1.517937">
        <ele>293.0</ele>
        <time>2010-04-30T08:54:30Z</time>
      </trkpt>
      <trkpt lat="42.225411" lon="-1.517982">
        <ele>293.0</ele>
        <time>2010-04-30T08:54:39Z</time>
      </trkpt>
      <trkpt lat="42.225497" lon="-1.518036">
        <ele>293.0</ele>
        <time>2010-04-30T08:54:49Z</time>
      </trkpt>
      <trkpt lat="42.225584" lon="-1.518090">
        <ele>293.0</ele>
        <time>2010-04-30T08:54:58Z</time>
      </trkpt>
      <trkpt lat="42.225671" lon="-1.518144">
        <ele>293.0</ele>
        <time>2010-04-30T08:55:07Z</time>
      </trkpt>
      <trkpt lat="42.225758" lon="-1.518198">
        <ele>293.0</ele>
        <time>2010-04-30T08:55:16Z</time>
      </trkpt>
      <trkpt lat="42.225845" lon="-1.518243">
        <ele>293.0</ele>
        <time>2010-04-30T08:55:24Z</time>
      </trkpt>
      <trkpt lat="42.225938" lon="-1.518279">
        <ele>293.0</ele>
        <time>2010-04-30T08:55:32Z</time>
      </trkpt>
      <trkpt lat="42.226032" lon="-1.518288">
        <ele>293.0</ele>
        <time>2010-04-30T08:55:40Z</time>
      </trkpt>
      <trkpt lat="42.226132" lon="-1.518288">
        <ele>293.0</ele>
        <time>2010-04-30T08:55:49Z</time>
      </trkpt>
      <trkpt lat="42.226232" lon="-1.518297">
        <ele>293.0</ele>
        <time>2010-04-30T08:55:58Z</time>
      </trkpt>
      <trkpt lat="42.226332" lon="-1.518297">
        <ele>293.0</ele>
        <time>2010-04-30T08:56:07Z</time>
      </trkpt>
      <trkpt lat="42.226426" lon="-1.518288">
        <ele>293.0</ele>
        <time>2010-04-30T08:56:16Z</time>
      </trkpt>
      <trkpt lat="42.226519" lon="-1.518270">
        <ele>293.0</ele>
        <time>2010-04-30T08:56:24Z</time>
      </trkpt>
      <trkpt lat="42.226612" lon="-1.518261">
        <ele>293.0</ele>
        <time>2010-04-30T08:56:33Z</time>
      </trkpt>
      <trkpt lat="42.226706" lon="-1.518225">
        <ele>293.0</ele>
        <time>2010-04-30T08:57:03Z</time>
      </trkpt>
      <trkpt lat="42.226799" lon="-1.518189">
        <ele>293.0</ele>
        <time>2010-04-30T08:57:17Z</time>
      </trkpt>
      <trkpt lat="42.226886" lon="-1.518153">
        <ele>293.0</ele>
        <time>2010-04-30T08:57:30Z</time>
      </trkpt>
      <trkpt lat="42.226973" lon="-1.518108">
        <ele>293.0</ele>
        <time>2010-04-30T08:57:57Z</time>
      </trkpt>
      <trkpt lat="42.227040" lon="-1.518018">
        <ele>293.0</ele>
        <time>2010-04-30T08:58:06Z</time>
      </trkpt>
      <trkpt lat="42.227066" lon="-1.517901">
        <ele>293.0</ele>
        <time>2010-04-30T08:58:14Z</time>
      </trkpt>
      <trkpt lat="42.227086" lon="-1.517776">
        <ele>293.0</ele>
        <time>2010-04-30T08:58:22Z</time>
      </trkpt>
      <trkpt lat="42.227113" lon="-1.517659">
        <ele>293.0</ele>
        <time>2010-04-30T08:58:29Z</time>
      </trkpt>
      <trkpt lat="42.227160" lon="-1.517533">
        <ele>293.0</ele>
        <time>2010-04-30T08:58:38Z</time>
      </trkpt>
      <trkpt lat="42.227213" lon="-1.517434">
        <ele>293.0</ele>
        <time>2010-04-30T08:58:47Z</time>
      </trkpt>
      <trkpt lat="42.227287" lon="-1.517353">
        <ele>293.0</ele>
        <time>2010-04-30T08:58:56Z</time>
      </trkpt>
      <trkpt lat="42.227374" lon="-1.517299">
        <ele>286.0</ele>
        <time>2010-04-30T08:59:08Z</time>
      </trkpt>
      <trkpt lat="42.227447" lon="-1.517219">
        <ele>286.0</ele>
        <time>2010-04-30T08:59:18Z</time>
      </trkpt>
      <trkpt lat="42.227540" lon="-1.517183">
        <ele>286.0</ele>
        <time>2010-04-30T08:59:27Z</time>
      </trkpt>
      <trkpt lat="42.227641" lon="-1.517192">
        <ele>286.0</ele>
        <time>2010-04-30T09:00:12Z</time>
      </trkpt>
      <trkpt lat="42.227734" lon="-1.517165">
        <ele>286.0</ele>
        <time>2010-04-30T09:00:21Z</time>
      </trkpt>
      <trkpt lat="42.227828" lon="-1.517138">
        <ele>286.0</ele>
        <time>2010-04-30T09:00:29Z</time>
      </trkpt>
      <trkpt lat="42.227914" lon="-1.517102">
        <ele>286.0</ele>
        <time>2010-04-30T09:00:36Z</time>
      </trkpt>
      <trkpt lat="42.228008" lon="-1.517039">
        <ele>286.0</ele>
        <time>2010-04-30T09:00:43Z</time>
      </trkpt>
      <trkpt lat="42.228081" lon="-1.516949">
        <ele>286.0</ele>
        <time>2010-04-30T09:00:51Z</time>
      </trkpt>
      <trkpt lat="42.228155" lon="-1.516859">
        <ele>286.0</ele>
        <time>2010-04-30T09:00:59Z</time>
      </trkpt>
      <trkpt lat="42.228215" lon="-1.516760">
        <ele>291.0</ele>
        <time>2010-04-30T09:01:07Z</time>
      </trkpt>
      <trkpt lat="42.228282" lon="-1.516662">
        <ele>291.0</ele>
        <time>2010-04-30T09:01:16Z</time>
      </trkpt>
      <trkpt lat="42.228335" lon="-1.516554">
        <ele>291.0</ele>
        <time>2010-04-30T09:01:26Z</time>
      </trkpt>
      <trkpt lat="42.228388" lon="-1.516455">
        <ele>291.0</ele>
        <time>2010-04-30T09:01:35Z</time>
      </trkpt>
      <trkpt lat="42.228462" lon="-1.516383">
        <ele>291.0</ele>
        <time>2010-04-30T09:01:43Z</time>
      </trkpt>
      <trkpt lat="42.228555" lon="-1.516338">
        <ele>291.0</ele>
        <time>2010-04-30T09:01:54Z</time>
      </trkpt>
      <trkpt lat="42.228642" lon="-1.516302">
        <ele>291.0</ele>
        <time>2010-04-30T09:02:04Z</time>
      </trkpt>
      <trkpt lat="42.228736" lon="-1.516257">
        <ele>291.0</ele>
        <time>2010-04-30T09:02:16Z</time>
      </trkpt>
      <trkpt lat="42.228829" lon="-1.516212">
        <ele>291.0</ele>
        <time>2010-04-30T09:02:26Z</time>
      </trkpt>
      <trkpt lat="42.228916" lon="-1.516177">
        <ele>291.0</ele>
        <time>2010-04-30T09:02:35Z</time>
      </trkpt>
      <trkpt lat="42.229009" lon="-1.516150">
        <ele>291.0</ele>
        <time>2010-04-30T09:02:44Z</time>
      </trkpt>
      <trkpt lat="42.229109" lon="-1.516123">
        <ele>291.0</ele>
        <time>2010-04-30T09:02:54Z</time>
      </trkpt>
      <trkpt lat="42.229203" lon="-1.516087">
        <ele>291.0</ele>
        <time>2010-04-30T09:03:03Z</time>
      </trkpt>
      <trkpt lat="42.229290" lon="-1.516051">
        <ele>291.0</ele>
        <time>2010-04-30T09:03:11Z</time>
      </trkpt>
      <trkpt lat="42.229376" lon="-1.516015">
        <ele>291.0</ele>
        <time>2010-04-30T09:03:19Z</time>
      </trkpt>
      <trkpt lat="42.229463" lon="-1.515979">
        <ele>291.0</ele>
        <time>2010-04-30T09:03:27Z</time>
      </trkpt>
      <trkpt lat="42.229550" lon="-1.515943">
        <ele>291.0</ele>
        <time>2010-04-30T09:03:35Z</time>
      </trkpt>
      <trkpt lat="42.229637" lon="-1.515907">
        <ele>291.0</ele>
        <time>2010-04-30T09:03:43Z</time>
      </trkpt>
      <trkpt lat="42.229730" lon="-1.515862">
        <ele>291.0</ele>
        <time>2010-04-30T09:03:52Z</time>
      </trkpt>
      <trkpt lat="42.229817" lon="-1.515826">
        <ele>291.0</ele>
        <time>2010-04-30T09:04:00Z</time>
      </trkpt>
      <trkpt lat="42.229904" lon="-1.515790">
        <ele>291.0</ele>
        <time>2010-04-30T09:04:08Z</time>
      </trkpt>
      <trkpt lat="42.229991" lon="-1.515754">
        <ele>291.0</ele>
        <time>2010-04-30T09:04:16Z</time>
      </trkpt>
      <trkpt lat="42.230084" lon="-1.515718">
        <ele>291.0</ele>
        <time>2010-04-30T09:04:24Z</time>
      </trkpt>
      <trkpt lat="42.230178" lon="-1.515682">
        <ele>291.0</ele>
        <time>2010-04-30T09:04:32Z</time>
      </trkpt>
      <trkpt lat="42.230264" lon="-1.515629">
        <ele>291.0</ele>
        <time>2010-04-30T09:04:40Z</time>
      </trkpt>
      <trkpt lat="42.230351" lon="-1.515584">
        <ele>291.0</ele>
        <time>2010-04-30T09:04:48Z</time>
      </trkpt>
      <trkpt lat="42.230438" lon="-1.515530">
        <ele>291.0</ele>
        <time>2010-04-30T09:04:56Z</time>
      </trkpt>
      <trkpt lat="42.230531" lon="-1.515476">
        <ele>291.0</ele>
        <time>2010-04-30T09:05:05Z</time>
      </trkpt>
      <trkpt lat="42.230618" lon="-1.515404">
        <ele>291.0</ele>
        <time>2010-04-30T09:05:14Z</time>
      </trkpt>
      <trkpt lat="42.230698" lon="-1.515332">
        <ele>291.0</ele>
        <time>2010-04-30T09:05:23Z</time>
      </trkpt>
      <trkpt lat="42.230778" lon="-1.515260">
        <ele>291.0</ele>
        <time>2010-04-30T09:05:31Z</time>
      </trkpt>
      <trkpt lat="42.230852" lon="-1.515188">
        <ele>291.0</ele>
        <time>2010-04-30T09:05:39Z</time>
      </trkpt>
      <trkpt lat="42.230925" lon="-1.515108">
        <ele>298.0</ele>
        <time>2010-04-30T09:05:47Z</time>
      </trkpt>
      <trkpt lat="42.230999" lon="-1.515027">
        <ele>298.0</ele>
        <time>2010-04-30T09:05:56Z</time>
      </trkpt>
      <trkpt lat="42.231066" lon="-1.514928">
        <ele>298.0</ele>
        <time>2010-04-30T09:06:05Z</time>
      </trkpt>
      <trkpt lat="42.231119" lon="-1.514829">
        <ele>298.0</ele>
        <time>2010-04-30T09:06:14Z</time>
      </trkpt>
      <trkpt lat="42.231186" lon="-1.514730">
        <ele>298.0</ele>
        <time>2010-04-30T09:06:22Z</time>
      </trkpt>
      <trkpt lat="42.231266" lon="-1.514649">
        <ele>298.0</ele>
        <time>2010-04-30T09:06:30Z</time>
      </trkpt>
      <trkpt lat="42.231353" lon="-1.514604">
        <ele>298.0</ele>
        <time>2010-04-30T09:06:38Z</time>
      </trkpt>
      <trkpt lat="42.231439" lon="-1.514569">
        <ele>298.0</ele>
        <time>2010-04-30T09:06:45Z</time>
      </trkpt>
      <trkpt lat="42.231540" lon="-1.514551">
        <ele>303.0</ele>
        <time>2010-04-30T09:06:53Z</time>
      </trkpt>
      <trkpt lat="42.231640" lon="-1.514533">
        <ele>303.0</ele>
        <time>2010-04-30T09:07:02Z</time>
      </trkpt>
      <trkpt lat="42.231740" lon="-1.514515">
        <ele>303.0</ele>
        <time>2010-04-30T09:07:11Z</time>
      </trkpt>
      <trkpt lat="42.231840" lon="-1.514488">
        <ele>303.0</ele>
        <time>2010-04-30T09:07:20Z</time>
      </trkpt>
      <trkpt lat="42.231933" lon="-1.514470">
        <ele>303.0</ele>
        <time>2010-04-30T09:07:28Z</time>
      </trkpt>
      <trkpt lat="42.232027" lon="-1.514452">
        <ele>303.0</ele>
        <time>2010-04-30T09:07:36Z</time>
      </trkpt>
      <trkpt lat="42.232127" lon="-1.514443">
        <ele>303.0</ele>
        <time>2010-04-30T09:07:44Z</time>
      </trkpt>
      <trkpt lat="42.232221" lon="-1.514434">
        <ele>303.0</ele>
        <time>2010-04-30T09:07:52Z</time>
      </trkpt>
      <trkpt lat="42.232314" lon="-1.514434">
        <ele>303.0</ele>
        <time>2010-04-30T09:08:00Z</time>
      </trkpt>
      <trkpt lat="42.232414" lon="-1.514425">
        <ele>303.0</ele>
        <time>2010-04-30T09:08:09Z</time>
      </trkpt>
      <trkpt lat="42.232508" lon="-1.514425">
        <ele>303.0</ele>
        <time>2010-04-30T09:08:17Z</time>
      </trkpt>
      <trkpt lat="42.232601" lon="-1.514425">
        <ele>303.0</ele>
        <time>2010-04-30T09:08:25Z</time>
      </trkpt>
      <trkpt lat="42.232694" lon="-1.514416">
        <ele>303.0</ele>
        <time>2010-04-30T09:08:33Z</time>
      </trkpt>
      <trkpt lat="42.232795" lon="-1.514416">
        <ele>303.0</ele>
        <time>2010-04-30T09:08:42Z</time>
      </trkpt>
      <trkpt lat="42.232895" lon="-1.514407">
        <ele>303.0</ele>
        <time>2010-04-30T09:08:50Z</time>
      </trkpt>
      <trkpt lat="42.232995" lon="-1.514389">
        <ele>303.0</ele>
        <time>2010-04-30T09:08:59Z</time>
      </trkpt>
      <trkpt lat="42.233088" lon="-1.514371">
        <ele>303.0</ele>
        <time>2010-04-30T09:09:08Z</time>
      </trkpt>
      <trkpt lat="42.233182" lon="-1.514344">
        <ele>303.0</ele>
        <time>2010-04-30T09:09:17Z</time>
      </trkpt>
      <trkpt lat="42.233275" lon="-1.514326">
        <ele>303.0</ele>
        <time>2010-04-30T09:09:36Z</time>
      </trkpt>
      <trkpt lat="42.233369" lon="-1.514308">
        <ele>303.0</ele>
        <time>2010-04-30T09:09:45Z</time>
      </trkpt>
      <trkpt lat="42.233456" lon="-1.514344">
        <ele>303.0</ele>
        <time>2010-04-30T09:10:19Z</time>
      </trkpt>
      <trkpt lat="42.233549" lon="-1.514317">
        <ele>303.0</ele>
        <time>2010-04-30T09:10:30Z</time>
      </trkpt>
      <trkpt lat="42.233642" lon="-1.514326">
        <ele>303.0</ele>
        <time>2010-04-30T09:10:43Z</time>
      </trkpt>
      <trkpt lat="42.233736" lon="-1.514299">
        <ele>303.0</ele>
        <time>2010-04-30T09:11:17Z</time>
      </trkpt>
      <trkpt lat="42.233829" lon="-1.514281">
        <ele>303.0</ele>
        <time>2010-04-30T09:11:34Z</time>
      </trkpt>
      <trkpt lat="42.233923" lon="-1.514263">
        <ele>303.0</ele>
        <time>2010-04-30T09:11:43Z</time>
      </trkpt>
      <trkpt lat="42.234016" lon="-1.514254">
        <ele>303.0</ele>
        <time>2010-04-30T09:11:51Z</time>
      </trkpt>
      <trkpt lat="42.234110" lon="-1.514245">
        <ele>303.0</ele>
        <time>2010-04-30T09:12:00Z</time>
      </trkpt>
      <trkpt lat="42.234203" lon="-1.514236">
        <ele>303.0</ele>
        <time>2010-04-30T09:12:08Z</time>
      </trkpt>
      <trkpt lat="42.234297" lon="-1.514227">
        <ele>303.0</ele>
        <time>2010-04-30T09:12:16Z</time>
      </trkpt>
      <trkpt lat="42.234390" lon="-1.514218">
        <ele>303.0</ele>
        <time>2010-04-30T09:12:25Z</time>
      </trkpt>
      <trkpt lat="42.234484" lon="-1.514209">
        <ele>303.0</ele>
        <time>2010-04-30T09:12:33Z</time>
      </trkpt>
      <trkpt lat="42.234577" lon="-1.514200">
        <ele>303.0</ele>
        <time>2010-04-30T09:12:41Z</time>
      </trkpt>
      <trkpt lat="42.234671" lon="-1.514182">
        <ele>303.0</ele>
        <time>2010-04-30T09:12:50Z</time>
      </trkpt>
      <trkpt lat="42.234764" lon="-1.514182">
        <ele>303.0</ele>
        <time>2010-04-30T09:12:59Z</time>
      </trkpt>
      <trkpt lat="42.234864" lon="-1.514173">
        <ele>303.0</ele>
        <time>2010-04-30T09:13:08Z</time>
      </trkpt>
      <trkpt lat="42.234958" lon="-1.514155">
        <ele>303.0</ele>
        <time>2010-04-30T09:13:17Z</time>
      </trkpt>
      <trkpt lat="42.235051" lon="-1.514146">
        <ele>303.0</ele>
        <time>2010-04-30T09:13:25Z</time>
      </trkpt>
      <trkpt lat="42.235145" lon="-1.514137">
        <ele>303.0</ele>
        <time>2010-04-30T09:13:33Z</time>
      </trkpt>
      <trkpt lat="42.235238" lon="-1.514128">
        <ele>303.0</ele>
        <time>2010-04-30T09:13:40Z</time>
      </trkpt>
      <trkpt lat="42.235338" lon="-1.514119">
        <ele>303.0</ele>
        <time>2010-04-30T09:13:49Z</time>
      </trkpt>
      <trkpt lat="42.235432" lon="-1.514110">
        <ele>303.0</ele>
        <time>2010-04-30T09:13:58Z</time>
      </trkpt>
      <trkpt lat="42.235525" lon="-1.514110">
        <ele>303.0</ele>
        <time>2010-04-30T09:14:06Z</time>
      </trkpt>
      <trkpt lat="42.235618" lon="-1.514101">
        <ele>303.0</ele>
        <time>2010-04-30T09:14:14Z</time>
      </trkpt>
      <trkpt lat="42.235712" lon="-1.514101">
        <ele>303.0</ele>
        <time>2010-04-30T09:14:23Z</time>
      </trkpt>
      <trkpt lat="42.235812" lon="-1.514101">
        <ele>303.0</ele>
        <time>2010-04-30T09:14:32Z</time>
      </trkpt>
      <trkpt lat="42.235912" lon="-1.514101">
        <ele>303.0</ele>
        <time>2010-04-30T09:14:41Z</time>
      </trkpt>
      <trkpt lat="42.236006" lon="-1.514101">
        <ele>303.0</ele>
        <time>2010-04-30T09:14:50Z</time>
      </trkpt>
      <trkpt lat="42.236099" lon="-1.514101">
        <ele>303.0</ele>
        <time>2010-04-30T09:15:04Z</time>
      </trkpt>
      <trkpt lat="42.236193" lon="-1.514101">
        <ele>303.0</ele>
        <time>2010-04-30T09:15:13Z</time>
      </trkpt>
      <trkpt lat="42.236286" lon="-1.514101">
        <ele>303.0</ele>
        <time>2010-04-30T09:15:21Z</time>
      </trkpt>
      <trkpt lat="42.236386" lon="-1.514110">
        <ele>303.0</ele>
        <time>2010-04-30T09:15:30Z</time>
      </trkpt>
      <trkpt lat="42.236480" lon="-1.514101">
        <ele>303.0</ele>
        <time>2010-04-30T09:15:38Z</time>
      </trkpt>
      <trkpt lat="42.236573" lon="-1.514092">
        <ele>303.0</ele>
        <time>2010-04-30T09:15:46Z</time>
      </trkpt>
      <trkpt lat="42.236667" lon="-1.514101">
        <ele>303.0</ele>
        <time>2010-04-30T09:15:55Z</time>
      </trkpt>
      <trkpt lat="42.236767" lon="-1.514101">
        <ele>303.0</ele>
        <time>2010-04-30T09:16:04Z</time>
      </trkpt>
      <trkpt lat="42.236860" lon="-1.514101">
        <ele>303.0</ele>
        <time>2010-04-30T09:16:12Z</time>
      </trkpt>
      <trkpt lat="42.236954" lon="-1.514119">
        <ele>303.0</ele>
        <time>2010-04-30T09:16:20Z</time>
      </trkpt>
      <trkpt lat="42.237054" lon="-1.514119">
        <ele>303.0</ele>
        <time>2010-04-30T09:16:29Z</time>
      </trkpt>
      <trkpt lat="42.237147" lon="-1.514128">
        <ele>303.0</ele>
        <time>2010-04-30T09:16:37Z</time>
      </trkpt>
      <trkpt lat="42.237241" lon="-1.514128">
        <ele>303.0</ele>
        <time>2010-04-30T09:16:45Z</time>
      </trkpt>
      <trkpt lat="42.237341" lon="-1.514128">
        <ele>303.0</ele>
        <time>2010-04-30T09:16:53Z</time>
      </trkpt>
      <trkpt lat="42.237434" lon="-1.514128">
        <ele>308.0</ele>
        <time>2010-04-30T09:17:01Z</time>
      </trkpt>
      <trkpt lat="42.237528" lon="-1.514137">
        <ele>308.0</ele>
        <time>2010-04-30T09:17:10Z</time>
      </trkpt>
      <trkpt lat="42.237621" lon="-1.514146">
        <ele>308.0</ele>
        <time>2010-04-30T09:17:18Z</time>
      </trkpt>
      <trkpt lat="42.237715" lon="-1.514155">
        <ele>308.0</ele>
        <time>2010-04-30T09:17:26Z</time>
      </trkpt>
      <trkpt lat="42.237815" lon="-1.514164">
        <ele>308.0</ele>
        <time>2010-04-30T09:17:35Z</time>
      </trkpt>
      <trkpt lat="42.237908" lon="-1.514173">
        <ele>308.0</ele>
        <time>2010-04-30T09:17:43Z</time>
      </trkpt>
      <trkpt lat="42.238002" lon="-1.514182">
        <ele>308.0</ele>
        <time>2010-04-30T09:17:51Z</time>
      </trkpt>
      <trkpt lat="42.238102" lon="-1.514191">
        <ele>308.0</ele>
        <time>2010-04-30T09:17:59Z</time>
      </trkpt>
      <trkpt lat="42.238195" lon="-1.514209">
        <ele>308.0</ele>
        <time>2010-04-30T09:18:07Z</time>
      </trkpt>
      <trkpt lat="42.238295" lon="-1.514227">
        <ele>308.0</ele>
        <time>2010-04-30T09:18:15Z</time>
      </trkpt>
      <trkpt lat="42.238389" lon="-1.514245">
        <ele>308.0</ele>
        <time>2010-04-30T09:18:23Z</time>
      </trkpt>
      <trkpt lat="42.238489" lon="-1.514254">
        <ele>308.0</ele>
        <time>2010-04-30T09:18:31Z</time>
      </trkpt>
      <trkpt lat="42.238582" lon="-1.514272">
        <ele>308.0</ele>
        <time>2010-04-30T09:18:39Z</time>
      </trkpt>
      <trkpt lat="42.238676" lon="-1.514299">
        <ele>308.0</ele>
        <time>2010-04-30T09:18:47Z</time>
      </trkpt>
      <trkpt lat="42.238776" lon="-1.514317">
        <ele>308.0</ele>
        <time>2010-04-30T09:18:56Z</time>
      </trkpt>
      <trkpt lat="42.238869" lon="-1.514344">
        <ele>308.0</ele>
        <time>2010-04-30T09:19:05Z</time>
      </trkpt>
      <trkpt lat="42.238970" lon="-1.514371">
        <ele>308.0</ele>
        <time>2010-04-30T09:19:14Z</time>
      </trkpt>
      <trkpt lat="42.239056" lon="-1.514407">
        <ele>308.0</ele>
        <time>2010-04-30T09:19:22Z</time>
      </trkpt>
      <trkpt lat="42.239143" lon="-1.514443">
        <ele>308.0</ele>
        <time>2010-04-30T09:19:36Z</time>
      </trkpt>
      <trkpt lat="42.239230" lon="-1.514488">
        <ele>308.0</ele>
        <time>2010-04-30T09:19:54Z</time>
      </trkpt>
      <trkpt lat="42.239310" lon="-1.514560">
        <ele>308.0</ele>
        <time>2010-04-30T09:20:03Z</time>
      </trkpt>
      <trkpt lat="42.239377" lon="-1.514649">
        <ele>308.0</ele>
        <time>2010-04-30T09:20:11Z</time>
      </trkpt>
      <trkpt lat="42.239423" lon="-1.514757">
        <ele>308.0</ele>
        <time>2010-04-30T09:20:18Z</time>
      </trkpt>
      <trkpt lat="42.239463" lon="-1.514883">
        <ele>308.0</ele>
        <time>2010-04-30T09:20:26Z</time>
      </trkpt>
      <trkpt lat="42.239497" lon="-1.515009">
        <ele>308.0</ele>
        <time>2010-04-30T09:20:34Z</time>
      </trkpt>
      <trkpt lat="42.239544" lon="-1.515126">
        <ele>308.0</ele>
        <time>2010-04-30T09:20:43Z</time>
      </trkpt>
      <trkpt lat="42.239597" lon="-1.515224">
        <ele>308.0</ele>
        <time>2010-04-30T09:20:51Z</time>
      </trkpt>
      <trkpt lat="42.239664" lon="-1.515323">
        <ele>308.0</ele>
        <time>2010-04-30T09:20:59Z</time>
      </trkpt>
      <trkpt lat="42.239730" lon="-1.515422">
        <ele>308.0</ele>
        <time>2010-04-30T09:21:07Z</time>
      </trkpt>
      <trkpt lat="42.239797" lon="-1.515521">
        <ele>308.0</ele>
        <time>2010-04-30T09:21:15Z</time>
      </trkpt>
      <trkpt lat="42.239857" lon="-1.515620">
        <ele>308.0</ele>
        <time>2010-04-30T09:21:23Z</time>
      </trkpt>
      <trkpt lat="42.239924" lon="-1.515709">
        <ele>308.0</ele>
        <time>2010-04-30T09:21:31Z</time>
      </trkpt>
      <trkpt lat="42.239991" lon="-1.515808">
        <ele>308.0</ele>
        <time>2010-04-30T09:21:39Z</time>
      </trkpt>
      <trkpt lat="42.240058" lon="-1.515898">
        <ele>308.0</ele>
        <time>2010-04-30T09:21:47Z</time>
      </trkpt>
      <trkpt lat="42.240124" lon="-1.515988">
        <ele>308.0</ele>
        <time>2010-04-30T09:21:55Z</time>
      </trkpt>
      <trkpt lat="42.240204" lon="-1.516060">
        <ele>308.0</ele>
        <time>2010-04-30T09:22:03Z</time>
      </trkpt>
      <trkpt lat="42.240291" lon="-1.516123">
        <ele>308.0</ele>
        <time>2010-04-30T09:22:11Z</time>
      </trkpt>
      <trkpt lat="42.240371" lon="-1.516186">
        <ele>308.0</ele>
        <time>2010-04-30T09:22:19Z</time>
      </trkpt>
      <trkpt lat="42.240458" lon="-1.516248">
        <ele>308.0</ele>
        <time>2010-04-30T09:22:27Z</time>
      </trkpt>
      <trkpt lat="42.240538" lon="-1.516329">
        <ele>308.0</ele>
        <time>2010-04-30T09:22:35Z</time>
      </trkpt>
      <trkpt lat="42.240612" lon="-1.516401">
        <ele>308.0</ele>
        <time>2010-04-30T09:22:43Z</time>
      </trkpt>
      <trkpt lat="42.240685" lon="-1.516482">
        <ele>308.0</ele>
        <time>2010-04-30T09:22:51Z</time>
      </trkpt>
      <trkpt lat="42.240758" lon="-1.516563">
        <ele>308.0</ele>
        <time>2010-04-30T09:22:59Z</time>
      </trkpt>
      <trkpt lat="42.240832" lon="-1.516644">
        <ele>308.0</ele>
        <time>2010-04-30T09:23:07Z</time>
      </trkpt>
      <trkpt lat="42.240912" lon="-1.516716">
        <ele>308.0</ele>
        <time>2010-04-30T09:23:15Z</time>
      </trkpt>
      <trkpt lat="42.240999" lon="-1.516787">
        <ele>308.0</ele>
        <time>2010-04-30T09:23:24Z</time>
      </trkpt>
      <trkpt lat="42.241072" lon="-1.516859">
        <ele>308.0</ele>
        <time>2010-04-30T09:23:32Z</time>
      </trkpt>
      <trkpt lat="42.241146" lon="-1.516931">
        <ele>308.0</ele>
        <time>2010-04-30T09:23:40Z</time>
      </trkpt>
      <trkpt lat="42.241226" lon="-1.517012">
        <ele>308.0</ele>
        <time>2010-04-30T09:23:49Z</time>
      </trkpt>
      <trkpt lat="42.241299" lon="-1.517093">
        <ele>308.0</ele>
        <time>2010-04-30T09:23:58Z</time>
      </trkpt>
      <trkpt lat="42.241373" lon="-1.517174">
        <ele>308.0</ele>
        <time>2010-04-30T09:24:06Z</time>
      </trkpt>
      <trkpt lat="42.241453" lon="-1.517272">
        <ele>308.0</ele>
        <time>2010-04-30T09:24:15Z</time>
      </trkpt>
      <trkpt lat="42.241533" lon="-1.517353">
        <ele>308.0</ele>
        <time>2010-04-30T09:24:24Z</time>
      </trkpt>
      <trkpt lat="42.241606" lon="-1.517443">
        <ele>308.0</ele>
        <time>2010-04-30T09:24:32Z</time>
      </trkpt>
      <trkpt lat="42.241686" lon="-1.517515">
        <ele>308.0</ele>
        <time>2010-04-30T09:24:40Z</time>
      </trkpt>
      <trkpt lat="42.241766" lon="-1.517578">
        <ele>308.0</ele>
        <time>2010-04-30T09:24:48Z</time>
      </trkpt>
      <trkpt lat="42.241846" lon="-1.517650">
        <ele>308.0</ele>
        <time>2010-04-30T09:24:56Z</time>
      </trkpt>
      <trkpt lat="42.241927" lon="-1.517722">
        <ele>308.0</ele>
        <time>2010-04-30T09:25:04Z</time>
      </trkpt>
      <trkpt lat="42.242020" lon="-1.517776">
        <ele>308.0</ele>
        <time>2010-04-30T09:25:12Z</time>
      </trkpt>
      <trkpt lat="42.242120" lon="-1.517802">
        <ele>308.0</ele>
        <time>2010-04-30T09:25:22Z</time>
      </trkpt>
      <trkpt lat="42.242207" lon="-1.517847">
        <ele>314.0</ele>
        <time>2010-04-30T09:25:31Z</time>
      </trkpt>
      <trkpt lat="42.242294" lon="-1.517892">
        <ele>314.0</ele>
        <time>2010-04-30T09:25:39Z</time>
      </trkpt>
      <trkpt lat="42.242380" lon="-1.517937">
        <ele>314.0</ele>
        <time>2010-04-30T09:25:46Z</time>
      </trkpt>
      <trkpt lat="42.242474" lon="-1.517964">
        <ele>314.0</ele>
        <time>2010-04-30T09:25:55Z</time>
      </trkpt>
      <trkpt lat="42.242554" lon="-1.517892">
        <ele>314.0</ele>
        <time>2010-04-30T09:26:05Z</time>
      </trkpt>
      <trkpt lat="42.242601" lon="-1.517785">
        <ele>314.0</ele>
        <time>2010-04-30T09:26:14Z</time>
      </trkpt>
      <trkpt lat="42.242654" lon="-1.517686">
        <ele>314.0</ele>
        <time>2010-04-30T09:26:22Z</time>
      </trkpt>
      <trkpt lat="42.242714" lon="-1.517578">
        <ele>314.0</ele>
        <time>2010-04-30T09:26:36Z</time>
      </trkpt>
      <trkpt lat="42.242788" lon="-1.517488">
        <ele>314.0</ele>
        <time>2010-04-30T09:26:44Z</time>
      </trkpt>
      <trkpt lat="42.242854" lon="-1.517398">
        <ele>314.0</ele>
        <time>2010-04-30T09:26:53Z</time>
      </trkpt>
      <trkpt lat="42.242928" lon="-1.517326">
        <ele>314.0</ele>
        <time>2010-04-30T09:27:02Z</time>
      </trkpt>
      <trkpt lat="42.243015" lon="-1.517263">
        <ele>314.0</ele>
        <time>2010-04-30T09:27:09Z</time>
      </trkpt>
      <trkpt lat="42.243101" lon="-1.517201">
        <ele>314.0</ele>
        <time>2010-04-30T09:27:18Z</time>
      </trkpt>
      <trkpt lat="42.243188" lon="-1.517156">
        <ele>314.0</ele>
        <time>2010-04-30T09:27:27Z</time>
      </trkpt>
      <trkpt lat="42.243282" lon="-1.517111">
        <ele>314.0</ele>
        <time>2010-04-30T09:27:36Z</time>
      </trkpt>
      <trkpt lat="42.243375" lon="-1.517120">
        <ele>314.0</ele>
        <time>2010-04-30T09:27:46Z</time>
      </trkpt>
      <trkpt lat="42.243468" lon="-1.517129">
        <ele>314.0</ele>
        <time>2010-04-30T09:27:55Z</time>
      </trkpt>
      <trkpt lat="42.243569" lon="-1.517093">
        <ele>314.0</ele>
        <time>2010-04-30T09:28:05Z</time>
      </trkpt>
      <trkpt lat="42.243642" lon="-1.517021">
        <ele>314.0</ele>
        <time>2010-04-30T09:28:13Z</time>
      </trkpt>
      <trkpt lat="42.243702" lon="-1.516922">
        <ele>314.0</ele>
        <time>2010-04-30T09:28:21Z</time>
      </trkpt>
      <trkpt lat="42.243735" lon="-1.516805">
        <ele>314.0</ele>
        <time>2010-04-30T09:28:29Z</time>
      </trkpt>
      <trkpt lat="42.243749" lon="-1.516671">
        <ele>314.0</ele>
        <time>2010-04-30T09:28:38Z</time>
      </trkpt>
      <trkpt lat="42.243749" lon="-1.516536">
        <ele>314.0</ele>
        <time>2010-04-30T09:28:47Z</time>
      </trkpt>
      <trkpt lat="42.243775" lon="-1.516410">
        <ele>314.0</ele>
        <time>2010-04-30T09:28:55Z</time>
      </trkpt>
      <trkpt lat="42.243796" lon="-1.516284">
        <ele>314.0</ele>
        <time>2010-04-30T09:29:03Z</time>
      </trkpt>
      <trkpt lat="42.243829" lon="-1.516168">
        <ele>314.0</ele>
        <time>2010-04-30T09:29:12Z</time>
      </trkpt>
      <trkpt lat="42.243876" lon="-1.516051">
        <ele>314.0</ele>
        <time>2010-04-30T09:29:20Z</time>
      </trkpt>
      <trkpt lat="42.243929" lon="-1.515952">
        <ele>314.0</ele>
        <time>2010-04-30T09:29:27Z</time>
      </trkpt>
      <trkpt lat="42.243976" lon="-1.515844">
        <ele>314.0</ele>
        <time>2010-04-30T09:29:35Z</time>
      </trkpt>
      <trkpt lat="42.244022" lon="-1.515736">
        <ele>314.0</ele>
        <time>2010-04-30T09:29:43Z</time>
      </trkpt>
      <trkpt lat="42.244069" lon="-1.515620">
        <ele>314.0</ele>
        <time>2010-04-30T09:29:57Z</time>
      </trkpt>
      <trkpt lat="42.244116" lon="-1.515512">
        <ele>314.0</ele>
        <time>2010-04-30T09:30:06Z</time>
      </trkpt>
      <trkpt lat="42.244156" lon="-1.515386">
        <ele>314.0</ele>
        <time>2010-04-30T09:30:15Z</time>
      </trkpt>
      <trkpt lat="42.244196" lon="-1.515269">
        <ele>314.0</ele>
        <time>2010-04-30T09:30:23Z</time>
      </trkpt>
      <trkpt lat="42.244236" lon="-1.515152">
        <ele>314.0</ele>
        <time>2010-04-30T09:30:31Z</time>
      </trkpt>
      <trkpt lat="42.244276" lon="-1.515036">
        <ele>314.0</ele>
        <time>2010-04-30T09:30:39Z</time>
      </trkpt>
      <trkpt lat="42.244323" lon="-1.514919">
        <ele>314.0</ele>
        <time>2010-04-30T09:30:47Z</time>
      </trkpt>
      <trkpt lat="42.244370" lon="-1.514802">
        <ele>314.0</ele>
        <time>2010-04-30T09:30:55Z</time>
      </trkpt>
      <trkpt lat="42.244403" lon="-1.514685">
        <ele>314.0</ele>
        <time>2010-04-30T09:31:03Z</time>
      </trkpt>
      <trkpt lat="42.244450" lon="-1.514560">
        <ele>314.0</ele>
        <time>2010-04-30T09:31:11Z</time>
      </trkpt>
      <trkpt lat="42.244496" lon="-1.514443">
        <ele>314.0</ele>
        <time>2010-04-30T09:31:19Z</time>
      </trkpt>
      <trkpt lat="42.244543" lon="-1.514317">
        <ele>314.0</ele>
        <time>2010-04-30T09:31:27Z</time>
      </trkpt>
      <trkpt lat="42.244596" lon="-1.514209">
        <ele>314.0</ele>
        <time>2010-04-30T09:31:35Z</time>
      </trkpt>
      <trkpt lat="42.244663" lon="-1.514110">
        <ele>314.0</ele>
        <time>2010-04-30T09:31:43Z</time>
      </trkpt>
      <trkpt lat="42.244737" lon="-1.514039">
        <ele>314.0</ele>
        <time>2010-04-30T09:31:51Z</time>
      </trkpt>
      <trkpt lat="42.244830" lon="-1.513985">
        <ele>314.0</ele>
        <time>2010-04-30T09:32:00Z</time>
      </trkpt>
      <trkpt lat="42.244930" lon="-1.513958">
        <ele>314.0</ele>
        <time>2010-04-30T09:32:09Z</time>
      </trkpt>
      <trkpt lat="42.245024" lon="-1.513976">
        <ele>319.0</ele>
        <time>2010-04-30T09:32:55Z</time>
      </trkpt>
      <trkpt lat="42.245117" lon="-1.513976">
        <ele>319.0</ele>
        <time>2010-04-30T09:33:03Z</time>
      </trkpt>
      <trkpt lat="42.245217" lon="-1.513994">
        <ele>319.0</ele>
        <time>2010-04-30T09:33:11Z</time>
      </trkpt>
      <trkpt lat="42.245311" lon="-1.514021">
        <ele>319.0</ele>
        <time>2010-04-30T09:33:20Z</time>
      </trkpt>
      <trkpt lat="42.245404" lon="-1.514030">
        <ele>319.0</ele>
        <time>2010-04-30T09:33:28Z</time>
      </trkpt>
      <trkpt lat="42.245504" lon="-1.514030">
        <ele>319.0</ele>
        <time>2010-04-30T09:33:36Z</time>
      </trkpt>
      <trkpt lat="42.245598" lon="-1.514021">
        <ele>319.0</ele>
        <time>2010-04-30T09:33:44Z</time>
      </trkpt>
      <trkpt lat="42.245698" lon="-1.514003">
        <ele>319.0</ele>
        <time>2010-04-30T09:33:53Z</time>
      </trkpt>
      <trkpt lat="42.245791" lon="-1.513985">
        <ele>319.0</ele>
        <time>2010-04-30T09:34:01Z</time>
      </trkpt>
      <trkpt lat="42.245885" lon="-1.513967">
        <ele>319.0</ele>
        <time>2010-04-30T09:34:09Z</time>
      </trkpt>
      <trkpt lat="42.245978" lon="-1.513949">
        <ele>319.0</ele>
        <time>2010-04-30T09:34:17Z</time>
      </trkpt>
      <trkpt lat="42.246078" lon="-1.513922">
        <ele>319.0</ele>
        <time>2010-04-30T09:34:25Z</time>
      </trkpt>
      <trkpt lat="42.246178" lon="-1.513904">
        <ele>319.0</ele>
        <time>2010-04-30T09:34:34Z</time>
      </trkpt>
      <trkpt lat="42.246272" lon="-1.513886">
        <ele>319.0</ele>
        <time>2010-04-30T09:34:43Z</time>
      </trkpt>
      <trkpt lat="42.246372" lon="-1.513859">
        <ele>324.0</ele>
        <time>2010-04-30T09:34:52Z</time>
      </trkpt>
      <trkpt lat="42.246472" lon="-1.513841">
        <ele>324.0</ele>
        <time>2010-04-30T09:35:01Z</time>
      </trkpt>
      <trkpt lat="42.246552" lon="-1.513778">
        <ele>324.0</ele>
        <time>2010-04-30T09:35:10Z</time>
      </trkpt>
      <trkpt lat="42.246626" lon="-1.513697">
        <ele>324.0</ele>
        <time>2010-04-30T09:35:18Z</time>
      </trkpt>
      <trkpt lat="42.246699" lon="-1.513616">
        <ele>324.0</ele>
        <time>2010-04-30T09:35:26Z</time>
      </trkpt>
      <trkpt lat="42.246786" lon="-1.513553">
        <ele>324.0</ele>
        <time>2010-04-30T09:35:35Z</time>
      </trkpt>
      <trkpt lat="42.246872" lon="-1.513500">
        <ele>324.0</ele>
        <time>2010-04-30T09:35:43Z</time>
      </trkpt>
      <trkpt lat="42.246966" lon="-1.513446">
        <ele>324.0</ele>
        <time>2010-04-30T09:35:52Z</time>
      </trkpt>
      <trkpt lat="42.247053" lon="-1.513401">
        <ele>329.0</ele>
        <time>2010-04-30T09:36:01Z</time>
      </trkpt>
      <trkpt lat="42.247139" lon="-1.513347">
        <ele>329.0</ele>
        <time>2010-04-30T09:36:10Z</time>
      </trkpt>
      <trkpt lat="42.247226" lon="-1.513311">
        <ele>329.0</ele>
        <time>2010-04-30T09:36:18Z</time>
      </trkpt>
      <trkpt lat="42.247313" lon="-1.513266">
        <ele>329.0</ele>
        <time>2010-04-30T09:36:27Z</time>
      </trkpt>
      <trkpt lat="42.247406" lon="-1.513230">
        <ele>329.0</ele>
        <time>2010-04-30T09:36:36Z</time>
      </trkpt>
      <trkpt lat="42.247493" lon="-1.513176">
        <ele>329.0</ele>
        <time>2010-04-30T09:36:45Z</time>
      </trkpt>
      <trkpt lat="42.247580" lon="-1.513131">
        <ele>336.0</ele>
        <time>2010-04-30T09:36:54Z</time>
      </trkpt>
      <trkpt lat="42.247673" lon="-1.513104">
        <ele>336.0</ele>
        <time>2010-04-30T09:37:03Z</time>
      </trkpt>
      <trkpt lat="42.247774" lon="-1.513077">
        <ele>336.0</ele>
        <time>2010-04-30T09:37:13Z</time>
      </trkpt>
      <trkpt lat="42.247860" lon="-1.513023">
        <ele>336.0</ele>
        <time>2010-04-30T09:37:23Z</time>
      </trkpt>
      <trkpt lat="42.247947" lon="-1.512961">
        <ele>336.0</ele>
        <time>2010-04-30T09:37:32Z</time>
      </trkpt>
      <trkpt lat="42.248027" lon="-1.512889">
        <ele>336.0</ele>
        <time>2010-04-30T09:37:41Z</time>
      </trkpt>
      <trkpt lat="42.248087" lon="-1.512790">
        <ele>336.0</ele>
        <time>2010-04-30T09:37:49Z</time>
      </trkpt>
      <trkpt lat="42.248134" lon="-1.512673">
        <ele>341.0</ele>
        <time>2010-04-30T09:37:58Z</time>
      </trkpt>
      <trkpt lat="42.248194" lon="-1.512574">
        <ele>341.0</ele>
        <time>2010-04-30T09:38:06Z</time>
      </trkpt>
      <trkpt lat="42.248261" lon="-1.512475">
        <ele>341.0</ele>
        <time>2010-04-30T09:38:14Z</time>
      </trkpt>
      <trkpt lat="42.248341" lon="-1.512404">
        <ele>341.0</ele>
        <time>2010-04-30T09:38:23Z</time>
      </trkpt>
      <trkpt lat="42.248428" lon="-1.512359">
        <ele>341.0</ele>
        <time>2010-04-30T09:38:31Z</time>
      </trkpt>
      <trkpt lat="42.248528" lon="-1.512341">
        <ele>341.0</ele>
        <time>2010-04-30T09:38:40Z</time>
      </trkpt>
      <trkpt lat="42.248628" lon="-1.512332">
        <ele>341.0</ele>
        <time>2010-04-30T09:38:48Z</time>
      </trkpt>
      <trkpt lat="42.248721" lon="-1.512350">
        <ele>346.0</ele>
        <time>2010-04-30T09:39:16Z</time>
      </trkpt>
      <trkpt lat="42.248821" lon="-1.512359">
        <ele>346.0</ele>
        <time>2010-04-30T09:39:24Z</time>
      </trkpt>
      <trkpt lat="42.248921" lon="-1.512359">
        <ele>346.0</ele>
        <time>2010-04-30T09:39:32Z</time>
      </trkpt>
      <trkpt lat="42.249015" lon="-1.512377">
        <ele>346.0</ele>
        <time>2010-04-30T09:39:40Z</time>
      </trkpt>
      <trkpt lat="42.249115" lon="-1.512386">
        <ele>346.0</ele>
        <time>2010-04-30T09:39:49Z</time>
      </trkpt>
      <trkpt lat="42.249208" lon="-1.512413">
        <ele>346.0</ele>
        <time>2010-04-30T09:39:57Z</time>
      </trkpt>
      <trkpt lat="42.249309" lon="-1.512431">
        <ele>346.0</ele>
        <time>2010-04-30T09:40:06Z</time>
      </trkpt>
      <trkpt lat="42.249395" lon="-1.512466">
        <ele>352.0</ele>
        <time>2010-04-30T09:40:14Z</time>
      </trkpt>
      <trkpt lat="42.249489" lon="-1.512493">
        <ele>352.0</ele>
        <time>2010-04-30T09:40:22Z</time>
      </trkpt>
      <trkpt lat="42.249589" lon="-1.512520">
        <ele>352.0</ele>
        <time>2010-04-30T09:40:31Z</time>
      </trkpt>
      <trkpt lat="42.249682" lon="-1.512547">
        <ele>352.0</ele>
        <time>2010-04-30T09:40:40Z</time>
      </trkpt>
      <trkpt lat="42.249776" lon="-1.512574">
        <ele>358.0</ele>
        <time>2010-04-30T09:40:48Z</time>
      </trkpt>
      <trkpt lat="42.249869" lon="-1.512601">
        <ele>358.0</ele>
        <time>2010-04-30T09:40:56Z</time>
      </trkpt>
      <trkpt lat="42.249956" lon="-1.512655">
        <ele>358.0</ele>
        <time>2010-04-30T09:41:05Z</time>
      </trkpt>
      <trkpt lat="42.250036" lon="-1.512727">
        <ele>358.0</ele>
        <time>2010-04-30T09:41:14Z</time>
      </trkpt>
      <trkpt lat="42.250123" lon="-1.512790">
        <ele>358.0</ele>
        <time>2010-04-30T09:41:23Z</time>
      </trkpt>
      <trkpt lat="42.250216" lon="-1.512844">
        <ele>363.0</ele>
        <time>2010-04-30T09:41:33Z</time>
      </trkpt>
      <trkpt lat="42.250296" lon="-1.512907">
        <ele>363.0</ele>
        <time>2010-04-30T09:42:31Z</time>
      </trkpt>
      <trkpt lat="42.250370" lon="-1.512979">
        <ele>363.0</ele>
        <time>2010-04-30T09:42:39Z</time>
      </trkpt>
      <trkpt lat="42.250457" lon="-1.513041">
        <ele>363.0</ele>
        <time>2010-04-30T09:42:48Z</time>
      </trkpt>
      <trkpt lat="42.250543" lon="-1.513104">
        <ele>363.0</ele>
        <time>2010-04-30T09:42:56Z</time>
      </trkpt>
      <trkpt lat="42.250630" lon="-1.513158">
        <ele>363.0</ele>
        <time>2010-04-30T09:43:05Z</time>
      </trkpt>
      <trkpt lat="42.250717" lon="-1.513212">
        <ele>363.0</ele>
        <time>2010-04-30T09:43:14Z</time>
      </trkpt>
      <trkpt lat="42.250804" lon="-1.513257">
        <ele>363.0</ele>
        <time>2010-04-30T09:43:22Z</time>
      </trkpt>
      <trkpt lat="42.250897" lon="-1.513293">
        <ele>369.0</ele>
        <time>2010-04-30T09:43:30Z</time>
      </trkpt>
      <trkpt lat="42.250984" lon="-1.513329">
        <ele>369.0</ele>
        <time>2010-04-30T09:43:38Z</time>
      </trkpt>
      <trkpt lat="42.251071" lon="-1.513365">
        <ele>369.0</ele>
        <time>2010-04-30T09:43:45Z</time>
      </trkpt>
      <trkpt lat="42.251171" lon="-1.513392">
        <ele>369.0</ele>
        <time>2010-04-30T09:43:54Z</time>
      </trkpt>
      <trkpt lat="42.251264" lon="-1.513419">
        <ele>369.0</ele>
        <time>2010-04-30T09:44:03Z</time>
      </trkpt>
      <trkpt lat="42.251364" lon="-1.513446">
        <ele>369.0</ele>
        <time>2010-04-30T09:44:12Z</time>
      </trkpt>
      <trkpt lat="42.251464" lon="-1.513473">
        <ele>374.0</ele>
        <time>2010-04-30T09:44:21Z</time>
      </trkpt>
      <trkpt lat="42.251564" lon="-1.513500">
        <ele>374.0</ele>
        <time>2010-04-30T09:44:30Z</time>
      </trkpt>
      <trkpt lat="42.251665" lon="-1.513527">
        <ele>374.0</ele>
        <time>2010-04-30T09:44:39Z</time>
      </trkpt>
      <trkpt lat="42.251751" lon="-1.513562">
        <ele>374.0</ele>
        <time>2010-04-30T09:44:47Z</time>
      </trkpt>
      <trkpt lat="42.251845" lon="-1.513580">
        <ele>374.0</ele>
        <time>2010-04-30T09:44:55Z</time>
      </trkpt>
      <trkpt lat="42.251931" lon="-1.513616">
        <ele>374.0</ele>
        <time>2010-04-30T09:45:03Z</time>
      </trkpt>
      <trkpt lat="42.252032" lon="-1.513643">
        <ele>374.0</ele>
        <time>2010-04-30T09:45:12Z</time>
      </trkpt>
      <trkpt lat="42.252125" lon="-1.513634">
        <ele>374.0</ele>
        <time>2010-04-30T09:45:20Z</time>
      </trkpt>
      <trkpt lat="42.252225" lon="-1.513625">
        <ele>380.0</ele>
        <time>2010-04-30T09:45:28Z</time>
      </trkpt>
      <trkpt lat="42.252319" lon="-1.513598">
        <ele>380.0</ele>
        <time>2010-04-30T09:45:36Z</time>
      </trkpt>
      <trkpt lat="42.252419" lon="-1.513580">
        <ele>380.0</ele>
        <time>2010-04-30T09:45:45Z</time>
      </trkpt>
      <trkpt lat="42.252512" lon="-1.513571">
        <ele>380.0</ele>
        <time>2010-04-30T09:45:54Z</time>
      </trkpt>
      <trkpt lat="42.252606" lon="-1.513553">
        <ele>380.0</ele>
        <time>2010-04-30T09:46:03Z</time>
      </trkpt>
      <trkpt lat="42.252699" lon="-1.513553">
        <ele>380.0</ele>
        <time>2010-04-30T09:46:11Z</time>
      </trkpt>
      <trkpt lat="42.252792" lon="-1.513544">
        <ele>380.0</ele>
        <time>2010-04-30T09:46:19Z</time>
      </trkpt>
      <trkpt lat="42.252892" lon="-1.513562">
        <ele>386.0</ele>
        <time>2010-04-30T09:46:30Z</time>
      </trkpt>
      <trkpt lat="42.252986" lon="-1.513580">
        <ele>386.0</ele>
        <time>2010-04-30T09:46:38Z</time>
      </trkpt>
      <trkpt lat="42.253086" lon="-1.513589">
        <ele>386.0</ele>
        <time>2010-04-30T09:46:47Z</time>
      </trkpt>
      <trkpt lat="42.253186" lon="-1.513616">
        <ele>386.0</ele>
        <time>2010-04-30T09:46:57Z</time>
      </trkpt>
      <trkpt lat="42.253286" lon="-1.513643">
        <ele>386.0</ele>
        <time>2010-04-30T09:47:06Z</time>
      </trkpt>
      <trkpt lat="42.253386" lon="-1.513652">
        <ele>391.0</ele>
        <time>2010-04-30T09:47:15Z</time>
      </trkpt>
      <trkpt lat="42.253486" lon="-1.513643">
        <ele>391.0</ele>
        <time>2010-04-30T09:47:24Z</time>
      </trkpt>
      <trkpt lat="42.253580" lon="-1.513634">
        <ele>391.0</ele>
        <time>2010-04-30T09:47:33Z</time>
      </trkpt>
      <trkpt lat="42.253673" lon="-1.513634">
        <ele>391.0</ele>
        <time>2010-04-30T09:47:42Z</time>
      </trkpt>
      <trkpt lat="42.253767" lon="-1.513625">
        <ele>391.0</ele>
        <time>2010-04-30T09:47:52Z</time>
      </trkpt>
      <trkpt lat="42.253867" lon="-1.513616">
        <ele>398.0</ele>
        <time>2010-04-30T09:48:01Z</time>
      </trkpt>
      <trkpt lat="42.253960" lon="-1.513634">
        <ele>398.0</ele>
        <time>2010-04-30T09:48:33Z</time>
      </trkpt>
      <trkpt lat="42.254054" lon="-1.513607">
        <ele>398.0</ele>
        <time>2010-04-30T09:52:28Z</time>
      </trkpt>
      <trkpt lat="42.254147" lon="-1.513589">
        <ele>398.0</ele>
        <time>2010-04-30T09:53:26Z</time>
      </trkpt>
      <trkpt lat="42.254227" lon="-1.513527">
        <ele>398.0</ele>
        <time>2010-04-30T09:53:34Z</time>
      </trkpt>
      <trkpt lat="42.254321" lon="-1.513473">
        <ele>398.0</ele>
        <time>2010-04-30T09:53:43Z</time>
      </trkpt>
      <trkpt lat="42.254414" lon="-1.513428">
        <ele>398.0</ele>
        <time>2010-04-30T09:53:52Z</time>
      </trkpt>
      <trkpt lat="42.254501" lon="-1.513392">
        <ele>398.0</ele>
        <time>2010-04-30T09:54:00Z</time>
      </trkpt>
      <trkpt lat="42.254601" lon="-1.513365">
        <ele>398.0</ele>
        <time>2010-04-30T09:54:09Z</time>
      </trkpt>
      <trkpt lat="42.254694" lon="-1.513347">
        <ele>398.0</ele>
        <time>2010-04-30T09:54:17Z</time>
      </trkpt>
      <trkpt lat="42.254781" lon="-1.513311">
        <ele>398.0</ele>
        <time>2010-04-30T09:54:25Z</time>
      </trkpt>
      <trkpt lat="42.254881" lon="-1.513302">
        <ele>403.0</ele>
        <time>2010-04-30T09:54:34Z</time>
      </trkpt>
      <trkpt lat="42.254975" lon="-1.513284">
        <ele>403.0</ele>
        <time>2010-04-30T09:54:42Z</time>
      </trkpt>
      <trkpt lat="42.255075" lon="-1.513248">
        <ele>403.0</ele>
        <time>2010-04-30T09:54:51Z</time>
      </trkpt>
      <trkpt lat="42.255175" lon="-1.513239">
        <ele>403.0</ele>
        <time>2010-04-30T09:55:00Z</time>
      </trkpt>
      <trkpt lat="42.255275" lon="-1.513230">
        <ele>403.0</ele>
        <time>2010-04-30T09:55:09Z</time>
      </trkpt>
      <trkpt lat="42.255368" lon="-1.513221">
        <ele>403.0</ele>
        <time>2010-04-30T09:55:17Z</time>
      </trkpt>
      <trkpt lat="42.255469" lon="-1.513194">
        <ele>403.0</ele>
        <time>2010-04-30T09:55:26Z</time>
      </trkpt>
      <trkpt lat="42.255569" lon="-1.513167">
        <ele>403.0</ele>
        <time>2010-04-30T09:55:35Z</time>
      </trkpt>
      <trkpt lat="42.255662" lon="-1.513140">
        <ele>403.0</ele>
        <time>2010-04-30T09:55:43Z</time>
      </trkpt>
      <trkpt lat="42.255762" lon="-1.513104">
        <ele>403.0</ele>
        <time>2010-04-30T09:55:52Z</time>
      </trkpt>
      <trkpt lat="42.255862" lon="-1.513095">
        <ele>403.0</ele>
        <time>2010-04-30T09:56:01Z</time>
      </trkpt>
      <trkpt lat="42.255956" lon="-1.513077">
        <ele>408.0</ele>
        <time>2010-04-30T09:56:10Z</time>
      </trkpt>
      <trkpt lat="42.256056" lon="-1.513077">
        <ele>408.0</ele>
        <time>2010-04-30T09:56:19Z</time>
      </trkpt>
      <trkpt lat="42.256149" lon="-1.513077">
        <ele>408.0</ele>
        <time>2010-04-30T09:56:27Z</time>
      </trkpt>
      <trkpt lat="42.256249" lon="-1.513068">
        <ele>408.0</ele>
        <time>2010-04-30T09:56:35Z</time>
      </trkpt>
      <trkpt lat="42.256343" lon="-1.513068">
        <ele>408.0</ele>
        <time>2010-04-30T09:56:43Z</time>
      </trkpt>
      <trkpt lat="42.256436" lon="-1.513077">
        <ele>408.0</ele>
        <time>2010-04-30T09:56:51Z</time>
      </trkpt>
      <trkpt lat="42.256530" lon="-1.513077">
        <ele>408.0</ele>
        <time>2010-04-30T09:56:59Z</time>
      </trkpt>
      <trkpt lat="42.256623" lon="-1.513086">
        <ele>408.0</ele>
        <time>2010-04-30T09:57:07Z</time>
      </trkpt>
      <trkpt lat="42.256710" lon="-1.513122">
        <ele>408.0</ele>
        <time>2010-04-30T09:57:15Z</time>
      </trkpt>
      <trkpt lat="42.256797" lon="-1.513167">
        <ele>408.0</ele>
        <time>2010-04-30T09:57:24Z</time>
      </trkpt>
      <trkpt lat="42.256890" lon="-1.513221">
        <ele>408.0</ele>
        <time>2010-04-30T09:57:32Z</time>
      </trkpt>
      <trkpt lat="42.256983" lon="-1.513275">
        <ele>408.0</ele>
        <time>2010-04-30T09:57:41Z</time>
      </trkpt>
      <trkpt lat="42.257077" lon="-1.513311">
        <ele>408.0</ele>
        <time>2010-04-30T09:57:51Z</time>
      </trkpt>
      <trkpt lat="42.257250" lon="-1.513356">
        <ele>414.0</ele>
        <time>2010-04-30T10:12:01Z</time>
      </trkpt>
      <trkpt lat="42.257337" lon="-1.513311">
        <ele>414.0</ele>
        <time>2010-04-30T10:12:44Z</time>
      </trkpt>
      <trkpt lat="42.257430" lon="-1.513329">
        <ele>421.0</ele>
        <time>2010-04-30T10:13:39Z</time>
      </trkpt>
      <trkpt lat="42.257524" lon="-1.513356">
        <ele>421.0</ele>
        <time>2010-04-30T10:13:53Z</time>
      </trkpt>
      <trkpt lat="42.257604" lon="-1.513428">
        <ele>421.0</ele>
        <time>2010-04-30T10:14:04Z</time>
      </trkpt>
      <trkpt lat="42.257657" lon="-1.513527">
        <ele>421.0</ele>
        <time>2010-04-30T10:14:13Z</time>
      </trkpt>
      <trkpt lat="42.257704" lon="-1.513634">
        <ele>421.0</ele>
        <time>2010-04-30T10:14:23Z</time>
      </trkpt>
      <trkpt lat="42.257737" lon="-1.513751">
        <ele>421.0</ele>
        <time>2010-04-30T10:14:33Z</time>
      </trkpt>
      <trkpt lat="42.257764" lon="-1.513868">
        <ele>421.0</ele>
        <time>2010-04-30T10:14:42Z</time>
      </trkpt>
      <trkpt lat="42.257791" lon="-1.513994">
        <ele>421.0</ele>
        <time>2010-04-30T10:14:51Z</time>
      </trkpt>
      <trkpt lat="42.257804" lon="-1.514119">
        <ele>427.0</ele>
        <time>2010-04-30T10:15:02Z</time>
      </trkpt>
      <trkpt lat="42.257831" lon="-1.514236">
        <ele>427.0</ele>
        <time>2010-04-30T10:15:12Z</time>
      </trkpt>
      <trkpt lat="42.257858" lon="-1.514353">
        <ele>427.0</ele>
        <time>2010-04-30T10:15:22Z</time>
      </trkpt>
      <trkpt lat="42.257891" lon="-1.514479">
        <ele>427.0</ele>
        <time>2010-04-30T10:15:32Z</time>
      </trkpt>
      <trkpt lat="42.257904" lon="-1.514604">
        <ele>427.0</ele>
        <time>2010-04-30T10:15:42Z</time>
      </trkpt>
      <trkpt lat="42.257918" lon="-1.514730">
        <ele>432.0</ele>
        <time>2010-04-30T10:15:51Z</time>
      </trkpt>
      <trkpt lat="42.257938" lon="-1.514856">
        <ele>432.0</ele>
        <time>2010-04-30T10:16:00Z</time>
      </trkpt>
      <trkpt lat="42.257984" lon="-1.514973">
        <ele>432.0</ele>
        <time>2010-04-30T10:16:10Z</time>
      </trkpt>
      <trkpt lat="42.258038" lon="-1.515081">
        <ele>432.0</ele>
        <time>2010-04-30T10:16:19Z</time>
      </trkpt>
      <trkpt lat="42.258091" lon="-1.515188">
        <ele>432.0</ele>
        <time>2010-04-30T10:17:40Z</time>
      </trkpt>
      <trkpt lat="42.258145" lon="-1.515296">
        <ele>437.0</ele>
        <time>2010-04-30T10:17:50Z</time>
      </trkpt>
      <trkpt lat="42.258185" lon="-1.515413">
        <ele>437.0</ele>
        <time>2010-04-30T10:17:59Z</time>
      </trkpt>
      <trkpt lat="42.258231" lon="-1.515539">
        <ele>437.0</ele>
        <time>2010-04-30T10:18:08Z</time>
      </trkpt>
      <trkpt lat="42.258265" lon="-1.515656">
        <ele>437.0</ele>
        <time>2010-04-30T10:18:18Z</time>
      </trkpt>
      <trkpt lat="42.258305" lon="-1.515772">
        <ele>437.0</ele>
        <time>2010-04-30T10:18:27Z</time>
      </trkpt>
      <trkpt lat="42.258358" lon="-1.515880">
        <ele>437.0</ele>
        <time>2010-04-30T10:18:36Z</time>
      </trkpt>
      <trkpt lat="42.258418" lon="-1.515979">
        <ele>437.0</ele>
        <time>2010-04-30T10:18:45Z</time>
      </trkpt>
      <trkpt lat="42.258478" lon="-1.516078">
        <ele>437.0</ele>
        <time>2010-04-30T10:18:55Z</time>
      </trkpt>
      <trkpt lat="42.258558" lon="-1.516141">
        <ele>437.0</ele>
        <time>2010-04-30T10:19:16Z</time>
      </trkpt>
      <trkpt lat="42.258658" lon="-1.516132">
        <ele>437.0</ele>
        <time>2010-04-30T10:19:25Z</time>
      </trkpt>
      <trkpt lat="42.258752" lon="-1.516105">
        <ele>437.0</ele>
        <time>2010-04-30T10:19:35Z</time>
      </trkpt>
      <trkpt lat="42.258845" lon="-1.516069">
        <ele>437.0</ele>
        <time>2010-04-30T10:19:43Z</time>
      </trkpt>
      <trkpt lat="42.258939" lon="-1.516015">
        <ele>437.0</ele>
        <time>2010-04-30T10:19:52Z</time>
      </trkpt>
      <trkpt lat="42.259032" lon="-1.515961">
        <ele>437.0</ele>
        <time>2010-04-30T10:20:01Z</time>
      </trkpt>
      <trkpt lat="42.258985" lon="-1.515844">
        <ele>437.0</ele>
        <time>2010-04-30T10:21:03Z</time>
      </trkpt>
      <trkpt lat="42.258912" lon="-1.515772">
        <ele>443.0</ele>
        <time>2010-04-30T10:21:12Z</time>
      </trkpt>
      <trkpt lat="42.258852" lon="-1.515673">
        <ele>443.0</ele>
        <time>2010-04-30T10:21:26Z</time>
      </trkpt>
      <trkpt lat="42.258778" lon="-1.515584">
        <ele>443.0</ele>
        <time>2010-04-30T10:22:22Z</time>
      </trkpt>
      <trkpt lat="42.258738" lon="-1.515467">
        <ele>443.0</ele>
        <time>2010-04-30T10:22:31Z</time>
      </trkpt>
      <trkpt lat="42.258712" lon="-1.515341">
        <ele>443.0</ele>
        <time>2010-04-30T10:22:41Z</time>
      </trkpt>
      <trkpt lat="42.258685" lon="-1.515206">
        <ele>443.0</ele>
        <time>2010-04-30T10:22:50Z</time>
      </trkpt>
      <trkpt lat="42.258672" lon="-1.515072">
        <ele>443.0</ele>
        <time>2010-04-30T10:22:59Z</time>
      </trkpt>
      <trkpt lat="42.258658" lon="-1.514946">
        <ele>443.0</ele>
        <time>2010-04-30T10:23:08Z</time>
      </trkpt>
      <trkpt lat="42.258692" lon="-1.514766">
        <ele>443.0</ele>
        <time>2010-04-30T10:23:56Z</time>
      </trkpt>
      <trkpt lat="42.258772" lon="-1.514694">
        <ele>443.0</ele>
        <time>2010-04-30T10:24:05Z</time>
      </trkpt>
      <trkpt lat="42.258772" lon="-1.514569">
        <ele>443.0</ele>
        <time>2010-04-30T10:24:13Z</time>
      </trkpt>
      <trkpt lat="42.258778" lon="-1.514434">
        <ele>443.0</ele>
        <time>2010-04-30T10:24:22Z</time>
      </trkpt>
      <trkpt lat="42.258778" lon="-1.514308">
        <ele>443.0</ele>
        <time>2010-04-30T10:24:31Z</time>
      </trkpt>
      <trkpt lat="42.258718" lon="-1.514209">
        <ele>443.0</ele>
        <time>2010-04-30T10:24:44Z</time>
      </trkpt>
      <trkpt lat="42.258705" lon="-1.514074">
        <ele>443.0</ele>
        <time>2010-04-30T10:24:53Z</time>
      </trkpt>
      <trkpt lat="42.258705" lon="-1.513949">
        <ele>443.0</ele>
        <time>2010-04-30T10:25:02Z</time>
      </trkpt>
      <trkpt lat="42.258692" lon="-1.513814">
        <ele>443.0</ele>
        <time>2010-04-30T10:25:11Z</time>
      </trkpt>
      <trkpt lat="42.258698" lon="-1.513688">
        <ele>443.0</ele>
        <time>2010-04-30T10:25:21Z</time>
      </trkpt>
      <trkpt lat="42.258685" lon="-1.513553">
        <ele>443.0</ele>
        <time>2010-04-30T10:25:30Z</time>
      </trkpt>
      <trkpt lat="42.258698" lon="-1.513428">
        <ele>443.0</ele>
        <time>2010-04-30T10:25:39Z</time>
      </trkpt>
      <trkpt lat="42.258698" lon="-1.513293">
        <ele>443.0</ele>
        <time>2010-04-30T10:25:49Z</time>
      </trkpt>
      <trkpt lat="42.258698" lon="-1.513158">
        <ele>443.0</ele>
        <time>2010-04-30T10:25:59Z</time>
      </trkpt>
      <trkpt lat="42.258692" lon="-1.513032">
        <ele>443.0</ele>
        <time>2010-04-30T10:26:08Z</time>
      </trkpt>
      <trkpt lat="42.258685" lon="-1.512907">
        <ele>443.0</ele>
        <time>2010-04-30T10:26:17Z</time>
      </trkpt>
      <trkpt lat="42.258698" lon="-1.512781">
        <ele>443.0</ele>
        <time>2010-04-30T10:26:27Z</time>
      </trkpt>
      <trkpt lat="42.258712" lon="-1.512655">
        <ele>443.0</ele>
        <time>2010-04-30T10:26:37Z</time>
      </trkpt>
      <trkpt lat="42.258712" lon="-1.512529">
        <ele>443.0</ele>
        <time>2010-04-30T10:26:47Z</time>
      </trkpt>
      <trkpt lat="42.258712" lon="-1.512404">
        <ele>443.0</ele>
        <time>2010-04-30T10:26:57Z</time>
      </trkpt>
      <trkpt lat="42.258718" lon="-1.512269">
        <ele>443.0</ele>
        <time>2010-04-30T10:27:07Z</time>
      </trkpt>
      <trkpt lat="42.258725" lon="-1.512143">
        <ele>443.0</ele>
        <time>2010-04-30T10:27:17Z</time>
      </trkpt>
      <trkpt lat="42.258725" lon="-1.512017">
        <ele>443.0</ele>
        <time>2010-04-30T10:27:26Z</time>
      </trkpt>
      <trkpt lat="42.258718" lon="-1.511892">
        <ele>443.0</ele>
        <time>2010-04-30T10:27:36Z</time>
      </trkpt>
      <trkpt lat="42.258712" lon="-1.511766">
        <ele>443.0</ele>
        <time>2010-04-30T10:27:45Z</time>
      </trkpt>
      <trkpt lat="42.258698" lon="-1.511640">
        <ele>443.0</ele>
        <time>2010-04-30T10:27:58Z</time>
      </trkpt>
      <trkpt lat="42.258678" lon="-1.511505">
        <ele>443.0</ele>
        <time>2010-04-30T10:28:11Z</time>
      </trkpt>
      <trkpt lat="42.258665" lon="-1.511371">
        <ele>443.0</ele>
        <time>2010-04-30T10:28:22Z</time>
      </trkpt>
      <trkpt lat="42.258658" lon="-1.511245">
        <ele>443.0</ele>
        <time>2010-04-30T10:28:31Z</time>
      </trkpt>
      <trkpt lat="42.258645" lon="-1.511119">
        <ele>443.0</ele>
        <time>2010-04-30T10:28:40Z</time>
      </trkpt>
      <trkpt lat="42.258645" lon="-1.510993">
        <ele>443.0</ele>
        <time>2010-04-30T10:28:50Z</time>
      </trkpt>
      <trkpt lat="42.258652" lon="-1.510867">
        <ele>443.0</ele>
        <time>2010-04-30T10:29:02Z</time>
      </trkpt>
      <trkpt lat="42.258678" lon="-1.510733">
        <ele>443.0</ele>
        <time>2010-04-30T10:29:22Z</time>
      </trkpt>
      <trkpt lat="42.258692" lon="-1.510607">
        <ele>443.0</ele>
        <time>2010-04-30T10:29:33Z</time>
      </trkpt>
      <trkpt lat="42.258712" lon="-1.510481">
        <ele>449.0</ele>
        <time>2010-04-30T10:29:56Z</time>
      </trkpt>
      <trkpt lat="42.258725" lon="-1.510355">
        <ele>449.0</ele>
        <time>2010-04-30T10:30:06Z</time>
      </trkpt>
      <trkpt lat="42.258752" lon="-1.510239">
        <ele>449.0</ele>
        <time>2010-04-30T10:30:15Z</time>
      </trkpt>
      <trkpt lat="42.258765" lon="-1.510113">
        <ele>449.0</ele>
        <time>2010-04-30T10:30:24Z</time>
      </trkpt>
      <trkpt lat="42.258792" lon="-1.509996">
        <ele>449.0</ele>
        <time>2010-04-30T10:30:34Z</time>
      </trkpt>
      <trkpt lat="42.258812" lon="-1.509861">
        <ele>449.0</ele>
        <time>2010-04-30T10:30:44Z</time>
      </trkpt>
      <trkpt lat="42.258839" lon="-1.509745">
        <ele>449.0</ele>
        <time>2010-04-30T10:30:54Z</time>
      </trkpt>
      <trkpt lat="42.258845" lon="-1.509610">
        <ele>449.0</ele>
        <time>2010-04-30T10:31:04Z</time>
      </trkpt>
      <trkpt lat="42.258825" lon="-1.509484">
        <ele>449.0</ele>
        <time>2010-04-30T10:31:14Z</time>
      </trkpt>
      <trkpt lat="42.258778" lon="-1.509376">
        <ele>449.0</ele>
        <time>2010-04-30T10:31:23Z</time>
      </trkpt>
      <trkpt lat="42.258718" lon="-1.509277">
        <ele>449.0</ele>
        <time>2010-04-30T10:31:33Z</time>
      </trkpt>
      <trkpt lat="42.258665" lon="-1.509170">
        <ele>449.0</ele>
        <time>2010-04-30T10:31:42Z</time>
      </trkpt>
      <trkpt lat="42.258612" lon="-1.509071">
        <ele>449.0</ele>
        <time>2010-04-30T10:31:51Z</time>
      </trkpt>
      <trkpt lat="42.258565" lon="-1.508963">
        <ele>449.0</ele>
        <time>2010-04-30T10:32:01Z</time>
      </trkpt>
      <trkpt lat="42.258525" lon="-1.508846">
        <ele>449.0</ele>
        <time>2010-04-30T10:32:09Z</time>
      </trkpt>
      <trkpt lat="42.258485" lon="-1.508721">
        <ele>449.0</ele>
        <time>2010-04-30T10:32:18Z</time>
      </trkpt>
      <trkpt lat="42.258458" lon="-1.508595">
        <ele>449.0</ele>
        <time>2010-04-30T10:32:26Z</time>
      </trkpt>
      <trkpt lat="42.258431" lon="-1.508469">
        <ele>449.0</ele>
        <time>2010-04-30T10:32:35Z</time>
      </trkpt>
      <trkpt lat="42.258405" lon="-1.508352">
        <ele>449.0</ele>
        <time>2010-04-30T10:32:46Z</time>
      </trkpt>
      <trkpt lat="42.258378" lon="-1.508235">
        <ele>449.0</ele>
        <time>2010-04-30T10:32:55Z</time>
      </trkpt>
      <trkpt lat="42.258345" lon="-1.508119">
        <ele>449.0</ele>
        <time>2010-04-30T10:33:04Z</time>
      </trkpt>
      <trkpt lat="42.258298" lon="-1.508011">
        <ele>449.0</ele>
        <time>2010-04-30T10:33:13Z</time>
      </trkpt>
      <trkpt lat="42.258245" lon="-1.507912">
        <ele>449.0</ele>
        <time>2010-04-30T10:33:22Z</time>
      </trkpt>
      <trkpt lat="42.258178" lon="-1.507804">
        <ele>449.0</ele>
        <time>2010-04-30T10:33:32Z</time>
      </trkpt>
      <trkpt lat="42.258124" lon="-1.507696">
        <ele>449.0</ele>
        <time>2010-04-30T10:33:40Z</time>
      </trkpt>
      <trkpt lat="42.258071" lon="-1.507589">
        <ele>449.0</ele>
        <time>2010-04-30T10:33:48Z</time>
      </trkpt>
      <trkpt lat="42.258011" lon="-1.507490">
        <ele>449.0</ele>
        <time>2010-04-30T10:33:57Z</time>
      </trkpt>
      <trkpt lat="42.257951" lon="-1.507391">
        <ele>449.0</ele>
        <time>2010-04-30T10:34:06Z</time>
      </trkpt>
      <trkpt lat="42.257898" lon="-1.507292">
        <ele>449.0</ele>
        <time>2010-04-30T10:34:13Z</time>
      </trkpt>
      <trkpt lat="42.257838" lon="-1.507193">
        <ele>449.0</ele>
        <time>2010-04-30T10:34:22Z</time>
      </trkpt>
      <trkpt lat="42.257777" lon="-1.507086">
        <ele>449.0</ele>
        <time>2010-04-30T10:34:31Z</time>
      </trkpt>
      <trkpt lat="42.257724" lon="-1.506987">
        <ele>449.0</ele>
        <time>2010-04-30T10:34:41Z</time>
      </trkpt>
      <trkpt lat="42.257677" lon="-1.506879">
        <ele>449.0</ele>
        <time>2010-04-30T10:34:51Z</time>
      </trkpt>
      <trkpt lat="42.257631" lon="-1.506762">
        <ele>449.0</ele>
        <time>2010-04-30T10:35:00Z</time>
      </trkpt>
      <trkpt lat="42.257577" lon="-1.506654">
        <ele>449.0</ele>
        <time>2010-04-30T10:35:10Z</time>
      </trkpt>
      <trkpt lat="42.257511" lon="-1.506556">
        <ele>456.0</ele>
        <time>2010-04-30T10:35:42Z</time>
      </trkpt>
      <trkpt lat="42.257464" lon="-1.506448">
        <ele>456.0</ele>
        <time>2010-04-30T10:36:03Z</time>
      </trkpt>
      <trkpt lat="42.257397" lon="-1.506340">
        <ele>456.0</ele>
        <time>2010-04-30T10:36:12Z</time>
      </trkpt>
      <trkpt lat="42.257330" lon="-1.506241">
        <ele>456.0</ele>
        <time>2010-04-30T10:36:22Z</time>
      </trkpt>
      <trkpt lat="42.257277" lon="-1.506133">
        <ele>456.0</ele>
        <time>2010-04-30T10:36:30Z</time>
      </trkpt>
      <trkpt lat="42.257224" lon="-1.506035">
        <ele>456.0</ele>
        <time>2010-04-30T10:36:39Z</time>
      </trkpt>
      <trkpt lat="42.257177" lon="-1.505927">
        <ele>456.0</ele>
        <time>2010-04-30T10:36:47Z</time>
      </trkpt>
      <trkpt lat="42.257130" lon="-1.505819">
        <ele>456.0</ele>
        <time>2010-04-30T10:36:55Z</time>
      </trkpt>
      <trkpt lat="42.257083" lon="-1.505711">
        <ele>456.0</ele>
        <time>2010-04-30T10:37:03Z</time>
      </trkpt>
      <trkpt lat="42.257050" lon="-1.505594">
        <ele>456.0</ele>
        <time>2010-04-30T10:37:12Z</time>
      </trkpt>
      <trkpt lat="42.257017" lon="-1.505478">
        <ele>456.0</ele>
        <time>2010-04-30T10:37:22Z</time>
      </trkpt>
      <trkpt lat="42.256943" lon="-1.505388">
        <ele>456.0</ele>
        <time>2010-04-30T10:37:33Z</time>
      </trkpt>
      <trkpt lat="42.256863" lon="-1.505316">
        <ele>449.0</ele>
        <time>2010-04-30T10:37:43Z</time>
      </trkpt>
      <trkpt lat="42.256797" lon="-1.505406">
        <ele>449.0</ele>
        <time>2010-04-30T10:38:04Z</time>
      </trkpt>
      <trkpt lat="42.256730" lon="-1.505505">
        <ele>449.0</ele>
        <time>2010-04-30T10:38:16Z</time>
      </trkpt>
      <trkpt lat="42.256683" lon="-1.505612">
        <ele>449.0</ele>
        <time>2010-04-30T10:38:28Z</time>
      </trkpt>
      <trkpt lat="42.256630" lon="-1.505720">
        <ele>449.0</ele>
        <time>2010-04-30T10:38:40Z</time>
      </trkpt>
      <trkpt lat="42.256570" lon="-1.505828">
        <ele>449.0</ele>
        <time>2010-04-30T10:38:51Z</time>
      </trkpt>
      <trkpt lat="42.256503" lon="-1.505918">
        <ele>449.0</ele>
        <time>2010-04-30T10:39:01Z</time>
      </trkpt>
      <trkpt lat="42.256429" lon="-1.506008">
        <ele>449.0</ele>
        <time>2010-04-30T10:39:11Z</time>
      </trkpt>
      <trkpt lat="42.256403" lon="-1.506124">
        <ele>449.0</ele>
        <time>2010-04-30T10:39:22Z</time>
      </trkpt>
      <trkpt lat="42.256356" lon="-1.506232">
        <ele>449.0</ele>
        <time>2010-04-30T10:39:36Z</time>
      </trkpt>
      <trkpt lat="42.256316" lon="-1.506349">
        <ele>449.0</ele>
        <time>2010-04-30T10:39:48Z</time>
      </trkpt>
      <trkpt lat="42.256276" lon="-1.506466">
        <ele>449.0</ele>
        <time>2010-04-30T10:40:00Z</time>
      </trkpt>
      <trkpt lat="42.256236" lon="-1.506583">
        <ele>449.0</ele>
        <time>2010-04-30T10:40:10Z</time>
      </trkpt>
      <trkpt lat="42.256209" lon="-1.506699">
        <ele>449.0</ele>
        <time>2010-04-30T10:40:21Z</time>
      </trkpt>
      <trkpt lat="42.256196" lon="-1.506834">
        <ele>449.0</ele>
        <time>2010-04-30T10:40:35Z</time>
      </trkpt>
      <trkpt lat="42.256169" lon="-1.506951">
        <ele>449.0</ele>
        <time>2010-04-30T10:40:48Z</time>
      </trkpt>
      <trkpt lat="42.256156" lon="-1.507077">
        <ele>449.0</ele>
        <time>2010-04-30T10:40:59Z</time>
      </trkpt>
      <trkpt lat="42.256122" lon="-1.507193">
        <ele>449.0</ele>
        <time>2010-04-30T10:41:08Z</time>
      </trkpt>
      <trkpt lat="42.256129" lon="-1.507319">
        <ele>449.0</ele>
        <time>2010-04-30T10:41:22Z</time>
      </trkpt>
      <trkpt lat="42.256122" lon="-1.507445">
        <ele>449.0</ele>
        <time>2010-04-30T10:41:36Z</time>
      </trkpt>
      <trkpt lat="42.256136" lon="-1.507571">
        <ele>449.0</ele>
        <time>2010-04-30T10:42:45Z</time>
      </trkpt>
      <trkpt lat="42.256163" lon="-1.507687">
        <ele>449.0</ele>
        <time>2010-04-30T10:42:59Z</time>
      </trkpt>
      <trkpt lat="42.256163" lon="-1.507813">
        <ele>449.0</ele>
        <time>2010-04-30T10:43:12Z</time>
      </trkpt>
      <trkpt lat="42.256189" lon="-1.507930">
        <ele>449.0</ele>
        <time>2010-04-30T10:43:21Z</time>
      </trkpt>
      <trkpt lat="42.256209" lon="-1.508056">
        <ele>449.0</ele>
        <time>2010-04-30T10:43:34Z</time>
      </trkpt>
      <trkpt lat="42.256236" lon="-1.508173">
        <ele>449.0</ele>
        <time>2010-04-30T10:43:43Z</time>
      </trkpt>
      <trkpt lat="42.256249" lon="-1.508298">
        <ele>449.0</ele>
        <time>2010-04-30T10:44:04Z</time>
      </trkpt>
      <trkpt lat="42.256276" lon="-1.508415">
        <ele>449.0</ele>
        <time>2010-04-30T10:44:43Z</time>
      </trkpt>
      <trkpt lat="42.256249" lon="-1.508298">
        <ele>449.0</ele>
        <time>2010-04-30T10:49:32Z</time>
      </trkpt>
      <trkpt lat="42.256229" lon="-1.508173">
        <ele>449.0</ele>
        <time>2010-04-30T10:52:06Z</time>
      </trkpt>
      <trkpt lat="42.256196" lon="-1.508056">
        <ele>449.0</ele>
        <time>2010-04-30T10:52:17Z</time>
      </trkpt>
      <trkpt lat="42.256169" lon="-1.507921">
        <ele>449.0</ele>
        <time>2010-04-30T10:52:29Z</time>
      </trkpt>
      <trkpt lat="42.256143" lon="-1.507795">
        <ele>449.0</ele>
        <time>2010-04-30T10:52:40Z</time>
      </trkpt>
      <trkpt lat="42.256122" lon="-1.507669">
        <ele>449.0</ele>
        <time>2010-04-30T10:52:54Z</time>
      </trkpt>
      <trkpt lat="42.256109" lon="-1.507544">
        <ele>449.0</ele>
        <time>2010-04-30T10:53:07Z</time>
      </trkpt>
      <trkpt lat="42.256102" lon="-1.507418">
        <ele>449.0</ele>
        <time>2010-04-30T10:53:17Z</time>
      </trkpt>
      <trkpt lat="42.256089" lon="-1.507292">
        <ele>449.0</ele>
        <time>2010-04-30T10:53:31Z</time>
      </trkpt>
      <trkpt lat="42.256062" lon="-1.507175">
        <ele>449.0</ele>
        <time>2010-04-30T10:53:51Z</time>
      </trkpt>
      <trkpt lat="42.256022" lon="-1.507059">
        <ele>449.0</ele>
        <time>2010-04-30T10:54:04Z</time>
      </trkpt>
      <trkpt lat="42.255996" lon="-1.506942">
        <ele>449.0</ele>
        <time>2010-04-30T10:54:14Z</time>
      </trkpt>
      <trkpt lat="42.255962" lon="-1.506825">
        <ele>449.0</ele>
        <time>2010-04-30T10:54:26Z</time>
      </trkpt>
      <trkpt lat="42.255922" lon="-1.506708">
        <ele>449.0</ele>
        <time>2010-04-30T10:54:38Z</time>
      </trkpt>
      <trkpt lat="42.255876" lon="-1.506600">
        <ele>449.0</ele>
        <time>2010-04-30T10:54:49Z</time>
      </trkpt>
      <trkpt lat="42.255829" lon="-1.506493">
        <ele>449.0</ele>
        <time>2010-04-30T10:55:00Z</time>
      </trkpt>
      <trkpt lat="42.255795" lon="-1.506376">
        <ele>449.0</ele>
        <time>2010-04-30T10:55:14Z</time>
      </trkpt>
      <trkpt lat="42.255769" lon="-1.506259">
        <ele>449.0</ele>
        <time>2010-04-30T10:55:26Z</time>
      </trkpt>
      <trkpt lat="42.255749" lon="-1.506133">
        <ele>449.0</ele>
        <time>2010-04-30T10:55:38Z</time>
      </trkpt>
      <trkpt lat="42.255735" lon="-1.506008">
        <ele>449.0</ele>
        <time>2010-04-30T10:55:51Z</time>
      </trkpt>
      <trkpt lat="42.255729" lon="-1.505882">
        <ele>449.0</ele>
        <time>2010-04-30T10:56:03Z</time>
      </trkpt>
      <trkpt lat="42.255729" lon="-1.505756">
        <ele>449.0</ele>
        <time>2010-04-30T10:56:14Z</time>
      </trkpt>
      <trkpt lat="42.255709" lon="-1.505630">
        <ele>449.0</ele>
        <time>2010-04-30T10:56:26Z</time>
      </trkpt>
      <trkpt lat="42.255695" lon="-1.505505">
        <ele>449.0</ele>
        <time>2010-04-30T10:56:36Z</time>
      </trkpt>
      <trkpt lat="42.255682" lon="-1.505379">
        <ele>449.0</ele>
        <time>2010-04-30T10:56:47Z</time>
      </trkpt>
      <trkpt lat="42.255675" lon="-1.505253">
        <ele>449.0</ele>
        <time>2010-04-30T10:56:59Z</time>
      </trkpt>
      <trkpt lat="42.255669" lon="-1.505127">
        <ele>449.0</ele>
        <time>2010-04-30T10:57:09Z</time>
      </trkpt>
      <trkpt lat="42.255662" lon="-1.504993">
        <ele>449.0</ele>
        <time>2010-04-30T10:57:19Z</time>
      </trkpt>
      <trkpt lat="42.255662" lon="-1.504867">
        <ele>449.0</ele>
        <time>2010-04-30T10:57:30Z</time>
      </trkpt>
      <trkpt lat="42.255655" lon="-1.504741">
        <ele>449.0</ele>
        <time>2010-04-30T10:57:39Z</time>
      </trkpt>
      <trkpt lat="42.255649" lon="-1.504606">
        <ele>449.0</ele>
        <time>2010-04-30T10:57:50Z</time>
      </trkpt>
      <trkpt lat="42.255642" lon="-1.504480">
        <ele>449.0</ele>
        <time>2010-04-30T10:57:59Z</time>
      </trkpt>
      <trkpt lat="42.255642" lon="-1.504346">
        <ele>449.0</ele>
        <time>2010-04-30T10:58:10Z</time>
      </trkpt>
      <trkpt lat="42.255649" lon="-1.504220">
        <ele>449.0</ele>
        <time>2010-04-30T10:58:19Z</time>
      </trkpt>
      <trkpt lat="42.255642" lon="-1.504094">
        <ele>449.0</ele>
        <time>2010-04-30T10:58:28Z</time>
      </trkpt>
      <trkpt lat="42.255642" lon="-1.503959">
        <ele>449.0</ele>
        <time>2010-04-30T10:58:39Z</time>
      </trkpt>
      <trkpt lat="42.255642" lon="-1.503825">
        <ele>449.0</ele>
        <time>2010-04-30T10:58:50Z</time>
      </trkpt>
      <trkpt lat="42.255649" lon="-1.503690">
        <ele>449.0</ele>
        <time>2010-04-30T10:58:59Z</time>
      </trkpt>
      <trkpt lat="42.255675" lon="-1.503564">
        <ele>449.0</ele>
        <time>2010-04-30T10:59:10Z</time>
      </trkpt>
      <trkpt lat="42.255709" lon="-1.503447">
        <ele>449.0</ele>
        <time>2010-04-30T10:59:20Z</time>
      </trkpt>
      <trkpt lat="42.255742" lon="-1.503331">
        <ele>449.0</ele>
        <time>2010-04-30T10:59:29Z</time>
      </trkpt>
      <trkpt lat="42.255789" lon="-1.503214">
        <ele>456.0</ele>
        <time>2010-04-30T10:59:40Z</time>
      </trkpt>
      <trkpt lat="42.255816" lon="-1.503088">
        <ele>456.0</ele>
        <time>2010-04-30T11:00:16Z</time>
      </trkpt>
      <trkpt lat="42.255856" lon="-1.502971">
        <ele>456.0</ele>
        <time>2010-04-30T11:00:26Z</time>
      </trkpt>
      <trkpt lat="42.255882" lon="-1.502846">
        <ele>456.0</ele>
        <time>2010-04-30T11:00:36Z</time>
      </trkpt>
      <trkpt lat="42.255889" lon="-1.502711">
        <ele>456.0</ele>
        <time>2010-04-30T11:00:45Z</time>
      </trkpt>
      <trkpt lat="42.255902" lon="-1.502585">
        <ele>456.0</ele>
        <time>2010-04-30T11:00:54Z</time>
      </trkpt>
      <trkpt lat="42.255922" lon="-1.502459">
        <ele>456.0</ele>
        <time>2010-04-30T11:01:05Z</time>
      </trkpt>
      <trkpt lat="42.255929" lon="-1.502333">
        <ele>456.0</ele>
        <time>2010-04-30T11:01:14Z</time>
      </trkpt>
      <trkpt lat="42.255929" lon="-1.502208">
        <ele>456.0</ele>
        <time>2010-04-30T11:01:22Z</time>
      </trkpt>
      <trkpt lat="42.255929" lon="-1.502082">
        <ele>456.0</ele>
        <time>2010-04-30T11:01:31Z</time>
      </trkpt>
      <trkpt lat="42.255929" lon="-1.501956">
        <ele>456.0</ele>
        <time>2010-04-30T11:01:41Z</time>
      </trkpt>
      <trkpt lat="42.255942" lon="-1.501830">
        <ele>456.0</ele>
        <time>2010-04-30T11:01:50Z</time>
      </trkpt>
      <trkpt lat="42.255942" lon="-1.501696">
        <ele>456.0</ele>
        <time>2010-04-30T11:01:59Z</time>
      </trkpt>
      <trkpt lat="42.255962" lon="-1.501561">
        <ele>456.0</ele>
        <time>2010-04-30T11:02:11Z</time>
      </trkpt>
      <trkpt lat="42.255969" lon="-1.501435">
        <ele>456.0</ele>
        <time>2010-04-30T11:02:19Z</time>
      </trkpt>
      <trkpt lat="42.255982" lon="-1.501300">
        <ele>456.0</ele>
        <time>2010-04-30T11:02:28Z</time>
      </trkpt>
      <trkpt lat="42.255982" lon="-1.501166">
        <ele>456.0</ele>
        <time>2010-04-30T11:02:36Z</time>
      </trkpt>
      <trkpt lat="42.255982" lon="-1.501031">
        <ele>456.0</ele>
        <time>2010-04-30T11:02:44Z</time>
      </trkpt>
      <trkpt lat="42.255982" lon="-1.500896">
        <ele>456.0</ele>
        <time>2010-04-30T11:02:53Z</time>
      </trkpt>
      <trkpt lat="42.255976" lon="-1.500761">
        <ele>456.0</ele>
        <time>2010-04-30T11:03:03Z</time>
      </trkpt>
      <trkpt lat="42.255969" lon="-1.500636">
        <ele>456.0</ele>
        <time>2010-04-30T11:03:11Z</time>
      </trkpt>
      <trkpt lat="42.255969" lon="-1.500510">
        <ele>456.0</ele>
        <time>2010-04-30T11:03:19Z</time>
      </trkpt>
      <trkpt lat="42.255976" lon="-1.500375">
        <ele>456.0</ele>
        <time>2010-04-30T11:03:28Z</time>
      </trkpt>
      <trkpt lat="42.255969" lon="-1.500339">
        <ele>455.0</ele>
        <time>2010-04-30T11:05:55Z</time>
      </trkpt>
      <trkpt lat="42.255769" lon="-1.499764">
        <ele>455.0</ele>
        <time>2010-04-30T11:05:55Z</time>
      </trkpt>
      <trkpt lat="42.255755" lon="-1.499630">
        <ele>455.0</ele>
        <time>2010-04-30T11:06:32Z</time>
      </trkpt>
      <trkpt lat="42.255729" lon="-1.499504">
        <ele>455.0</ele>
        <time>2010-04-30T11:06:42Z</time>
      </trkpt>
      <trkpt lat="42.255702" lon="-1.499378">
        <ele>455.0</ele>
        <time>2010-04-30T11:06:51Z</time>
      </trkpt>
      <trkpt lat="42.255689" lon="-1.499243">
        <ele>455.0</ele>
        <time>2010-04-30T11:07:00Z</time>
      </trkpt>
      <trkpt lat="42.255675" lon="-1.499118">
        <ele>455.0</ele>
        <time>2010-04-30T11:07:09Z</time>
      </trkpt>
      <trkpt lat="42.255682" lon="-1.498992">
        <ele>455.0</ele>
        <time>2010-04-30T11:07:18Z</time>
      </trkpt>
      <trkpt lat="42.255695" lon="-1.498866">
        <ele>455.0</ele>
        <time>2010-04-30T11:07:27Z</time>
      </trkpt>
      <trkpt lat="42.255722" lon="-1.498740">
        <ele>455.0</ele>
        <time>2010-04-30T11:07:36Z</time>
      </trkpt>
      <trkpt lat="42.255749" lon="-1.498623">
        <ele>455.0</ele>
        <time>2010-04-30T11:07:45Z</time>
      </trkpt>
      <trkpt lat="42.255775" lon="-1.498507">
        <ele>455.0</ele>
        <time>2010-04-30T11:07:53Z</time>
      </trkpt>
      <trkpt lat="42.255795" lon="-1.498381">
        <ele>455.0</ele>
        <time>2010-04-30T11:08:02Z</time>
      </trkpt>
      <trkpt lat="42.255822" lon="-1.498255">
        <ele>455.0</ele>
        <time>2010-04-30T11:08:16Z</time>
      </trkpt>
      <trkpt lat="42.255862" lon="-1.498138">
        <ele>455.0</ele>
        <time>2010-04-30T11:08:25Z</time>
      </trkpt>
      <trkpt lat="42.255902" lon="-1.498013">
        <ele>455.0</ele>
        <time>2010-04-30T11:08:35Z</time>
      </trkpt>
      <trkpt lat="42.255949" lon="-1.497905">
        <ele>455.0</ele>
        <time>2010-04-30T11:08:44Z</time>
      </trkpt>
      <trkpt lat="42.256002" lon="-1.497806">
        <ele>455.0</ele>
        <time>2010-04-30T11:08:52Z</time>
      </trkpt>
      <trkpt lat="42.256049" lon="-1.497680">
        <ele>455.0</ele>
        <time>2010-04-30T11:09:02Z</time>
      </trkpt>
      <trkpt lat="42.256076" lon="-1.497563">
        <ele>455.0</ele>
        <time>2010-04-30T11:09:11Z</time>
      </trkpt>
      <trkpt lat="42.256102" lon="-1.497438">
        <ele>455.0</ele>
        <time>2010-04-30T11:09:20Z</time>
      </trkpt>
      <trkpt lat="42.256143" lon="-1.497321">
        <ele>455.0</ele>
        <time>2010-04-30T11:09:30Z</time>
      </trkpt>
      <trkpt lat="42.256143" lon="-1.497294">
        <ele>462.0</ele>
        <time>2010-04-30T11:10:48Z</time>
      </trkpt>
      <trkpt lat="42.256236" lon="-1.496971">
        <ele>462.0</ele>
        <time>2010-04-30T11:10:50Z</time>
      </trkpt>
      <trkpt lat="42.256256" lon="-1.496845">
        <ele>462.0</ele>
        <time>2010-04-30T11:11:03Z</time>
      </trkpt>
      <trkpt lat="42.256269" lon="-1.496719">
        <ele>462.0</ele>
        <time>2010-04-30T11:11:41Z</time>
      </trkpt>
      <trkpt lat="42.256269" lon="-1.496593">
        <ele>462.0</ele>
        <time>2010-04-30T11:11:51Z</time>
      </trkpt>
      <trkpt lat="42.256296" lon="-1.496476">
        <ele>462.0</ele>
        <time>2010-04-30T11:11:59Z</time>
      </trkpt>
      <trkpt lat="42.256329" lon="-1.496351">
        <ele>462.0</ele>
        <time>2010-04-30T11:12:09Z</time>
      </trkpt>
      <trkpt lat="42.256336" lon="-1.496225">
        <ele>462.0</ele>
        <time>2010-04-30T11:12:18Z</time>
      </trkpt>
      <trkpt lat="42.256343" lon="-1.496099">
        <ele>462.0</ele>
        <time>2010-04-30T11:12:27Z</time>
      </trkpt>
      <trkpt lat="42.256356" lon="-1.495964">
        <ele>462.0</ele>
        <time>2010-04-30T11:12:36Z</time>
      </trkpt>
      <trkpt lat="42.256356" lon="-1.495830">
        <ele>462.0</ele>
        <time>2010-04-30T11:12:46Z</time>
      </trkpt>
      <trkpt lat="42.256356" lon="-1.495695">
        <ele>462.0</ele>
        <time>2010-04-30T11:12:55Z</time>
      </trkpt>
      <trkpt lat="42.256356" lon="-1.495560">
        <ele>462.0</ele>
        <time>2010-04-30T11:13:07Z</time>
      </trkpt>
      <trkpt lat="42.256356" lon="-1.495434">
        <ele>462.0</ele>
        <time>2010-04-30T11:13:16Z</time>
      </trkpt>
      <trkpt lat="42.256349" lon="-1.495300">
        <ele>462.0</ele>
        <time>2010-04-30T11:13:26Z</time>
      </trkpt>
      <trkpt lat="42.256343" lon="-1.495174">
        <ele>462.0</ele>
        <time>2010-04-30T11:13:35Z</time>
      </trkpt>
      <trkpt lat="42.256336" lon="-1.495048">
        <ele>462.0</ele>
        <time>2010-04-30T11:13:44Z</time>
      </trkpt>
      <trkpt lat="42.256323" lon="-1.494922">
        <ele>462.0</ele>
        <time>2010-04-30T11:13:53Z</time>
      </trkpt>
      <trkpt lat="42.256309" lon="-1.494797">
        <ele>462.0</ele>
        <time>2010-04-30T11:14:03Z</time>
      </trkpt>
      <trkpt lat="42.256283" lon="-1.494680">
        <ele>462.0</ele>
        <time>2010-04-30T11:14:12Z</time>
      </trkpt>
      <trkpt lat="42.256249" lon="-1.494563">
        <ele>462.0</ele>
        <time>2010-04-30T11:14:22Z</time>
      </trkpt>
      <trkpt lat="42.256216" lon="-1.494437">
        <ele>462.0</ele>
        <time>2010-04-30T11:14:32Z</time>
      </trkpt>
      <trkpt lat="42.256183" lon="-1.494321">
        <ele>462.0</ele>
        <time>2010-04-30T11:14:42Z</time>
      </trkpt>
      <trkpt lat="42.256143" lon="-1.494204">
        <ele>462.0</ele>
        <time>2010-04-30T11:14:52Z</time>
      </trkpt>
      <trkpt lat="42.256096" lon="-1.494087">
        <ele>462.0</ele>
        <time>2010-04-30T11:15:02Z</time>
      </trkpt>
      <trkpt lat="42.256042" lon="-1.493970">
        <ele>462.0</ele>
        <time>2010-04-30T11:15:14Z</time>
      </trkpt>
      <trkpt lat="42.256002" lon="-1.493844">
        <ele>462.0</ele>
        <time>2010-04-30T11:15:25Z</time>
      </trkpt>
      <trkpt lat="42.255949" lon="-1.493746">
        <ele>462.0</ele>
        <time>2010-04-30T11:15:35Z</time>
      </trkpt>
      <trkpt lat="42.255889" lon="-1.493647">
        <ele>462.0</ele>
        <time>2010-04-30T11:15:44Z</time>
      </trkpt>
      <trkpt lat="42.255849" lon="-1.493530">
        <ele>462.0</ele>
        <time>2010-04-30T11:15:53Z</time>
      </trkpt>
      <trkpt lat="42.255822" lon="-1.493413">
        <ele>462.0</ele>
        <time>2010-04-30T11:16:02Z</time>
      </trkpt>
      <trkpt lat="42.255795" lon="-1.493296">
        <ele>462.0</ele>
        <time>2010-04-30T11:16:10Z</time>
      </trkpt>
      <trkpt lat="42.255775" lon="-1.493171">
        <ele>462.0</ele>
        <time>2010-04-30T11:16:19Z</time>
      </trkpt>
      <trkpt lat="42.255749" lon="-1.493045">
        <ele>462.0</ele>
        <time>2010-04-30T11:16:28Z</time>
      </trkpt>
      <trkpt lat="42.255729" lon="-1.492919">
        <ele>462.0</ele>
        <time>2010-04-30T11:16:37Z</time>
      </trkpt>
      <trkpt lat="42.255709" lon="-1.492793">
        <ele>462.0</ele>
        <time>2010-04-30T11:16:46Z</time>
      </trkpt>
      <trkpt lat="42.255689" lon="-1.492659">
        <ele>462.0</ele>
        <time>2010-04-30T11:16:56Z</time>
      </trkpt>
      <trkpt lat="42.255669" lon="-1.492524">
        <ele>462.0</ele>
        <time>2010-04-30T11:17:06Z</time>
      </trkpt>
      <trkpt lat="42.255642" lon="-1.492407">
        <ele>462.0</ele>
        <time>2010-04-30T11:17:15Z</time>
      </trkpt>
      <trkpt lat="42.255622" lon="-1.492281">
        <ele>462.0</ele>
        <time>2010-04-30T11:17:25Z</time>
      </trkpt>
      <trkpt lat="42.255609" lon="-1.492147">
        <ele>462.0</ele>
        <time>2010-04-30T11:18:06Z</time>
      </trkpt>
      <trkpt lat="42.255562" lon="-1.492030">
        <ele>462.0</ele>
        <time>2010-04-30T11:18:16Z</time>
      </trkpt>
      <trkpt lat="42.255469" lon="-1.492021">
        <ele>462.0</ele>
        <time>2010-04-30T11:18:28Z</time>
      </trkpt>
      <trkpt lat="42.255382" lon="-1.491985">
        <ele>462.0</ele>
        <time>2010-04-30T11:18:39Z</time>
      </trkpt>
      <trkpt lat="42.255295" lon="-1.491940">
        <ele>462.0</ele>
        <time>2010-04-30T11:18:50Z</time>
      </trkpt>
      <trkpt lat="42.255228" lon="-1.491850">
        <ele>462.0</ele>
        <time>2010-04-30T11:19:03Z</time>
      </trkpt>
      <trkpt lat="42.255155" lon="-1.491778">
        <ele>462.0</ele>
        <time>2010-04-30T11:19:21Z</time>
      </trkpt>
      <trkpt lat="42.255095" lon="-1.491679">
        <ele>462.0</ele>
        <time>2010-04-30T11:19:31Z</time>
      </trkpt>
      <trkpt lat="42.255035" lon="-1.491581">
        <ele>462.0</ele>
        <time>2010-04-30T11:19:41Z</time>
      </trkpt>
      <trkpt lat="42.254995" lon="-1.491464">
        <ele>462.0</ele>
        <time>2010-04-30T11:19:53Z</time>
      </trkpt>
      <trkpt lat="42.254928" lon="-1.491365">
        <ele>462.0</ele>
        <time>2010-04-30T11:20:03Z</time>
      </trkpt>
      <trkpt lat="42.254814" lon="-1.491239">
        <ele>462.0</ele>
        <time>2010-04-30T11:21:58Z</time>
      </trkpt>
      <trkpt lat="42.254868" lon="-1.491158">
        <ele>463.0</ele>
        <time>2010-04-30T11:28:32Z</time>
      </trkpt>
      <trkpt lat="42.254915" lon="-1.491042">
        <ele>463.0</ele>
        <time>2010-04-30T11:28:44Z</time>
      </trkpt>
      <trkpt lat="42.254948" lon="-1.490916">
        <ele>463.0</ele>
        <time>2010-04-30T11:28:54Z</time>
      </trkpt>
      <trkpt lat="42.254975" lon="-1.490799">
        <ele>463.0</ele>
        <time>2010-04-30T11:29:04Z</time>
      </trkpt>
      <trkpt lat="42.255021" lon="-1.490682">
        <ele>463.0</ele>
        <time>2010-04-30T11:29:15Z</time>
      </trkpt>
      <trkpt lat="42.255068" lon="-1.490575">
        <ele>463.0</ele>
        <time>2010-04-30T11:29:24Z</time>
      </trkpt>
      <trkpt lat="42.255108" lon="-1.490458">
        <ele>463.0</ele>
        <time>2010-04-30T11:29:34Z</time>
      </trkpt>
      <trkpt lat="42.255135" lon="-1.490341">
        <ele>463.0</ele>
        <time>2010-04-30T11:29:43Z</time>
      </trkpt>
      <trkpt lat="42.255182" lon="-1.490224">
        <ele>463.0</ele>
        <time>2010-04-30T11:29:53Z</time>
      </trkpt>
      <trkpt lat="42.255235" lon="-1.490116">
        <ele>463.0</ele>
        <time>2010-04-30T11:30:02Z</time>
      </trkpt>
      <trkpt lat="42.255288" lon="-1.490009">
        <ele>463.0</ele>
        <time>2010-04-30T11:30:11Z</time>
      </trkpt>
      <trkpt lat="42.255315" lon="-1.489892">
        <ele>463.0</ele>
        <time>2010-04-30T11:32:27Z</time>
      </trkpt>
      <trkpt lat="42.255342" lon="-1.489757">
        <ele>463.0</ele>
        <time>2010-04-30T11:32:37Z</time>
      </trkpt>
      <trkpt lat="42.255342" lon="-1.489622">
        <ele>463.0</ele>
        <time>2010-04-30T11:32:47Z</time>
      </trkpt>
      <trkpt lat="42.255315" lon="-1.489506">
        <ele>463.0</ele>
        <time>2010-04-30T11:32:56Z</time>
      </trkpt>
      <trkpt lat="42.255282" lon="-1.489389">
        <ele>463.0</ele>
        <time>2010-04-30T11:33:08Z</time>
      </trkpt>
      <trkpt lat="42.255275" lon="-1.489263">
        <ele>463.0</ele>
        <time>2010-04-30T11:33:21Z</time>
      </trkpt>
      <trkpt lat="42.255308" lon="-1.489146">
        <ele>463.0</ele>
        <time>2010-04-30T11:33:32Z</time>
      </trkpt>
      <trkpt lat="42.255348" lon="-1.489029">
        <ele>463.0</ele>
        <time>2010-04-30T11:33:47Z</time>
      </trkpt>
      <trkpt lat="42.255348" lon="-1.488904">
        <ele>463.0</ele>
        <time>2010-04-30T11:34:00Z</time>
      </trkpt>
      <trkpt lat="42.255355" lon="-1.488769">
        <ele>463.0</ele>
        <time>2010-04-30T11:34:13Z</time>
      </trkpt>
      <trkpt lat="42.255368" lon="-1.488643">
        <ele>463.0</ele>
        <time>2010-04-30T11:34:42Z</time>
      </trkpt>
      <trkpt lat="42.255462" lon="-1.488616">
        <ele>458.0</ele>
        <time>2010-04-30T11:44:00Z</time>
      </trkpt>
      <trkpt lat="42.255509" lon="-1.488508">
        <ele>451.0</ele>
        <time>2010-04-30T11:44:28Z</time>
      </trkpt>
      <trkpt lat="42.255595" lon="-1.488553">
        <ele>451.0</ele>
        <time>2010-04-30T11:45:02Z</time>
      </trkpt>
      <trkpt lat="42.255662" lon="-1.488464">
        <ele>443.0</ele>
        <time>2010-04-30T11:45:42Z</time>
      </trkpt>
      <trkpt lat="42.255682" lon="-1.488338">
        <ele>437.0</ele>
        <time>2010-04-30T11:46:21Z</time>
      </trkpt>
      <trkpt lat="42.255722" lon="-1.488221">
        <ele>437.0</ele>
        <time>2010-04-30T11:46:57Z</time>
      </trkpt>
      <trkpt lat="42.255695" lon="-1.488095">
        <ele>430.0</ele>
        <time>2010-04-30T11:47:12Z</time>
      </trkpt>
      <trkpt lat="42.255649" lon="-1.487987">
        <ele>425.0</ele>
        <time>2010-04-30T11:47:31Z</time>
      </trkpt>
      <trkpt lat="42.255595" lon="-1.487889">
        <ele>425.0</ele>
        <time>2010-04-30T11:47:49Z</time>
      </trkpt>
      <trkpt lat="42.255575" lon="-1.487763">
        <ele>425.0</ele>
        <time>2010-04-30T11:48:10Z</time>
      </trkpt>
      <trkpt lat="42.255535" lon="-1.487646">
        <ele>420.0</ele>
        <time>2010-04-30T11:51:42Z</time>
      </trkpt>
      <trkpt lat="42.255502" lon="-1.487529">
        <ele>420.0</ele>
        <time>2010-04-30T11:52:05Z</time>
      </trkpt>
      <trkpt lat="42.255428" lon="-1.487457">
        <ele>414.0</ele>
        <time>2010-04-30T11:52:17Z</time>
      </trkpt>
      <trkpt lat="42.255428" lon="-1.487332">
        <ele>414.0</ele>
        <time>2010-04-30T11:53:50Z</time>
      </trkpt>
      <trkpt lat="42.255489" lon="-1.487233">
        <ele>414.0</ele>
        <time>2010-04-30T11:54:18Z</time>
      </trkpt>
      <trkpt lat="42.255462" lon="-1.487116">
        <ele>414.0</ele>
        <time>2010-04-30T11:54:39Z</time>
      </trkpt>
      <trkpt lat="42.255435" lon="-1.486999">
        <ele>407.0</ele>
        <time>2010-04-30T11:54:52Z</time>
      </trkpt>
      <trkpt lat="42.255428" lon="-1.486865">
        <ele>407.0</ele>
        <time>2010-04-30T11:55:09Z</time>
      </trkpt>
      <trkpt lat="42.255375" lon="-1.486757">
        <ele>407.0</ele>
        <time>2010-04-30T11:55:20Z</time>
      </trkpt>
      <trkpt lat="42.255348" lon="-1.486640">
        <ele>401.0</ele>
        <time>2010-04-30T11:55:33Z</time>
      </trkpt>
      <trkpt lat="42.255328" lon="-1.486514">
        <ele>401.0</ele>
        <time>2010-04-30T11:55:46Z</time>
      </trkpt>
      <trkpt lat="42.255308" lon="-1.486388">
        <ele>401.0</ele>
        <time>2010-04-30T11:55:59Z</time>
      </trkpt>
      <trkpt lat="42.255242" lon="-1.486299">
        <ele>396.0</ele>
        <time>2010-04-30T11:56:10Z</time>
      </trkpt>
      <trkpt lat="42.255222" lon="-1.486173">
        <ele>396.0</ele>
        <time>2010-04-30T11:56:21Z</time>
      </trkpt>
      <trkpt lat="42.255168" lon="-1.486146">
        <ele>391.0</ele>
        <time>2010-04-30T12:06:58Z</time>
      </trkpt>
      <trkpt lat="42.255141" lon="-1.486029">
        <ele>391.0</ele>
        <time>2010-04-30T12:08:13Z</time>
      </trkpt>
      <trkpt lat="42.255055" lon="-1.485966">
        <ele>391.0</ele>
        <time>2010-04-30T12:10:56Z</time>
      </trkpt>
      <trkpt lat="42.254975" lon="-1.486029">
        <ele>391.0</ele>
        <time>2010-04-30T12:11:22Z</time>
      </trkpt>
      <trkpt lat="42.254875" lon="-1.485993">
        <ele>386.0</ele>
        <time>2010-04-30T12:11:34Z</time>
      </trkpt>
      <trkpt lat="42.254801" lon="-1.485921">
        <ele>380.0</ele>
        <time>2010-04-30T12:12:23Z</time>
      </trkpt>
      <trkpt lat="42.254768" lon="-1.485804">
        <ele>380.0</ele>
        <time>2010-04-30T12:12:36Z</time>
      </trkpt>
      <trkpt lat="42.254694" lon="-1.485724">
        <ele>380.0</ele>
        <time>2010-04-30T12:12:48Z</time>
      </trkpt>
      <trkpt lat="42.254614" lon="-1.485661">
        <ele>374.0</ele>
        <time>2010-04-30T12:12:58Z</time>
      </trkpt>
      <trkpt lat="42.254534" lon="-1.485589">
        <ele>374.0</ele>
        <time>2010-04-30T12:14:10Z</time>
      </trkpt>
      <trkpt lat="42.254521" lon="-1.485463">
        <ele>374.0</ele>
        <time>2010-04-30T12:14:23Z</time>
      </trkpt>
      <trkpt lat="42.254494" lon="-1.485346">
        <ele>374.0</ele>
        <time>2010-04-30T12:14:50Z</time>
      </trkpt>
      <trkpt lat="42.254501" lon="-1.485221">
        <ele>366.0</ele>
        <time>2010-04-30T12:19:19Z</time>
      </trkpt>
      <trkpt lat="42.254514" lon="-1.485095">
        <ele>360.0</ele>
        <time>2010-04-30T12:19:42Z</time>
      </trkpt>
      <trkpt lat="42.254461" lon="-1.484996">
        <ele>353.0</ele>
        <time>2010-04-30T12:20:05Z</time>
      </trkpt>
      <trkpt lat="42.254394" lon="-1.484897">
        <ele>353.0</ele>
        <time>2010-04-30T12:20:25Z</time>
      </trkpt>
      <trkpt lat="42.254307" lon="-1.484843">
        <ele>346.0</ele>
        <time>2010-04-30T12:20:42Z</time>
      </trkpt>
      <trkpt lat="42.254301" lon="-1.484718">
        <ele>346.0</ele>
        <time>2010-04-30T12:21:00Z</time>
      </trkpt>
      <trkpt lat="42.254281" lon="-1.484592">
        <ele>339.0</ele>
        <time>2010-04-30T12:21:17Z</time>
      </trkpt>
      <trkpt lat="42.254221" lon="-1.484493">
        <ele>339.0</ele>
        <time>2010-04-30T12:21:27Z</time>
      </trkpt>
      <trkpt lat="42.254140" lon="-1.484430">
        <ele>339.0</ele>
        <time>2010-04-30T12:21:56Z</time>
      </trkpt>
      <trkpt lat="42.254060" lon="-1.484358">
        <ele>339.0</ele>
        <time>2010-04-30T12:22:06Z</time>
      </trkpt>
      <trkpt lat="42.253994" lon="-1.484268">
        <ele>339.0</ele>
        <time>2010-04-30T12:22:15Z</time>
      </trkpt>
      <trkpt lat="42.253927" lon="-1.484179">
        <ele>339.0</ele>
        <time>2010-04-30T12:22:24Z</time>
      </trkpt>
      <trkpt lat="42.253880" lon="-1.484071">
        <ele>339.0</ele>
        <time>2010-04-30T12:22:33Z</time>
      </trkpt>
      <trkpt lat="42.253833" lon="-1.483954">
        <ele>339.0</ele>
        <time>2010-04-30T12:22:42Z</time>
      </trkpt>
      <trkpt lat="42.253780" lon="-1.483846">
        <ele>339.0</ele>
        <time>2010-04-30T12:22:50Z</time>
      </trkpt>
      <trkpt lat="42.253733" lon="-1.483738">
        <ele>339.0</ele>
        <time>2010-04-30T12:22:58Z</time>
      </trkpt>
      <trkpt lat="42.253673" lon="-1.483640">
        <ele>339.0</ele>
        <time>2010-04-30T12:23:06Z</time>
      </trkpt>
      <trkpt lat="42.253620" lon="-1.483541">
        <ele>339.0</ele>
        <time>2010-04-30T12:23:14Z</time>
      </trkpt>
      <trkpt lat="42.253547" lon="-1.483460">
        <ele>334.0</ele>
        <time>2010-04-30T12:23:59Z</time>
      </trkpt>
      <trkpt lat="42.253466" lon="-1.483379">
        <ele>334.0</ele>
        <time>2010-04-30T12:24:19Z</time>
      </trkpt>
      <trkpt lat="42.253380" lon="-1.483325">
        <ele>334.0</ele>
        <time>2010-04-30T12:24:31Z</time>
      </trkpt>
      <trkpt lat="42.253306" lon="-1.483253">
        <ele>334.0</ele>
        <time>2010-04-30T12:24:46Z</time>
      </trkpt>
      <trkpt lat="42.253233" lon="-1.483154">
        <ele>334.0</ele>
        <time>2010-04-30T12:24:57Z</time>
      </trkpt>
      <trkpt lat="42.253159" lon="-1.483074">
        <ele>334.0</ele>
        <time>2010-04-30T12:25:07Z</time>
      </trkpt>
      <trkpt lat="42.253093" lon="-1.482984">
        <ele>334.0</ele>
        <time>2010-04-30T12:25:16Z</time>
      </trkpt>
      <trkpt lat="42.253026" lon="-1.482894">
        <ele>334.0</ele>
        <time>2010-04-30T12:25:24Z</time>
      </trkpt>
      <trkpt lat="42.252946" lon="-1.482831">
        <ele>328.0</ele>
        <time>2010-04-30T12:25:32Z</time>
      </trkpt>
      <trkpt lat="42.252852" lon="-1.482804">
        <ele>328.0</ele>
        <time>2010-04-30T12:25:42Z</time>
      </trkpt>
      <trkpt lat="42.252759" lon="-1.482786">
        <ele>328.0</ele>
        <time>2010-04-30T12:26:36Z</time>
      </trkpt>
      <trkpt lat="42.252659" lon="-1.482813">
        <ele>328.0</ele>
        <time>2010-04-30T12:27:03Z</time>
      </trkpt>
      <trkpt lat="42.252559" lon="-1.482822">
        <ele>328.0</ele>
        <time>2010-04-30T12:27:50Z</time>
      </trkpt>
      <trkpt lat="42.252465" lon="-1.482822">
        <ele>328.0</ele>
        <time>2010-04-30T12:27:58Z</time>
      </trkpt>
      <trkpt lat="42.252372" lon="-1.482804">
        <ele>323.0</ele>
        <time>2010-04-30T12:28:06Z</time>
      </trkpt>
      <trkpt lat="42.252279" lon="-1.482786">
        <ele>323.0</ele>
        <time>2010-04-30T12:28:15Z</time>
      </trkpt>
      <trkpt lat="42.252185" lon="-1.482759">
        <ele>323.0</ele>
        <time>2010-04-30T12:28:23Z</time>
      </trkpt>
      <trkpt lat="42.252092" lon="-1.482741">
        <ele>323.0</ele>
        <time>2010-04-30T12:28:31Z</time>
      </trkpt>
      <trkpt lat="42.251998" lon="-1.482732">
        <ele>323.0</ele>
        <time>2010-04-30T12:28:39Z</time>
      </trkpt>
      <trkpt lat="42.251905" lon="-1.482741">
        <ele>323.0</ele>
        <time>2010-04-30T12:28:47Z</time>
      </trkpt>
      <trkpt lat="42.251811" lon="-1.482741">
        <ele>323.0</ele>
        <time>2010-04-30T12:28:55Z</time>
      </trkpt>
      <trkpt lat="42.251718" lon="-1.482732">
        <ele>317.0</ele>
        <time>2010-04-30T12:29:04Z</time>
      </trkpt>
      <trkpt lat="42.251618" lon="-1.482732">
        <ele>317.0</ele>
        <time>2010-04-30T12:29:12Z</time>
      </trkpt>
      <trkpt lat="42.251524" lon="-1.482723">
        <ele>317.0</ele>
        <time>2010-04-30T12:29:30Z</time>
      </trkpt>
      <trkpt lat="42.251431" lon="-1.482696">
        <ele>317.0</ele>
        <time>2010-04-30T12:29:45Z</time>
      </trkpt>
      <trkpt lat="42.251337" lon="-1.482759">
        <ele>317.0</ele>
        <time>2010-04-30T12:29:53Z</time>
      </trkpt>
      <trkpt lat="42.251251" lon="-1.482813">
        <ele>317.0</ele>
        <time>2010-04-30T12:30:01Z</time>
      </trkpt>
      <trkpt lat="42.251164" lon="-1.482885">
        <ele>317.0</ele>
        <time>2010-04-30T12:30:10Z</time>
      </trkpt>
      <trkpt lat="42.251091" lon="-1.482957">
        <ele>317.0</ele>
        <time>2010-04-30T12:30:18Z</time>
      </trkpt>
      <trkpt lat="42.251004" lon="-1.482993">
        <ele>317.0</ele>
        <time>2010-04-30T12:30:27Z</time>
      </trkpt>
      <trkpt lat="42.250917" lon="-1.483056">
        <ele>317.0</ele>
        <time>2010-04-30T12:30:42Z</time>
      </trkpt>
      <trkpt lat="42.250870" lon="-1.483172">
        <ele>317.0</ele>
        <time>2010-04-30T12:30:51Z</time>
      </trkpt>
      <trkpt lat="42.250810" lon="-1.483271">
        <ele>312.0</ele>
        <time>2010-04-30T12:33:18Z</time>
      </trkpt>
      <trkpt lat="42.250730" lon="-1.483343">
        <ele>312.0</ele>
        <time>2010-04-30T12:33:38Z</time>
      </trkpt>
      <trkpt lat="42.250643" lon="-1.483379">
        <ele>312.0</ele>
        <time>2010-04-30T12:33:48Z</time>
      </trkpt>
      <trkpt lat="42.250557" lon="-1.483343">
        <ele>312.0</ele>
        <time>2010-04-30T12:33:57Z</time>
      </trkpt>
      <trkpt lat="42.250470" lon="-1.483280">
        <ele>312.0</ele>
        <time>2010-04-30T12:34:07Z</time>
      </trkpt>
      <trkpt lat="42.250383" lon="-1.483235">
        <ele>312.0</ele>
        <time>2010-04-30T12:34:17Z</time>
      </trkpt>
      <trkpt lat="42.250296" lon="-1.483190">
        <ele>312.0</ele>
        <time>2010-04-30T12:34:26Z</time>
      </trkpt>
      <trkpt lat="42.250210" lon="-1.483137">
        <ele>312.0</ele>
        <time>2010-04-30T12:34:35Z</time>
      </trkpt>
      <trkpt lat="42.250130" lon="-1.483056">
        <ele>312.0</ele>
        <time>2010-04-30T12:34:50Z</time>
      </trkpt>
      <trkpt lat="42.250043" lon="-1.482993">
        <ele>312.0</ele>
        <time>2010-04-30T12:35:06Z</time>
      </trkpt>
      <trkpt lat="42.249996" lon="-1.482876">
        <ele>312.0</ele>
        <time>2010-04-30T12:35:18Z</time>
      </trkpt>
      <trkpt lat="42.249969" lon="-1.482759">
        <ele>312.0</ele>
        <time>2010-04-30T12:35:26Z</time>
      </trkpt>
      <trkpt lat="42.249903" lon="-1.482669">
        <ele>312.0</ele>
        <time>2010-04-30T12:35:35Z</time>
      </trkpt>
      <trkpt lat="42.249816" lon="-1.482615">
        <ele>312.0</ele>
        <time>2010-04-30T12:35:43Z</time>
      </trkpt>
      <trkpt lat="42.249729" lon="-1.482544">
        <ele>312.0</ele>
        <time>2010-04-30T12:35:51Z</time>
      </trkpt>
      <trkpt lat="42.249642" lon="-1.482472">
        <ele>312.0</ele>
        <time>2010-04-30T12:35:59Z</time>
      </trkpt>
      <trkpt lat="42.249549" lon="-1.482427">
        <ele>312.0</ele>
        <time>2010-04-30T12:36:07Z</time>
      </trkpt>
      <trkpt lat="42.249449" lon="-1.482409">
        <ele>312.0</ele>
        <time>2010-04-30T12:36:15Z</time>
      </trkpt>
      <trkpt lat="42.249349" lon="-1.482409">
        <ele>312.0</ele>
        <time>2010-04-30T12:36:23Z</time>
      </trkpt>
      <trkpt lat="42.249255" lon="-1.482409">
        <ele>312.0</ele>
        <time>2010-04-30T12:36:32Z</time>
      </trkpt>
      <trkpt lat="42.249162" lon="-1.482373">
        <ele>312.0</ele>
        <time>2010-04-30T12:36:41Z</time>
      </trkpt>
      <trkpt lat="42.249075" lon="-1.482319">
        <ele>312.0</ele>
        <time>2010-04-30T12:36:50Z</time>
      </trkpt>
      <trkpt lat="42.248988" lon="-1.482274">
        <ele>312.0</ele>
        <time>2010-04-30T12:36:58Z</time>
      </trkpt>
      <trkpt lat="42.248895" lon="-1.482283">
        <ele>312.0</ele>
        <time>2010-04-30T12:37:06Z</time>
      </trkpt>
      <trkpt lat="42.248795" lon="-1.482301">
        <ele>312.0</ele>
        <time>2010-04-30T12:37:14Z</time>
      </trkpt>
      <trkpt lat="42.248701" lon="-1.482292">
        <ele>312.0</ele>
        <time>2010-04-30T12:37:21Z</time>
      </trkpt>
      <trkpt lat="42.248601" lon="-1.482283">
        <ele>312.0</ele>
        <time>2010-04-30T12:37:29Z</time>
      </trkpt>
      <trkpt lat="42.248508" lon="-1.482292">
        <ele>312.0</ele>
        <time>2010-04-30T12:37:37Z</time>
      </trkpt>
      <trkpt lat="42.248414" lon="-1.482292">
        <ele>312.0</ele>
        <time>2010-04-30T12:37:45Z</time>
      </trkpt>
      <trkpt lat="42.248321" lon="-1.482292">
        <ele>312.0</ele>
        <time>2010-04-30T12:37:59Z</time>
      </trkpt>
      <trkpt lat="42.248234" lon="-1.482238">
        <ele>312.0</ele>
        <time>2010-04-30T12:38:39Z</time>
      </trkpt>
      <trkpt lat="42.248141" lon="-1.482238">
        <ele>312.0</ele>
        <time>2010-04-30T12:38:46Z</time>
      </trkpt>
      <trkpt lat="42.248040" lon="-1.482247">
        <ele>312.0</ele>
        <time>2010-04-30T12:38:54Z</time>
      </trkpt>
      <trkpt lat="42.247947" lon="-1.482283">
        <ele>312.0</ele>
        <time>2010-04-30T12:39:02Z</time>
      </trkpt>
      <trkpt lat="42.247847" lon="-1.482319">
        <ele>312.0</ele>
        <time>2010-04-30T12:39:11Z</time>
      </trkpt>
      <trkpt lat="42.247753" lon="-1.482355">
        <ele>312.0</ele>
        <time>2010-04-30T12:39:19Z</time>
      </trkpt>
      <trkpt lat="42.247667" lon="-1.482400">
        <ele>312.0</ele>
        <time>2010-04-30T12:39:27Z</time>
      </trkpt>
      <trkpt lat="42.247573" lon="-1.482418">
        <ele>312.0</ele>
        <time>2010-04-30T12:39:36Z</time>
      </trkpt>
      <trkpt lat="42.247473" lon="-1.482418">
        <ele>312.0</ele>
        <time>2010-04-30T12:39:45Z</time>
      </trkpt>
      <trkpt lat="42.247380" lon="-1.482454">
        <ele>312.0</ele>
        <time>2010-04-30T12:39:53Z</time>
      </trkpt>
      <trkpt lat="42.247286" lon="-1.482481">
        <ele>312.0</ele>
        <time>2010-04-30T12:40:01Z</time>
      </trkpt>
      <trkpt lat="42.247193" lon="-1.482508">
        <ele>312.0</ele>
        <time>2010-04-30T12:40:09Z</time>
      </trkpt>
      <trkpt lat="42.247099" lon="-1.482526">
        <ele>312.0</ele>
        <time>2010-04-30T12:40:18Z</time>
      </trkpt>
      <trkpt lat="42.247026" lon="-1.482454">
        <ele>312.0</ele>
        <time>2010-04-30T12:40:26Z</time>
      </trkpt>
      <trkpt lat="42.246939" lon="-1.482418">
        <ele>312.0</ele>
        <time>2010-04-30T12:40:34Z</time>
      </trkpt>
      <trkpt lat="42.246846" lon="-1.482418">
        <ele>312.0</ele>
        <time>2010-04-30T12:40:43Z</time>
      </trkpt>
      <trkpt lat="42.246752" lon="-1.482436">
        <ele>312.0</ele>
        <time>2010-04-30T12:40:51Z</time>
      </trkpt>
      <trkpt lat="42.246679" lon="-1.482508">
        <ele>312.0</ele>
        <time>2010-04-30T12:41:07Z</time>
      </trkpt>
      <trkpt lat="42.246606" lon="-1.482427">
        <ele>312.0</ele>
        <time>2010-04-30T12:42:44Z</time>
      </trkpt>
      <trkpt lat="42.246532" lon="-1.482499">
        <ele>306.0</ele>
        <time>2010-04-30T12:45:25Z</time>
      </trkpt>
      <trkpt lat="42.246525" lon="-1.482624">
        <ele>306.0</ele>
        <time>2010-04-30T12:45:44Z</time>
      </trkpt>
      <trkpt lat="42.246439" lon="-1.482571">
        <ele>299.0</ele>
        <time>2010-04-30T12:45:58Z</time>
      </trkpt>
      <trkpt lat="42.246345" lon="-1.482526">
        <ele>299.0</ele>
        <time>2010-04-30T12:46:08Z</time>
      </trkpt>
      <trkpt lat="42.246245" lon="-1.482544">
        <ele>299.0</ele>
        <time>2010-04-30T12:46:19Z</time>
      </trkpt>
      <trkpt lat="42.246152" lon="-1.482535">
        <ele>299.0</ele>
        <time>2010-04-30T12:46:30Z</time>
      </trkpt>
      <trkpt lat="42.246072" lon="-1.482606">
        <ele>299.0</ele>
        <time>2010-04-30T12:46:40Z</time>
      </trkpt>
      <trkpt lat="42.245985" lon="-1.482642">
        <ele>299.0</ele>
        <time>2010-04-30T12:46:49Z</time>
      </trkpt>
      <trkpt lat="42.245891" lon="-1.482660">
        <ele>299.0</ele>
        <time>2010-04-30T12:46:58Z</time>
      </trkpt>
      <trkpt lat="42.245805" lon="-1.482624">
        <ele>299.0</ele>
        <time>2010-04-30T12:47:07Z</time>
      </trkpt>
      <trkpt lat="42.245711" lon="-1.482553">
        <ele>299.0</ele>
        <time>2010-04-30T12:47:16Z</time>
      </trkpt>
      <trkpt lat="42.245638" lon="-1.482481">
        <ele>299.0</ele>
        <time>2010-04-30T12:47:24Z</time>
      </trkpt>
      <trkpt lat="42.245544" lon="-1.482481">
        <ele>299.0</ele>
        <time>2010-04-30T12:47:36Z</time>
      </trkpt>
      <trkpt lat="42.245458" lon="-1.482427">
        <ele>299.0</ele>
        <time>2010-04-30T12:47:46Z</time>
      </trkpt>
      <trkpt lat="42.245377" lon="-1.482364">
        <ele>293.0</ele>
        <time>2010-04-30T12:48:02Z</time>
      </trkpt>
      <trkpt lat="42.245291" lon="-1.482400">
        <ele>293.0</ele>
        <time>2010-04-30T12:48:11Z</time>
      </trkpt>
      <trkpt lat="42.245197" lon="-1.482454">
        <ele>293.0</ele>
        <time>2010-04-30T12:48:21Z</time>
      </trkpt>
      <trkpt lat="42.245104" lon="-1.482436">
        <ele>293.0</ele>
        <time>2010-04-30T12:48:31Z</time>
      </trkpt>
      <trkpt lat="42.245004" lon="-1.482418">
        <ele>293.0</ele>
        <time>2010-04-30T12:49:06Z</time>
      </trkpt>
      <trkpt lat="42.244897" lon="-1.482409">
        <ele>293.0</ele>
        <time>2010-04-30T12:49:15Z</time>
      </trkpt>
      <trkpt lat="42.244803" lon="-1.482373">
        <ele>293.0</ele>
        <time>2010-04-30T12:49:29Z</time>
      </trkpt>
      <trkpt lat="42.244730" lon="-1.482301">
        <ele>293.0</ele>
        <time>2010-04-30T12:49:37Z</time>
      </trkpt>
      <trkpt lat="42.244637" lon="-1.482283">
        <ele>293.0</ele>
        <time>2010-04-30T12:50:06Z</time>
      </trkpt>
      <trkpt lat="42.244543" lon="-1.482283">
        <ele>293.0</ele>
        <time>2010-04-30T12:50:25Z</time>
      </trkpt>
      <trkpt lat="42.244450" lon="-1.482256">
        <ele>293.0</ele>
        <time>2010-04-30T12:50:50Z</time>
      </trkpt>
      <trkpt lat="42.244363" lon="-1.482301">
        <ele>293.0</ele>
        <time>2010-04-30T12:51:21Z</time>
      </trkpt>
      <trkpt lat="42.244323" lon="-1.482418">
        <ele>293.0</ele>
        <time>2010-04-30T12:51:32Z</time>
      </trkpt>
      <trkpt lat="42.244223" lon="-1.482364">
        <ele>293.0</ele>
        <time>2010-04-30T12:51:50Z</time>
      </trkpt>
      <trkpt lat="42.244136" lon="-1.482409">
        <ele>293.0</ele>
        <time>2010-04-30T12:52:20Z</time>
      </trkpt>
      <trkpt lat="42.244042" lon="-1.482391">
        <ele>293.0</ele>
        <time>2010-04-30T12:52:31Z</time>
      </trkpt>
      <trkpt lat="42.243949" lon="-1.482364">
        <ele>293.0</ele>
        <time>2010-04-30T12:52:59Z</time>
      </trkpt>
      <trkpt lat="42.243862" lon="-1.482418">
        <ele>285.0</ele>
        <time>2010-04-30T12:53:11Z</time>
      </trkpt>
      <trkpt lat="42.243769" lon="-1.482391">
        <ele>285.0</ele>
        <time>2010-04-30T12:53:22Z</time>
      </trkpt>
      <trkpt lat="42.243675" lon="-1.482427">
        <ele>285.0</ele>
        <time>2010-04-30T12:53:32Z</time>
      </trkpt>
      <trkpt lat="42.243589" lon="-1.482463">
        <ele>290.0</ele>
        <time>2010-04-30T12:55:55Z</time>
      </trkpt>
      <trkpt lat="42.243522" lon="-1.482553">
        <ele>290.0</ele>
        <time>2010-04-30T12:56:03Z</time>
      </trkpt>
      <trkpt lat="42.243428" lon="-1.482589">
        <ele>290.0</ele>
        <time>2010-04-30T12:56:12Z</time>
      </trkpt>
      <trkpt lat="42.243355" lon="-1.482669">
        <ele>290.0</ele>
        <time>2010-04-30T12:56:20Z</time>
      </trkpt>
      <trkpt lat="42.243282" lon="-1.482750">
        <ele>290.0</ele>
        <time>2010-04-30T12:56:28Z</time>
      </trkpt>
      <trkpt lat="42.243208" lon="-1.482840">
        <ele>290.0</ele>
        <time>2010-04-30T12:56:36Z</time>
      </trkpt>
      <trkpt lat="42.243128" lon="-1.482912">
        <ele>290.0</ele>
        <time>2010-04-30T12:56:44Z</time>
      </trkpt>
      <trkpt lat="42.243055" lon="-1.482993">
        <ele>290.0</ele>
        <time>2010-04-30T12:56:52Z</time>
      </trkpt>
      <trkpt lat="42.242995" lon="-1.483092">
        <ele>290.0</ele>
        <time>2010-04-30T12:57:12Z</time>
      </trkpt>
      <trkpt lat="42.242948" lon="-1.483199">
        <ele>290.0</ele>
        <time>2010-04-30T12:57:53Z</time>
      </trkpt>
      <trkpt lat="42.242888" lon="-1.483298">
        <ele>290.0</ele>
        <time>2010-04-30T12:58:09Z</time>
      </trkpt>
      <trkpt lat="42.242834" lon="-1.483406">
        <ele>290.0</ele>
        <time>2010-04-30T12:58:19Z</time>
      </trkpt>
      <trkpt lat="42.242768" lon="-1.483496">
        <ele>290.0</ele>
        <time>2010-04-30T12:58:29Z</time>
      </trkpt>
      <trkpt lat="42.242701" lon="-1.483586">
        <ele>290.0</ele>
        <time>2010-04-30T12:58:38Z</time>
      </trkpt>
      <trkpt lat="42.242647" lon="-1.483693">
        <ele>290.0</ele>
        <time>2010-04-30T12:58:50Z</time>
      </trkpt>
      <trkpt lat="42.242594" lon="-1.483801">
        <ele>290.0</ele>
        <time>2010-04-30T12:59:00Z</time>
      </trkpt>
      <trkpt lat="42.242521" lon="-1.483882">
        <ele>290.0</ele>
        <time>2010-04-30T13:00:37Z</time>
      </trkpt>
      <trkpt lat="42.242461" lon="-1.483990">
        <ele>290.0</ele>
        <time>2010-04-30T13:00:46Z</time>
      </trkpt>
      <trkpt lat="42.242407" lon="-1.484089">
        <ele>290.0</ele>
        <time>2010-04-30T13:00:55Z</time>
      </trkpt>
      <trkpt lat="42.242360" lon="-1.484205">
        <ele>290.0</ele>
        <time>2010-04-30T13:01:10Z</time>
      </trkpt>
      <trkpt lat="42.242294" lon="-1.484295">
        <ele>290.0</ele>
        <time>2010-04-30T13:01:21Z</time>
      </trkpt>
      <trkpt lat="42.242220" lon="-1.484367">
        <ele>290.0</ele>
        <time>2010-04-30T13:01:38Z</time>
      </trkpt>
      <trkpt lat="42.242160" lon="-1.484466">
        <ele>290.0</ele>
        <time>2010-04-30T13:01:48Z</time>
      </trkpt>
      <trkpt lat="42.242087" lon="-1.484538">
        <ele>290.0</ele>
        <time>2010-04-30T13:02:17Z</time>
      </trkpt>
      <trkpt lat="42.242000" lon="-1.484502">
        <ele>290.0</ele>
        <time>2010-04-30T13:02:30Z</time>
      </trkpt>
      <trkpt lat="42.241920" lon="-1.484574">
        <ele>290.0</ele>
        <time>2010-04-30T13:02:53Z</time>
      </trkpt>
      <trkpt lat="42.241833" lon="-1.484610">
        <ele>290.0</ele>
        <time>2010-04-30T13:03:16Z</time>
      </trkpt>
      <trkpt lat="42.241746" lon="-1.484664">
        <ele>290.0</ele>
        <time>2010-04-30T13:03:53Z</time>
      </trkpt>
      <trkpt lat="42.241646" lon="-1.484691">
        <ele>290.0</ele>
        <time>2010-04-30T13:04:03Z</time>
      </trkpt>
      <trkpt lat="42.241553" lon="-1.484700">
        <ele>290.0</ele>
        <time>2010-04-30T13:04:13Z</time>
      </trkpt>
      <trkpt lat="42.241453" lon="-1.484682">
        <ele>290.0</ele>
        <time>2010-04-30T13:04:23Z</time>
      </trkpt>
      <trkpt lat="42.241359" lon="-1.484691">
        <ele>290.0</ele>
        <time>2010-04-30T13:04:31Z</time>
      </trkpt>
      <trkpt lat="42.241286" lon="-1.484771">
        <ele>290.0</ele>
        <time>2010-04-30T13:04:47Z</time>
      </trkpt>
      <trkpt lat="42.241192" lon="-1.484762">
        <ele>290.0</ele>
        <time>2010-04-30T13:04:56Z</time>
      </trkpt>
      <trkpt lat="42.241099" lon="-1.484744">
        <ele>290.0</ele>
        <time>2010-04-30T13:05:05Z</time>
      </trkpt>
      <trkpt lat="42.241005" lon="-1.484762">
        <ele>290.0</ele>
        <time>2010-04-30T13:05:14Z</time>
      </trkpt>
      <trkpt lat="42.240912" lon="-1.484762">
        <ele>290.0</ele>
        <time>2010-04-30T13:05:24Z</time>
      </trkpt>
      <trkpt lat="42.240825" lon="-1.484798">
        <ele>290.0</ele>
        <time>2010-04-30T13:05:33Z</time>
      </trkpt>
      <trkpt lat="42.240732" lon="-1.484798">
        <ele>290.0</ele>
        <time>2010-04-30T13:05:48Z</time>
      </trkpt>
      <trkpt lat="42.240638" lon="-1.484807">
        <ele>290.0</ele>
        <time>2010-04-30T13:06:01Z</time>
      </trkpt>
      <trkpt lat="42.240552" lon="-1.484843">
        <ele>290.0</ele>
        <time>2010-04-30T13:06:14Z</time>
      </trkpt>
      <trkpt lat="42.240451" lon="-1.484861">
        <ele>290.0</ele>
        <time>2010-04-30T13:06:29Z</time>
      </trkpt>
      <trkpt lat="42.240371" lon="-1.484924">
        <ele>290.0</ele>
        <time>2010-04-30T13:06:40Z</time>
      </trkpt>
      <trkpt lat="42.240305" lon="-1.485023">
        <ele>290.0</ele>
        <time>2010-04-30T13:06:49Z</time>
      </trkpt>
      <trkpt lat="42.240224" lon="-1.485095">
        <ele>290.0</ele>
        <time>2010-04-30T13:07:00Z</time>
      </trkpt>
      <trkpt lat="42.240151" lon="-1.485194">
        <ele>290.0</ele>
        <time>2010-04-30T13:07:16Z</time>
      </trkpt>
      <trkpt lat="42.240058" lon="-1.485355">
        <ele>290.0</ele>
        <time>2010-04-30T13:08:19Z</time>
      </trkpt>
      <trkpt lat="42.240018" lon="-1.485472">
        <ele>290.0</ele>
        <time>2010-04-30T13:08:25Z</time>
      </trkpt>
      <trkpt lat="42.239984" lon="-1.485589">
        <ele>298.0</ele>
        <time>2010-04-30T13:08:31Z</time>
      </trkpt>
      <trkpt lat="42.239917" lon="-1.485688">
        <ele>298.0</ele>
        <time>2010-04-30T13:08:41Z</time>
      </trkpt>
      <trkpt lat="42.239851" lon="-1.485796">
        <ele>298.0</ele>
        <time>2010-04-30T13:08:50Z</time>
      </trkpt>
      <trkpt lat="42.239817" lon="-1.485912">
        <ele>289.0</ele>
        <time>2010-04-30T13:09:09Z</time>
      </trkpt>
      <trkpt lat="42.239784" lon="-1.486029">
        <ele>289.0</ele>
        <time>2010-04-30T13:09:19Z</time>
      </trkpt>
      <trkpt lat="42.239751" lon="-1.486155">
        <ele>289.0</ele>
        <time>2010-04-30T13:09:46Z</time>
      </trkpt>
      <trkpt lat="42.239717" lon="-1.486281">
        <ele>289.0</ele>
        <time>2010-04-30T13:09:56Z</time>
      </trkpt>
      <trkpt lat="42.239677" lon="-1.486397">
        <ele>289.0</ele>
        <time>2010-04-30T13:10:05Z</time>
      </trkpt>
      <trkpt lat="42.239637" lon="-1.486514">
        <ele>289.0</ele>
        <time>2010-04-30T13:10:14Z</time>
      </trkpt>
      <trkpt lat="42.239610" lon="-1.486631">
        <ele>289.0</ele>
        <time>2010-04-30T13:10:28Z</time>
      </trkpt>
      <trkpt lat="42.239577" lon="-1.486748">
        <ele>289.0</ele>
        <time>2010-04-30T13:10:37Z</time>
      </trkpt>
      <trkpt lat="42.239530" lon="-1.486865">
        <ele>295.0</ele>
        <time>2010-04-30T13:10:44Z</time>
      </trkpt>
      <trkpt lat="42.239484" lon="-1.486972">
        <ele>295.0</ele>
        <time>2010-04-30T13:10:53Z</time>
      </trkpt>
      <trkpt lat="42.239430" lon="-1.487071">
        <ele>295.0</ele>
        <time>2010-04-30T13:11:01Z</time>
      </trkpt>
      <trkpt lat="42.239383" lon="-1.487188">
        <ele>295.0</ele>
        <time>2010-04-30T13:11:10Z</time>
      </trkpt>
      <trkpt lat="42.239343" lon="-1.487305">
        <ele>295.0</ele>
        <time>2010-04-30T13:11:19Z</time>
      </trkpt>
      <trkpt lat="42.239310" lon="-1.487430">
        <ele>295.0</ele>
        <time>2010-04-30T13:11:28Z</time>
      </trkpt>
      <trkpt lat="42.239270" lon="-1.487547">
        <ele>295.0</ele>
        <time>2010-04-30T13:11:36Z</time>
      </trkpt>
      <trkpt lat="42.239243" lon="-1.487673">
        <ele>289.0</ele>
        <time>2010-04-30T13:11:46Z</time>
      </trkpt>
      <trkpt lat="42.239210" lon="-1.487790">
        <ele>289.0</ele>
        <time>2010-04-30T13:11:55Z</time>
      </trkpt>
      <trkpt lat="42.239156" lon="-1.487907">
        <ele>289.0</ele>
        <time>2010-04-30T13:12:05Z</time>
      </trkpt>
      <trkpt lat="42.239130" lon="-1.488032">
        <ele>289.0</ele>
        <time>2010-04-30T13:12:16Z</time>
      </trkpt>
      <trkpt lat="42.239090" lon="-1.488149">
        <ele>289.0</ele>
        <time>2010-04-30T13:12:25Z</time>
      </trkpt>
      <trkpt lat="42.239043" lon="-1.488257">
        <ele>289.0</ele>
        <time>2010-04-30T13:12:34Z</time>
      </trkpt>
      <trkpt lat="42.239003" lon="-1.488374">
        <ele>289.0</ele>
        <time>2010-04-30T13:12:44Z</time>
      </trkpt>
      <trkpt lat="42.238936" lon="-1.488472">
        <ele>289.0</ele>
        <time>2010-04-30T13:12:58Z</time>
      </trkpt>
      <trkpt lat="42.238876" lon="-1.488571">
        <ele>289.0</ele>
        <time>2010-04-30T13:13:08Z</time>
      </trkpt>
      <trkpt lat="42.238776" lon="-1.488589">
        <ele>289.0</ele>
        <time>2010-04-30T13:13:23Z</time>
      </trkpt>
      <trkpt lat="42.238682" lon="-1.488607">
        <ele>289.0</ele>
        <time>2010-04-30T13:13:34Z</time>
      </trkpt>
      <trkpt lat="42.238589" lon="-1.488661">
        <ele>289.0</ele>
        <time>2010-04-30T13:13:48Z</time>
      </trkpt>
      <trkpt lat="42.238496" lon="-1.488670">
        <ele>289.0</ele>
        <time>2010-04-30T13:14:13Z</time>
      </trkpt>
      <trkpt lat="42.238402" lon="-1.488652">
        <ele>289.0</ele>
        <time>2010-04-30T13:14:23Z</time>
      </trkpt>
      <trkpt lat="42.238309" lon="-1.488661">
        <ele>289.0</ele>
        <time>2010-04-30T13:14:33Z</time>
      </trkpt>
      <trkpt lat="42.238215" lon="-1.488697">
        <ele>289.0</ele>
        <time>2010-04-30T13:15:10Z</time>
      </trkpt>
      <trkpt lat="42.238142" lon="-1.488769">
        <ele>289.0</ele>
        <time>2010-04-30T13:15:17Z</time>
      </trkpt>
      <trkpt lat="42.238068" lon="-1.488850">
        <ele>289.0</ele>
        <time>2010-04-30T13:15:25Z</time>
      </trkpt>
      <trkpt lat="42.237988" lon="-1.488913">
        <ele>289.0</ele>
        <time>2010-04-30T13:15:34Z</time>
      </trkpt>
      <trkpt lat="42.237901" lon="-1.488967">
        <ele>289.0</ele>
        <time>2010-04-30T13:15:57Z</time>
      </trkpt>
      <trkpt lat="42.237815" lon="-1.489011">
        <ele>289.0</ele>
        <time>2010-04-30T13:17:16Z</time>
      </trkpt>
      <trkpt lat="42.237721" lon="-1.489002">
        <ele>289.0</ele>
        <time>2010-04-30T13:17:34Z</time>
      </trkpt>
      <trkpt lat="42.237628" lon="-1.489020">
        <ele>289.0</ele>
        <time>2010-04-30T13:18:40Z</time>
      </trkpt>
      <trkpt lat="42.237568" lon="-1.489128">
        <ele>289.0</ele>
        <time>2010-04-30T13:18:53Z</time>
      </trkpt>
      <trkpt lat="42.237521" lon="-1.489236">
        <ele>289.0</ele>
        <time>2010-04-30T13:19:03Z</time>
      </trkpt>
      <trkpt lat="42.237454" lon="-1.489344">
        <ele>289.0</ele>
        <time>2010-04-30T13:19:15Z</time>
      </trkpt>
      <trkpt lat="42.237394" lon="-1.489470">
        <ele>289.0</ele>
        <time>2010-04-30T13:19:24Z</time>
      </trkpt>
      <trkpt lat="42.237354" lon="-1.489586">
        <ele>289.0</ele>
        <time>2010-04-30T13:19:32Z</time>
      </trkpt>
      <trkpt lat="42.237367" lon="-1.489721">
        <ele>289.0</ele>
        <time>2010-04-30T13:19:43Z</time>
      </trkpt>
      <trkpt lat="42.237381" lon="-1.489856">
        <ele>289.0</ele>
        <time>2010-04-30T13:19:53Z</time>
      </trkpt>
      <trkpt lat="42.237401" lon="-1.489982">
        <ele>289.0</ele>
        <time>2010-04-30T13:20:03Z</time>
      </trkpt>
      <trkpt lat="42.237428" lon="-1.490098">
        <ele>289.0</ele>
        <time>2010-04-30T13:20:13Z</time>
      </trkpt>
      <trkpt lat="42.237454" lon="-1.490224">
        <ele>289.0</ele>
        <time>2010-04-30T13:20:24Z</time>
      </trkpt>
      <trkpt lat="42.237488" lon="-1.490341">
        <ele>289.0</ele>
        <time>2010-04-30T13:20:33Z</time>
      </trkpt>
      <trkpt lat="42.237534" lon="-1.490458">
        <ele>289.0</ele>
        <time>2010-04-30T13:20:44Z</time>
      </trkpt>
      <trkpt lat="42.237574" lon="-1.490575">
        <ele>289.0</ele>
        <time>2010-04-30T13:20:54Z</time>
      </trkpt>
      <trkpt lat="42.237621" lon="-1.490700">
        <ele>289.0</ele>
        <time>2010-04-30T13:21:03Z</time>
      </trkpt>
      <trkpt lat="42.237648" lon="-1.490817">
        <ele>289.0</ele>
        <time>2010-04-30T13:21:12Z</time>
      </trkpt>
      <trkpt lat="42.237708" lon="-1.490916">
        <ele>289.0</ele>
        <time>2010-04-30T13:21:32Z</time>
      </trkpt>
      <trkpt lat="42.237801" lon="-1.490961">
        <ele>289.0</ele>
        <time>2010-04-30T13:22:04Z</time>
      </trkpt>
      <trkpt lat="42.237868" lon="-1.491051">
        <ele>289.0</ele>
        <time>2010-04-30T13:22:13Z</time>
      </trkpt>
      <trkpt lat="42.237908" lon="-1.491176">
        <ele>289.0</ele>
        <time>2010-04-30T13:22:22Z</time>
      </trkpt>
      <trkpt lat="42.237922" lon="-1.491311">
        <ele>289.0</ele>
        <time>2010-04-30T13:22:31Z</time>
      </trkpt>
      <trkpt lat="42.237922" lon="-1.491437">
        <ele>289.0</ele>
        <time>2010-04-30T13:22:39Z</time>
      </trkpt>
      <trkpt lat="42.237942" lon="-1.491563">
        <ele>289.0</ele>
        <time>2010-04-30T13:22:51Z</time>
      </trkpt>
      <trkpt lat="42.237975" lon="-1.491679">
        <ele>289.0</ele>
        <time>2010-04-30T13:23:00Z</time>
      </trkpt>
      <trkpt lat="42.238022" lon="-1.491796">
        <ele>289.0</ele>
        <time>2010-04-30T13:23:16Z</time>
      </trkpt>
      <trkpt lat="42.238035" lon="-1.491922">
        <ele>289.0</ele>
        <time>2010-04-30T13:23:24Z</time>
      </trkpt>
      <trkpt lat="42.238042" lon="-1.492048">
        <ele>289.0</ele>
        <time>2010-04-30T13:23:32Z</time>
      </trkpt>
      <trkpt lat="42.238028" lon="-1.492174">
        <ele>289.0</ele>
        <time>2010-04-30T13:23:40Z</time>
      </trkpt>
      <trkpt lat="42.238002" lon="-1.492308">
        <ele>289.0</ele>
        <time>2010-04-30T13:23:49Z</time>
      </trkpt>
      <trkpt lat="42.238002" lon="-1.492434">
        <ele>289.0</ele>
        <time>2010-04-30T13:23:59Z</time>
      </trkpt>
      <trkpt lat="42.237975" lon="-1.492551">
        <ele>289.0</ele>
        <time>2010-04-30T13:24:19Z</time>
      </trkpt>
      <trkpt lat="42.237915" lon="-1.492650">
        <ele>289.0</ele>
        <time>2010-04-30T13:24:28Z</time>
      </trkpt>
      <trkpt lat="42.237848" lon="-1.492748">
        <ele>289.0</ele>
        <time>2010-04-30T13:24:36Z</time>
      </trkpt>
      <trkpt lat="42.237795" lon="-1.492847">
        <ele>289.0</ele>
        <time>2010-04-30T13:24:44Z</time>
      </trkpt>
      <trkpt lat="42.237768" lon="-1.492973">
        <ele>289.0</ele>
        <time>2010-04-30T13:24:52Z</time>
      </trkpt>
      <trkpt lat="42.237748" lon="-1.493099">
        <ele>289.0</ele>
        <time>2010-04-30T13:25:00Z</time>
      </trkpt>
      <trkpt lat="42.237728" lon="-1.493234">
        <ele>289.0</ele>
        <time>2010-04-30T13:25:11Z</time>
      </trkpt>
      <trkpt lat="42.237701" lon="-1.493359">
        <ele>289.0</ele>
        <time>2010-04-30T13:25:20Z</time>
      </trkpt>
      <trkpt lat="42.237668" lon="-1.493476">
        <ele>289.0</ele>
        <time>2010-04-30T13:25:29Z</time>
      </trkpt>
      <trkpt lat="42.237621" lon="-1.493602">
        <ele>289.0</ele>
        <time>2010-04-30T13:25:39Z</time>
      </trkpt>
      <trkpt lat="42.237594" lon="-1.493719">
        <ele>289.0</ele>
        <time>2010-04-30T13:25:48Z</time>
      </trkpt>
      <trkpt lat="42.237554" lon="-1.493835">
        <ele>289.0</ele>
        <time>2010-04-30T13:25:57Z</time>
      </trkpt>
      <trkpt lat="42.237514" lon="-1.493952">
        <ele>289.0</ele>
        <time>2010-04-30T13:26:06Z</time>
      </trkpt>
      <trkpt lat="42.237488" lon="-1.494069">
        <ele>289.0</ele>
        <time>2010-04-30T13:26:17Z</time>
      </trkpt>
      <trkpt lat="42.237461" lon="-1.494186">
        <ele>289.0</ele>
        <time>2010-04-30T13:26:27Z</time>
      </trkpt>
      <trkpt lat="42.237501" lon="-1.494303">
        <ele>289.0</ele>
        <time>2010-04-30T13:26:43Z</time>
      </trkpt>
      <trkpt lat="42.237514" lon="-1.494437">
        <ele>289.0</ele>
        <time>2010-04-30T13:26:52Z</time>
      </trkpt>
      <trkpt lat="42.237561" lon="-1.494545">
        <ele>289.0</ele>
        <time>2010-04-30T13:27:03Z</time>
      </trkpt>
      <trkpt lat="42.237588" lon="-1.494662">
        <ele>289.0</ele>
        <time>2010-04-30T13:27:11Z</time>
      </trkpt>
      <trkpt lat="42.237621" lon="-1.494779">
        <ele>289.0</ele>
        <time>2010-04-30T13:27:31Z</time>
      </trkpt>
      <trkpt lat="42.237654" lon="-1.494895">
        <ele>289.0</ele>
        <time>2010-04-30T13:27:40Z</time>
      </trkpt>
      <trkpt lat="42.237701" lon="-1.495012">
        <ele>289.0</ele>
        <time>2010-04-30T13:27:50Z</time>
      </trkpt>
      <trkpt lat="42.237761" lon="-1.495111">
        <ele>289.0</ele>
        <time>2010-04-30T13:28:00Z</time>
      </trkpt>
      <trkpt lat="42.237828" lon="-1.495210">
        <ele>289.0</ele>
        <time>2010-04-30T13:28:09Z</time>
      </trkpt>
      <trkpt lat="42.237861" lon="-1.495327">
        <ele>289.0</ele>
        <time>2010-04-30T13:28:20Z</time>
      </trkpt>
      <trkpt lat="42.237901" lon="-1.495443">
        <ele>289.0</ele>
        <time>2010-04-30T13:28:32Z</time>
      </trkpt>
      <trkpt lat="42.237888" lon="-1.495578">
        <ele>289.0</ele>
        <time>2010-04-30T13:28:43Z</time>
      </trkpt>
      <trkpt lat="42.237841" lon="-1.495686">
        <ele>289.0</ele>
        <time>2010-04-30T13:28:52Z</time>
      </trkpt>
      <trkpt lat="42.237821" lon="-1.495812">
        <ele>289.0</ele>
        <time>2010-04-30T13:29:03Z</time>
      </trkpt>
      <trkpt lat="42.237748" lon="-1.495884">
        <ele>289.0</ele>
        <time>2010-04-30T13:29:18Z</time>
      </trkpt>
      <trkpt lat="42.237708" lon="-1.496009">
        <ele>289.0</ele>
        <time>2010-04-30T13:29:28Z</time>
      </trkpt>
      <trkpt lat="42.237688" lon="-1.496135">
        <ele>289.0</ele>
        <time>2010-04-30T13:29:37Z</time>
      </trkpt>
      <trkpt lat="42.237661" lon="-1.496261">
        <ele>289.0</ele>
        <time>2010-04-30T13:29:47Z</time>
      </trkpt>
      <trkpt lat="42.237634" lon="-1.496378">
        <ele>289.0</ele>
        <time>2010-04-30T13:30:11Z</time>
      </trkpt>
      <trkpt lat="42.237554" lon="-1.496450">
        <ele>289.0</ele>
        <time>2010-04-30T13:30:20Z</time>
      </trkpt>
      <trkpt lat="42.237468" lon="-1.496485">
        <ele>289.0</ele>
        <time>2010-04-30T13:30:29Z</time>
      </trkpt>
      <trkpt lat="42.237387" lon="-1.496548">
        <ele>289.0</ele>
        <time>2010-04-30T13:30:47Z</time>
      </trkpt>
      <trkpt lat="42.237321" lon="-1.496647">
        <ele>289.0</ele>
        <time>2010-04-30T13:31:28Z</time>
      </trkpt>
      <trkpt lat="42.237261" lon="-1.496746">
        <ele>289.0</ele>
        <time>2010-04-30T13:31:40Z</time>
      </trkpt>
      <trkpt lat="42.237214" lon="-1.496854">
        <ele>289.0</ele>
        <time>2010-04-30T13:32:32Z</time>
      </trkpt>
      <trkpt lat="42.237120" lon="-1.496872">
        <ele>289.0</ele>
        <time>2010-04-30T13:32:45Z</time>
      </trkpt>
      <trkpt lat="42.237047" lon="-1.496944">
        <ele>289.0</ele>
        <time>2010-04-30T13:32:55Z</time>
      </trkpt>
      <trkpt lat="42.236974" lon="-1.497024">
        <ele>289.0</ele>
        <time>2010-04-30T13:33:08Z</time>
      </trkpt>
      <trkpt lat="42.236893" lon="-1.497087">
        <ele>289.0</ele>
        <time>2010-04-30T13:34:14Z</time>
      </trkpt>
      <trkpt lat="42.236807" lon="-1.497123">
        <ele>289.0</ele>
        <time>2010-04-30T13:34:36Z</time>
      </trkpt>
      <trkpt lat="42.236720" lon="-1.497186">
        <ele>289.0</ele>
        <time>2010-04-30T13:34:46Z</time>
      </trkpt>
      <trkpt lat="42.236633" lon="-1.497258">
        <ele>289.0</ele>
        <time>2010-04-30T13:34:55Z</time>
      </trkpt>
      <trkpt lat="42.236540" lon="-1.497321">
        <ele>289.0</ele>
        <time>2010-04-30T13:35:04Z</time>
      </trkpt>
      <trkpt lat="42.236460" lon="-1.497384">
        <ele>289.0</ele>
        <time>2010-04-30T13:35:13Z</time>
      </trkpt>
      <trkpt lat="42.236366" lon="-1.497447">
        <ele>289.0</ele>
        <time>2010-04-30T13:35:22Z</time>
      </trkpt>
      <trkpt lat="42.236293" lon="-1.497536">
        <ele>289.0</ele>
        <time>2010-04-30T13:35:32Z</time>
      </trkpt>
      <trkpt lat="42.236239" lon="-1.497635">
        <ele>289.0</ele>
        <time>2010-04-30T13:35:43Z</time>
      </trkpt>
      <trkpt lat="42.236146" lon="-1.497689">
        <ele>289.0</ele>
        <time>2010-04-30T13:36:18Z</time>
      </trkpt>
      <trkpt lat="42.236066" lon="-1.497752">
        <ele>289.0</ele>
        <time>2010-04-30T13:36:28Z</time>
      </trkpt>
      <trkpt lat="42.235979" lon="-1.497824">
        <ele>289.0</ele>
        <time>2010-04-30T13:36:38Z</time>
      </trkpt>
      <trkpt lat="42.235892" lon="-1.497878">
        <ele>289.0</ele>
        <time>2010-04-30T13:36:50Z</time>
      </trkpt>
      <trkpt lat="42.235832" lon="-1.497977">
        <ele>289.0</ele>
        <time>2010-04-30T13:37:15Z</time>
      </trkpt>
      <trkpt lat="42.235785" lon="-1.498084">
        <ele>289.0</ele>
        <time>2010-04-30T13:37:25Z</time>
      </trkpt>
      <trkpt lat="42.235772" lon="-1.498219">
        <ele>289.0</ele>
        <time>2010-04-30T13:37:38Z</time>
      </trkpt>
      <trkpt lat="42.235745" lon="-1.498336">
        <ele>289.0</ele>
        <time>2010-04-30T13:37:49Z</time>
      </trkpt>
      <trkpt lat="42.235692" lon="-1.498453">
        <ele>289.0</ele>
        <time>2010-04-30T13:38:11Z</time>
      </trkpt>
      <trkpt lat="42.235645" lon="-1.498570">
        <ele>289.0</ele>
        <time>2010-04-30T13:38:46Z</time>
      </trkpt>
      <trkpt lat="42.235572" lon="-1.498659">
        <ele>289.0</ele>
        <time>2010-04-30T13:38:54Z</time>
      </trkpt>
      <trkpt lat="42.235498" lon="-1.498749">
        <ele>289.0</ele>
        <time>2010-04-30T13:39:03Z</time>
      </trkpt>
      <trkpt lat="42.235418" lon="-1.498839">
        <ele>289.0</ele>
        <time>2010-04-30T13:39:12Z</time>
      </trkpt>
      <trkpt lat="42.235351" lon="-1.498929">
        <ele>289.0</ele>
        <time>2010-04-30T13:39:27Z</time>
      </trkpt>
      <trkpt lat="42.235285" lon="-1.499028">
        <ele>289.0</ele>
        <time>2010-04-30T13:39:36Z</time>
      </trkpt>
      <trkpt lat="42.235231" lon="-1.499127">
        <ele>289.0</ele>
        <time>2010-04-30T13:39:44Z</time>
      </trkpt>
      <trkpt lat="42.235178" lon="-1.499225">
        <ele>289.0</ele>
        <time>2010-04-30T13:39:52Z</time>
      </trkpt>
      <trkpt lat="42.235104" lon="-1.499324">
        <ele>289.0</ele>
        <time>2010-04-30T13:40:01Z</time>
      </trkpt>
      <trkpt lat="42.235031" lon="-1.499414">
        <ele>289.0</ele>
        <time>2010-04-30T13:40:10Z</time>
      </trkpt>
      <trkpt lat="42.234964" lon="-1.499504">
        <ele>289.0</ele>
        <time>2010-04-30T13:40:18Z</time>
      </trkpt>
      <trkpt lat="42.234898" lon="-1.499594">
        <ele>289.0</ele>
        <time>2010-04-30T13:40:26Z</time>
      </trkpt>
      <trkpt lat="42.234837" lon="-1.499701">
        <ele>289.0</ele>
        <time>2010-04-30T13:40:34Z</time>
      </trkpt>
      <trkpt lat="42.234784" lon="-1.499809">
        <ele>289.0</ele>
        <time>2010-04-30T13:40:42Z</time>
      </trkpt>
      <trkpt lat="42.234737" lon="-1.499917">
        <ele>289.0</ele>
        <time>2010-04-30T13:40:49Z</time>
      </trkpt>
      <trkpt lat="42.234684" lon="-1.500025">
        <ele>289.0</ele>
        <time>2010-04-30T13:40:57Z</time>
      </trkpt>
      <trkpt lat="42.234637" lon="-1.500133">
        <ele>289.0</ele>
        <time>2010-04-30T13:41:05Z</time>
      </trkpt>
      <trkpt lat="42.234584" lon="-1.500240">
        <ele>289.0</ele>
        <time>2010-04-30T13:41:13Z</time>
      </trkpt>
      <trkpt lat="42.234524" lon="-1.500339">
        <ele>289.0</ele>
        <time>2010-04-30T13:41:21Z</time>
      </trkpt>
      <trkpt lat="42.234457" lon="-1.500429">
        <ele>289.0</ele>
        <time>2010-04-30T13:41:29Z</time>
      </trkpt>
      <trkpt lat="42.234397" lon="-1.500528">
        <ele>289.0</ele>
        <time>2010-04-30T13:41:38Z</time>
      </trkpt>
      <trkpt lat="42.234377" lon="-1.500654">
        <ele>289.0</ele>
        <time>2010-04-30T13:41:50Z</time>
      </trkpt>
      <trkpt lat="42.234317" lon="-1.500752">
        <ele>289.0</ele>
        <time>2010-04-30T13:41:59Z</time>
      </trkpt>
      <trkpt lat="42.234277" lon="-1.500869">
        <ele>289.0</ele>
        <time>2010-04-30T13:42:13Z</time>
      </trkpt>
      <trkpt lat="42.234203" lon="-1.500941">
        <ele>289.0</ele>
        <time>2010-04-30T13:42:37Z</time>
      </trkpt>
      <trkpt lat="42.234130" lon="-1.501013">
        <ele>289.0</ele>
        <time>2010-04-30T13:42:59Z</time>
      </trkpt>
      <trkpt lat="42.234063" lon="-1.501103">
        <ele>289.0</ele>
        <time>2010-04-30T13:43:07Z</time>
      </trkpt>
      <trkpt lat="42.233990" lon="-1.501193">
        <ele>289.0</ele>
        <time>2010-04-30T13:43:19Z</time>
      </trkpt>
      <trkpt lat="42.233916" lon="-1.501282">
        <ele>289.0</ele>
        <time>2010-04-30T13:43:31Z</time>
      </trkpt>
      <trkpt lat="42.233843" lon="-1.501372">
        <ele>289.0</ele>
        <time>2010-04-30T13:43:40Z</time>
      </trkpt>
      <trkpt lat="42.233769" lon="-1.501462">
        <ele>289.0</ele>
        <time>2010-04-30T13:43:50Z</time>
      </trkpt>
      <trkpt lat="42.233696" lon="-1.501534">
        <ele>289.0</ele>
        <time>2010-04-30T13:43:58Z</time>
      </trkpt>
      <trkpt lat="42.233629" lon="-1.501624">
        <ele>289.0</ele>
        <time>2010-04-30T13:44:07Z</time>
      </trkpt>
      <trkpt lat="42.233582" lon="-1.501732">
        <ele>289.0</ele>
        <time>2010-04-30T13:44:17Z</time>
      </trkpt>
      <trkpt lat="42.233482" lon="-1.501768">
        <ele>289.0</ele>
        <time>2010-04-30T13:44:30Z</time>
      </trkpt>
      <trkpt lat="42.233389" lon="-1.501812">
        <ele>289.0</ele>
        <time>2010-04-30T13:44:40Z</time>
      </trkpt>
      <trkpt lat="42.233329" lon="-1.501911">
        <ele>289.0</ele>
        <time>2010-04-30T13:44:50Z</time>
      </trkpt>
      <trkpt lat="42.233275" lon="-1.502019">
        <ele>289.0</ele>
        <time>2010-04-30T13:45:00Z</time>
      </trkpt>
      <trkpt lat="42.233202" lon="-1.502100">
        <ele>289.0</ele>
        <time>2010-04-30T13:45:14Z</time>
      </trkpt>
      <trkpt lat="42.233135" lon="-1.502199">
        <ele>289.0</ele>
        <time>2010-04-30T13:45:24Z</time>
      </trkpt>
      <trkpt lat="42.233088" lon="-1.502316">
        <ele>289.0</ele>
        <time>2010-04-30T13:45:33Z</time>
      </trkpt>
      <trkpt lat="42.233035" lon="-1.502423">
        <ele>289.0</ele>
        <time>2010-04-30T13:45:43Z</time>
      </trkpt>
      <trkpt lat="42.232988" lon="-1.502540">
        <ele>289.0</ele>
        <time>2010-04-30T13:45:53Z</time>
      </trkpt>
      <trkpt lat="42.232921" lon="-1.502639">
        <ele>289.0</ele>
        <time>2010-04-30T13:46:40Z</time>
      </trkpt>
      <trkpt lat="42.232848" lon="-1.502711">
        <ele>289.0</ele>
        <time>2010-04-30T13:46:50Z</time>
      </trkpt>
      <trkpt lat="42.232815" lon="-1.502828">
        <ele>289.0</ele>
        <time>2010-04-30T13:47:37Z</time>
      </trkpt>
      <trkpt lat="42.232735" lon="-1.502890">
        <ele>284.0</ele>
        <time>2010-04-30T13:47:47Z</time>
      </trkpt>
      <trkpt lat="42.232701" lon="-1.503007">
        <ele>284.0</ele>
        <time>2010-04-30T13:47:59Z</time>
      </trkpt>
      <trkpt lat="42.232654" lon="-1.503115">
        <ele>284.0</ele>
        <time>2010-04-30T13:48:08Z</time>
      </trkpt>
      <trkpt lat="42.232601" lon="-1.503214">
        <ele>284.0</ele>
        <time>2010-04-30T13:48:16Z</time>
      </trkpt>
      <trkpt lat="42.232534" lon="-1.503313">
        <ele>284.0</ele>
        <time>2010-04-30T13:49:50Z</time>
      </trkpt>
      <trkpt lat="42.232481" lon="-1.503420">
        <ele>284.0</ele>
        <time>2010-04-30T13:50:00Z</time>
      </trkpt>
      <trkpt lat="42.232407" lon="-1.503501">
        <ele>284.0</ele>
        <time>2010-04-30T13:50:09Z</time>
      </trkpt>
      <trkpt lat="42.232321" lon="-1.503537">
        <ele>284.0</ele>
        <time>2010-04-30T13:50:20Z</time>
      </trkpt>
      <trkpt lat="42.232227" lon="-1.503600">
        <ele>284.0</ele>
        <time>2010-04-30T13:50:30Z</time>
      </trkpt>
      <trkpt lat="42.232134" lon="-1.503591">
        <ele>284.0</ele>
        <time>2010-04-30T13:50:40Z</time>
      </trkpt>
      <trkpt lat="42.232054" lon="-1.503528">
        <ele>284.0</ele>
        <time>2010-04-30T13:50:49Z</time>
      </trkpt>
      <trkpt lat="42.231960" lon="-1.503528">
        <ele>284.0</ele>
        <time>2010-04-30T13:50:57Z</time>
      </trkpt>
      <trkpt lat="42.231860" lon="-1.503528">
        <ele>284.0</ele>
        <time>2010-04-30T13:51:07Z</time>
      </trkpt>
      <trkpt lat="42.231767" lon="-1.503501">
        <ele>284.0</ele>
        <time>2010-04-30T13:51:17Z</time>
      </trkpt>
      <trkpt lat="42.231680" lon="-1.503447">
        <ele>284.0</ele>
        <time>2010-04-30T13:51:35Z</time>
      </trkpt>
      <trkpt lat="42.231586" lon="-1.503429">
        <ele>284.0</ele>
        <time>2010-04-30T13:51:45Z</time>
      </trkpt>
      <trkpt lat="42.231500" lon="-1.503367">
        <ele>284.0</ele>
        <time>2010-04-30T13:51:55Z</time>
      </trkpt>
      <trkpt lat="42.231446" lon="-1.503268">
        <ele>284.0</ele>
        <time>2010-04-30T13:52:04Z</time>
      </trkpt>
      <trkpt lat="42.231386" lon="-1.503169">
        <ele>284.0</ele>
        <time>2010-04-30T13:52:14Z</time>
      </trkpt>
      <trkpt lat="42.231313" lon="-1.503097">
        <ele>284.0</ele>
        <time>2010-04-30T13:52:25Z</time>
      </trkpt>
      <trkpt lat="42.231212" lon="-1.503079">
        <ele>284.0</ele>
        <time>2010-04-30T13:52:37Z</time>
      </trkpt>
      <trkpt lat="42.231119" lon="-1.503097">
        <ele>284.0</ele>
        <time>2010-04-30T13:52:46Z</time>
      </trkpt>
      <trkpt lat="42.231019" lon="-1.503124">
        <ele>284.0</ele>
        <time>2010-04-30T13:52:55Z</time>
      </trkpt>
      <trkpt lat="42.230925" lon="-1.503160">
        <ele>284.0</ele>
        <time>2010-04-30T13:53:04Z</time>
      </trkpt>
      <trkpt lat="42.230839" lon="-1.503214">
        <ele>284.0</ele>
        <time>2010-04-30T13:53:13Z</time>
      </trkpt>
      <trkpt lat="42.230785" lon="-1.503313">
        <ele>284.0</ele>
        <time>2010-04-30T13:53:22Z</time>
      </trkpt>
      <trkpt lat="42.230732" lon="-1.503411">
        <ele>284.0</ele>
        <time>2010-04-30T13:53:31Z</time>
      </trkpt>
      <trkpt lat="42.230638" lon="-1.503420">
        <ele>284.0</ele>
        <time>2010-04-30T13:53:42Z</time>
      </trkpt>
      <trkpt lat="42.230545" lon="-1.503447">
        <ele>284.0</ele>
        <time>2010-04-30T13:53:52Z</time>
      </trkpt>
      <trkpt lat="42.230478" lon="-1.503537">
        <ele>284.0</ele>
        <time>2010-04-30T13:54:00Z</time>
      </trkpt>
      <trkpt lat="42.230385" lon="-1.503546">
        <ele>284.0</ele>
        <time>2010-04-30T13:54:08Z</time>
      </trkpt>
      <trkpt lat="42.230284" lon="-1.503564">
        <ele>284.0</ele>
        <time>2010-04-30T13:54:17Z</time>
      </trkpt>
      <trkpt lat="42.230191" lon="-1.503537">
        <ele>284.0</ele>
        <time>2010-04-30T13:54:26Z</time>
      </trkpt>
      <trkpt lat="42.230091" lon="-1.503519">
        <ele>284.0</ele>
        <time>2010-04-30T13:54:37Z</time>
      </trkpt>
      <trkpt lat="42.229997" lon="-1.503483">
        <ele>284.0</ele>
        <time>2010-04-30T13:54:48Z</time>
      </trkpt>
      <trkpt lat="42.229904" lon="-1.503474">
        <ele>284.0</ele>
        <time>2010-04-30T13:54:59Z</time>
      </trkpt>
      <trkpt lat="42.229817" lon="-1.503411">
        <ele>284.0</ele>
        <time>2010-04-30T13:55:07Z</time>
      </trkpt>
      <trkpt lat="42.229737" lon="-1.503349">
        <ele>284.0</ele>
        <time>2010-04-30T13:55:16Z</time>
      </trkpt>
      <trkpt lat="42.229644" lon="-1.503322">
        <ele>284.0</ele>
        <time>2010-04-30T13:55:25Z</time>
      </trkpt>
      <trkpt lat="42.229550" lon="-1.503295">
        <ele>284.0</ele>
        <time>2010-04-30T13:55:34Z</time>
      </trkpt>
      <trkpt lat="42.229483" lon="-1.503394">
        <ele>284.0</ele>
        <time>2010-04-30T13:55:47Z</time>
      </trkpt>
      <trkpt lat="42.229423" lon="-1.503492">
        <ele>284.0</ele>
        <time>2010-04-30T13:55:57Z</time>
      </trkpt>
      <trkpt lat="42.229363" lon="-1.503591">
        <ele>284.0</ele>
        <time>2010-04-30T13:56:09Z</time>
      </trkpt>
      <trkpt lat="42.229283" lon="-1.503681">
        <ele>284.0</ele>
        <time>2010-04-30T13:56:18Z</time>
      </trkpt>
      <trkpt lat="42.229210" lon="-1.503762">
        <ele>284.0</ele>
        <time>2010-04-30T13:56:27Z</time>
      </trkpt>
      <trkpt lat="42.229143" lon="-1.503861">
        <ele>284.0</ele>
        <time>2010-04-30T13:56:36Z</time>
      </trkpt>
      <trkpt lat="42.229069" lon="-1.503959">
        <ele>284.0</ele>
        <time>2010-04-30T13:56:45Z</time>
      </trkpt>
      <trkpt lat="42.228989" lon="-1.504022">
        <ele>284.0</ele>
        <time>2010-04-30T13:56:52Z</time>
      </trkpt>
      <trkpt lat="42.228909" lon="-1.504085">
        <ele>284.0</ele>
        <time>2010-04-30T13:57:00Z</time>
      </trkpt>
      <trkpt lat="42.228856" lon="-1.504193">
        <ele>284.0</ele>
        <time>2010-04-30T13:57:09Z</time>
      </trkpt>
      <trkpt lat="42.228776" lon="-1.504256">
        <ele>284.0</ele>
        <time>2010-04-30T13:57:19Z</time>
      </trkpt>
      <trkpt lat="42.228689" lon="-1.504301">
        <ele>284.0</ele>
        <time>2010-04-30T13:57:29Z</time>
      </trkpt>
      <trkpt lat="42.228609" lon="-1.504373">
        <ele>284.0</ele>
        <time>2010-04-30T13:57:38Z</time>
      </trkpt>
      <trkpt lat="42.228529" lon="-1.504436">
        <ele>284.0</ele>
        <time>2010-04-30T13:57:46Z</time>
      </trkpt>
      <trkpt lat="42.228442" lon="-1.504373">
        <ele>284.0</ele>
        <time>2010-04-30T13:57:56Z</time>
      </trkpt>
      <trkpt lat="42.228355" lon="-1.504319">
        <ele>284.0</ele>
        <time>2010-04-30T13:58:20Z</time>
      </trkpt>
      <trkpt lat="42.228255" lon="-1.504337">
        <ele>284.0</ele>
        <time>2010-04-30T13:58:29Z</time>
      </trkpt>
      <trkpt lat="42.228168" lon="-1.504283">
        <ele>284.0</ele>
        <time>2010-04-30T13:58:37Z</time>
      </trkpt>
      <trkpt lat="42.228081" lon="-1.504220">
        <ele>284.0</ele>
        <time>2010-04-30T13:58:46Z</time>
      </trkpt>
      <trkpt lat="42.227994" lon="-1.504184">
        <ele>284.0</ele>
        <time>2010-04-30T13:58:55Z</time>
      </trkpt>
      <trkpt lat="42.227901" lon="-1.504166">
        <ele>284.0</ele>
        <time>2010-04-30T13:59:04Z</time>
      </trkpt>
      <trkpt lat="42.227801" lon="-1.504184">
        <ele>284.0</ele>
        <time>2010-04-30T13:59:14Z</time>
      </trkpt>
      <trkpt lat="42.227714" lon="-1.504238">
        <ele>284.0</ele>
        <time>2010-04-30T13:59:22Z</time>
      </trkpt>
      <trkpt lat="42.227634" lon="-1.504319">
        <ele>284.0</ele>
        <time>2010-04-30T13:59:32Z</time>
      </trkpt>
      <trkpt lat="42.227607" lon="-1.504445">
        <ele>284.0</ele>
        <time>2010-04-30T13:59:40Z</time>
      </trkpt>
      <trkpt lat="42.227574" lon="-1.504561">
        <ele>284.0</ele>
        <time>2010-04-30T13:59:49Z</time>
      </trkpt>
      <trkpt lat="42.227520" lon="-1.504660">
        <ele>284.0</ele>
        <time>2010-04-30T13:59:57Z</time>
      </trkpt>
      <trkpt lat="42.227480" lon="-1.504777">
        <ele>284.0</ele>
        <time>2010-04-30T14:00:06Z</time>
      </trkpt>
      <trkpt lat="42.227427" lon="-1.504885">
        <ele>284.0</ele>
        <time>2010-04-30T14:00:15Z</time>
      </trkpt>
      <trkpt lat="42.227354" lon="-1.504984">
        <ele>284.0</ele>
        <time>2010-04-30T14:00:24Z</time>
      </trkpt>
      <trkpt lat="42.227300" lon="-1.505091">
        <ele>284.0</ele>
        <time>2010-04-30T14:00:32Z</time>
      </trkpt>
      <trkpt lat="42.227260" lon="-1.505217">
        <ele>284.0</ele>
        <time>2010-04-30T14:00:41Z</time>
      </trkpt>
      <trkpt lat="42.227220" lon="-1.505334">
        <ele>284.0</ele>
        <time>2010-04-30T14:00:50Z</time>
      </trkpt>
      <trkpt lat="42.227167" lon="-1.505433">
        <ele>284.0</ele>
        <time>2010-04-30T14:00:58Z</time>
      </trkpt>
      <trkpt lat="42.227133" lon="-1.505558">
        <ele>284.0</ele>
        <time>2010-04-30T14:01:06Z</time>
      </trkpt>
      <trkpt lat="42.227093" lon="-1.505675">
        <ele>284.0</ele>
        <time>2010-04-30T14:01:15Z</time>
      </trkpt>
      <trkpt lat="42.227000" lon="-1.505720">
        <ele>284.0</ele>
        <time>2010-04-30T14:01:25Z</time>
      </trkpt>
      <trkpt lat="42.226913" lon="-1.505774">
        <ele>284.0</ele>
        <time>2010-04-30T14:01:36Z</time>
      </trkpt>
      <trkpt lat="42.226833" lon="-1.505846">
        <ele>284.0</ele>
        <time>2010-04-30T14:01:44Z</time>
      </trkpt>
      <trkpt lat="42.226739" lon="-1.505891">
        <ele>284.0</ele>
        <time>2010-04-30T14:01:53Z</time>
      </trkpt>
      <trkpt lat="42.226653" lon="-1.505936">
        <ele>284.0</ele>
        <time>2010-04-30T14:02:02Z</time>
      </trkpt>
      <trkpt lat="42.226552" lon="-1.505963">
        <ele>284.0</ele>
        <time>2010-04-30T14:02:11Z</time>
      </trkpt>
      <trkpt lat="42.226466" lon="-1.506017">
        <ele>284.0</ele>
        <time>2010-04-30T14:02:19Z</time>
      </trkpt>
      <trkpt lat="42.226392" lon="-1.506097">
        <ele>284.0</ele>
        <time>2010-04-30T14:02:28Z</time>
      </trkpt>
      <trkpt lat="42.226312" lon="-1.506169">
        <ele>284.0</ele>
        <time>2010-04-30T14:02:52Z</time>
      </trkpt>
      <trkpt lat="42.226239" lon="-1.506259">
        <ele>284.0</ele>
        <time>2010-04-30T14:03:01Z</time>
      </trkpt>
      <trkpt lat="42.226172" lon="-1.506349">
        <ele>284.0</ele>
        <time>2010-04-30T14:03:10Z</time>
      </trkpt>
      <trkpt lat="42.226118" lon="-1.506457">
        <ele>284.0</ele>
        <time>2010-04-30T14:03:20Z</time>
      </trkpt>
      <trkpt lat="42.226078" lon="-1.506574">
        <ele>284.0</ele>
        <time>2010-04-30T14:03:29Z</time>
      </trkpt>
      <trkpt lat="42.226038" lon="-1.506690">
        <ele>284.0</ele>
        <time>2010-04-30T14:03:38Z</time>
      </trkpt>
      <trkpt lat="42.225992" lon="-1.506798">
        <ele>284.0</ele>
        <time>2010-04-30T14:03:46Z</time>
      </trkpt>
      <trkpt lat="42.225938" lon="-1.506915">
        <ele>284.0</ele>
        <time>2010-04-30T14:03:55Z</time>
      </trkpt>
      <trkpt lat="42.225871" lon="-1.507005">
        <ele>284.0</ele>
        <time>2010-04-30T14:04:03Z</time>
      </trkpt>
      <trkpt lat="42.225785" lon="-1.507068">
        <ele>284.0</ele>
        <time>2010-04-30T14:04:11Z</time>
      </trkpt>
      <trkpt lat="42.225684" lon="-1.507068">
        <ele>284.0</ele>
        <time>2010-04-30T14:04:19Z</time>
      </trkpt>
      <trkpt lat="42.225598" lon="-1.507014">
        <ele>284.0</ele>
        <time>2010-04-30T14:04:27Z</time>
      </trkpt>
      <trkpt lat="42.225538" lon="-1.506906">
        <ele>284.0</ele>
        <time>2010-04-30T14:04:35Z</time>
      </trkpt>
      <trkpt lat="42.225484" lon="-1.506807">
        <ele>284.0</ele>
        <time>2010-04-30T14:04:43Z</time>
      </trkpt>
      <trkpt lat="42.225437" lon="-1.506690">
        <ele>284.0</ele>
        <time>2010-04-30T14:04:51Z</time>
      </trkpt>
      <trkpt lat="42.225391" lon="-1.506583">
        <ele>284.0</ele>
        <time>2010-04-30T14:05:00Z</time>
      </trkpt>
      <trkpt lat="42.225304" lon="-1.506529">
        <ele>284.0</ele>
        <time>2010-04-30T14:05:08Z</time>
      </trkpt>
      <trkpt lat="42.225210" lon="-1.506484">
        <ele>284.0</ele>
        <time>2010-04-30T14:05:17Z</time>
      </trkpt>
      <trkpt lat="42.225110" lon="-1.506466">
        <ele>284.0</ele>
        <time>2010-04-30T14:05:26Z</time>
      </trkpt>
      <trkpt lat="42.225017" lon="-1.506466">
        <ele>284.0</ele>
        <time>2010-04-30T14:05:35Z</time>
      </trkpt>
      <trkpt lat="42.224917" lon="-1.506466">
        <ele>284.0</ele>
        <time>2010-04-30T14:05:44Z</time>
      </trkpt>
      <trkpt lat="42.224830" lon="-1.506502">
        <ele>284.0</ele>
        <time>2010-04-30T14:05:52Z</time>
      </trkpt>
      <trkpt lat="42.224730" lon="-1.506529">
        <ele>284.0</ele>
        <time>2010-04-30T14:06:00Z</time>
      </trkpt>
      <trkpt lat="42.224643" lon="-1.506592">
        <ele>284.0</ele>
        <time>2010-04-30T14:06:10Z</time>
      </trkpt>
      <trkpt lat="42.224576" lon="-1.506699">
        <ele>284.0</ele>
        <time>2010-04-30T14:06:19Z</time>
      </trkpt>
      <trkpt lat="42.224529" lon="-1.506816">
        <ele>284.0</ele>
        <time>2010-04-30T14:06:28Z</time>
      </trkpt>
      <trkpt lat="42.224516" lon="-1.506951">
        <ele>284.0</ele>
        <time>2010-04-30T14:06:38Z</time>
      </trkpt>
      <trkpt lat="42.224496" lon="-1.507077">
        <ele>284.0</ele>
        <time>2010-04-30T14:06:47Z</time>
      </trkpt>
      <trkpt lat="42.224463" lon="-1.507193">
        <ele>284.0</ele>
        <time>2010-04-30T14:06:55Z</time>
      </trkpt>
      <trkpt lat="42.224429" lon="-1.507310">
        <ele>284.0</ele>
        <time>2010-04-30T14:07:03Z</time>
      </trkpt>
      <trkpt lat="42.224376" lon="-1.507418">
        <ele>284.0</ele>
        <time>2010-04-30T14:07:12Z</time>
      </trkpt>
      <trkpt lat="42.224329" lon="-1.507535">
        <ele>284.0</ele>
        <time>2010-04-30T14:07:26Z</time>
      </trkpt>
      <trkpt lat="42.224296" lon="-1.507652">
        <ele>284.0</ele>
        <time>2010-04-30T14:07:34Z</time>
      </trkpt>
      <trkpt lat="42.224269" lon="-1.507768">
        <ele>284.0</ele>
        <time>2010-04-30T14:07:42Z</time>
      </trkpt>
      <trkpt lat="42.224209" lon="-1.507867">
        <ele>284.0</ele>
        <time>2010-04-30T14:07:49Z</time>
      </trkpt>
      <trkpt lat="42.224182" lon="-1.507984">
        <ele>284.0</ele>
        <time>2010-04-30T14:07:57Z</time>
      </trkpt>
      <trkpt lat="42.224155" lon="-1.508119">
        <ele>284.0</ele>
        <time>2010-04-30T14:08:06Z</time>
      </trkpt>
      <trkpt lat="42.224115" lon="-1.508244">
        <ele>284.0</ele>
        <time>2010-04-30T14:08:15Z</time>
      </trkpt>
      <trkpt lat="42.224062" lon="-1.508352">
        <ele>284.0</ele>
        <time>2010-04-30T14:09:09Z</time>
      </trkpt>
      <trkpt lat="42.223989" lon="-1.508424">
        <ele>284.0</ele>
        <time>2010-04-30T14:09:25Z</time>
      </trkpt>
      <trkpt lat="42.223935" lon="-1.508523">
        <ele>284.0</ele>
        <time>2010-04-30T14:09:35Z</time>
      </trkpt>
      <trkpt lat="42.223928" lon="-1.508649">
        <ele>284.0</ele>
        <time>2010-04-30T14:09:46Z</time>
      </trkpt>
      <trkpt lat="42.223882" lon="-1.508756">
        <ele>284.0</ele>
        <time>2010-04-30T14:09:55Z</time>
      </trkpt>
      <trkpt lat="42.223835" lon="-1.508873">
        <ele>284.0</ele>
        <time>2010-04-30T14:10:05Z</time>
      </trkpt>
      <trkpt lat="42.223775" lon="-1.508981">
        <ele>284.0</ele>
        <time>2010-04-30T14:10:15Z</time>
      </trkpt>
      <trkpt lat="42.223715" lon="-1.509080">
        <ele>284.0</ele>
        <time>2010-04-30T14:10:24Z</time>
      </trkpt>
      <trkpt lat="42.223661" lon="-1.509179">
        <ele>284.0</ele>
        <time>2010-04-30T14:10:34Z</time>
      </trkpt>
      <trkpt lat="42.223628" lon="-1.509304">
        <ele>284.0</ele>
        <time>2010-04-30T14:10:43Z</time>
      </trkpt>
      <trkpt lat="42.223581" lon="-1.509421">
        <ele>284.0</ele>
        <time>2010-04-30T14:10:53Z</time>
      </trkpt>
      <trkpt lat="42.223508" lon="-1.509502">
        <ele>284.0</ele>
        <time>2010-04-30T14:11:02Z</time>
      </trkpt>
      <trkpt lat="42.223454" lon="-1.509610">
        <ele>284.0</ele>
        <time>2010-04-30T14:11:11Z</time>
      </trkpt>
      <trkpt lat="42.223388" lon="-1.509700">
        <ele>284.0</ele>
        <time>2010-04-30T14:11:19Z</time>
      </trkpt>
      <trkpt lat="42.223301" lon="-1.509763">
        <ele>284.0</ele>
        <time>2010-04-30T14:11:27Z</time>
      </trkpt>
      <trkpt lat="42.223201" lon="-1.509781">
        <ele>284.0</ele>
        <time>2010-04-30T14:11:36Z</time>
      </trkpt>
      <trkpt lat="42.223114" lon="-1.509736">
        <ele>284.0</ele>
        <time>2010-04-30T14:11:46Z</time>
      </trkpt>
      <trkpt lat="42.223027" lon="-1.509673">
        <ele>284.0</ele>
        <time>2010-04-30T14:11:55Z</time>
      </trkpt>
      <trkpt lat="42.222947" lon="-1.509601">
        <ele>284.0</ele>
        <time>2010-04-30T14:12:04Z</time>
      </trkpt>
      <trkpt lat="42.222867" lon="-1.509538">
        <ele>279.0</ele>
        <time>2010-04-30T14:12:13Z</time>
      </trkpt>
      <trkpt lat="42.222787" lon="-1.509475">
        <ele>279.0</ele>
        <time>2010-04-30T14:12:21Z</time>
      </trkpt>
      <trkpt lat="42.222713" lon="-1.509394">
        <ele>279.0</ele>
        <time>2010-04-30T14:12:32Z</time>
      </trkpt>
      <trkpt lat="42.222626" lon="-1.509439">
        <ele>279.0</ele>
        <time>2010-04-30T14:12:43Z</time>
      </trkpt>
      <trkpt lat="42.222533" lon="-1.509421">
        <ele>279.0</ele>
        <time>2010-04-30T14:12:53Z</time>
      </trkpt>
      <trkpt lat="42.222433" lon="-1.509421">
        <ele>279.0</ele>
        <time>2010-04-30T14:13:03Z</time>
      </trkpt>
      <trkpt lat="42.222346" lon="-1.509484">
        <ele>285.0</ele>
        <time>2010-04-30T14:13:13Z</time>
      </trkpt>
      <trkpt lat="42.222273" lon="-1.509556">
        <ele>285.0</ele>
        <time>2010-04-30T14:13:48Z</time>
      </trkpt>
      <trkpt lat="42.222226" lon="-1.509673">
        <ele>285.0</ele>
        <time>2010-04-30T14:14:02Z</time>
      </trkpt>
      <trkpt lat="42.222159" lon="-1.509763">
        <ele>285.0</ele>
        <time>2010-04-30T14:14:12Z</time>
      </trkpt>
      <trkpt lat="42.222059" lon="-1.509790">
        <ele>285.0</ele>
        <time>2010-04-30T14:14:21Z</time>
      </trkpt>
      <trkpt lat="42.221965" lon="-1.509834">
        <ele>285.0</ele>
        <time>2010-04-30T14:14:30Z</time>
      </trkpt>
      <trkpt lat="42.221872" lon="-1.509870">
        <ele>285.0</ele>
        <time>2010-04-30T14:14:39Z</time>
      </trkpt>
      <trkpt lat="42.221785" lon="-1.509906">
        <ele>285.0</ele>
        <time>2010-04-30T14:14:49Z</time>
      </trkpt>
      <trkpt lat="42.221698" lon="-1.509951">
        <ele>285.0</ele>
        <time>2010-04-30T14:14:59Z</time>
      </trkpt>
      <trkpt lat="42.221618" lon="-1.509879">
        <ele>285.0</ele>
        <time>2010-04-30T14:15:17Z</time>
      </trkpt>
      <trkpt lat="42.221531" lon="-1.509834">
        <ele>285.0</ele>
        <time>2010-04-30T14:15:25Z</time>
      </trkpt>
      <trkpt lat="42.221438" lon="-1.509763">
        <ele>285.0</ele>
        <time>2010-04-30T14:15:35Z</time>
      </trkpt>
      <trkpt lat="42.221371" lon="-1.509664">
        <ele>285.0</ele>
        <time>2010-04-30T14:16:12Z</time>
      </trkpt>
      <trkpt lat="42.221291" lon="-1.509592">
        <ele>285.0</ele>
        <time>2010-04-30T14:16:20Z</time>
      </trkpt>
      <trkpt lat="42.221204" lon="-1.509529">
        <ele>285.0</ele>
        <time>2010-04-30T14:16:29Z</time>
      </trkpt>
      <trkpt lat="42.221117" lon="-1.509466">
        <ele>285.0</ele>
        <time>2010-04-30T14:16:38Z</time>
      </trkpt>
      <trkpt lat="42.221031" lon="-1.509394">
        <ele>285.0</ele>
        <time>2010-04-30T14:16:50Z</time>
      </trkpt>
      <trkpt lat="42.220964" lon="-1.509304">
        <ele>285.0</ele>
        <time>2010-04-30T14:17:00Z</time>
      </trkpt>
      <trkpt lat="42.220890" lon="-1.509233">
        <ele>285.0</ele>
        <time>2010-04-30T14:17:15Z</time>
      </trkpt>
      <trkpt lat="42.220810" lon="-1.509152">
        <ele>285.0</ele>
        <time>2010-04-30T14:17:31Z</time>
      </trkpt>
      <trkpt lat="42.220723" lon="-1.509197">
        <ele>285.0</ele>
        <time>2010-04-30T14:17:46Z</time>
      </trkpt>
      <trkpt lat="42.220637" lon="-1.509242">
        <ele>285.0</ele>
        <time>2010-04-30T14:18:18Z</time>
      </trkpt>
      <trkpt lat="42.220550" lon="-1.509295">
        <ele>285.0</ele>
        <time>2010-04-30T14:18:26Z</time>
      </trkpt>
      <trkpt lat="42.220456" lon="-1.509295">
        <ele>290.0</ele>
        <time>2010-04-30T14:18:34Z</time>
      </trkpt>
      <trkpt lat="42.220363" lon="-1.509295">
        <ele>290.0</ele>
        <time>2010-04-30T14:18:43Z</time>
      </trkpt>
      <trkpt lat="42.220263" lon="-1.509304">
        <ele>290.0</ele>
        <time>2010-04-30T14:18:52Z</time>
      </trkpt>
      <trkpt lat="42.220169" lon="-1.509322">
        <ele>290.0</ele>
        <time>2010-04-30T14:19:01Z</time>
      </trkpt>
      <trkpt lat="42.220076" lon="-1.509349">
        <ele>290.0</ele>
        <time>2010-04-30T14:19:09Z</time>
      </trkpt>
      <trkpt lat="42.219982" lon="-1.509367">
        <ele>290.0</ele>
        <time>2010-04-30T14:19:17Z</time>
      </trkpt>
      <trkpt lat="42.219882" lon="-1.509367">
        <ele>290.0</ele>
        <time>2010-04-30T14:19:25Z</time>
      </trkpt>
      <trkpt lat="42.219782" lon="-1.509394">
        <ele>290.0</ele>
        <time>2010-04-30T14:19:34Z</time>
      </trkpt>
      <trkpt lat="42.219689" lon="-1.509412">
        <ele>290.0</ele>
        <time>2010-04-30T14:19:43Z</time>
      </trkpt>
      <trkpt lat="42.219588" lon="-1.509439">
        <ele>290.0</ele>
        <time>2010-04-30T14:19:51Z</time>
      </trkpt>
      <trkpt lat="42.219508" lon="-1.509502">
        <ele>290.0</ele>
        <time>2010-04-30T14:19:59Z</time>
      </trkpt>
      <trkpt lat="42.219435" lon="-1.509574">
        <ele>290.0</ele>
        <time>2010-04-30T14:20:07Z</time>
      </trkpt>
      <trkpt lat="42.219368" lon="-1.509682">
        <ele>290.0</ele>
        <time>2010-04-30T14:20:16Z</time>
      </trkpt>
      <trkpt lat="42.219341" lon="-1.509798">
        <ele>290.0</ele>
        <time>2010-04-30T14:20:24Z</time>
      </trkpt>
      <trkpt lat="42.219348" lon="-1.509924">
        <ele>290.0</ele>
        <time>2010-04-30T14:20:31Z</time>
      </trkpt>
      <trkpt lat="42.219368" lon="-1.510068">
        <ele>290.0</ele>
        <time>2010-04-30T14:20:40Z</time>
      </trkpt>
      <trkpt lat="42.219388" lon="-1.510203">
        <ele>290.0</ele>
        <time>2010-04-30T14:20:49Z</time>
      </trkpt>
      <trkpt lat="42.219408" lon="-1.510329">
        <ele>290.0</ele>
        <time>2010-04-30T14:20:57Z</time>
      </trkpt>
      <trkpt lat="42.219448" lon="-1.510445">
        <ele>290.0</ele>
        <time>2010-04-30T14:21:05Z</time>
      </trkpt>
      <trkpt lat="42.219482" lon="-1.510571">
        <ele>290.0</ele>
        <time>2010-04-30T14:21:14Z</time>
      </trkpt>
      <trkpt lat="42.219461" lon="-1.510436">
        <ele>290.0</ele>
        <time>2010-04-30T14:22:52Z</time>
      </trkpt>
      <trkpt lat="42.219488" lon="-1.510571">
        <ele>290.0</ele>
        <time>2010-04-30T14:23:09Z</time>
      </trkpt>
      <trkpt lat="42.219482" lon="-1.510697">
        <ele>290.0</ele>
        <time>2010-04-30T14:23:17Z</time>
      </trkpt>
      <trkpt lat="42.219475" lon="-1.510823">
        <ele>290.0</ele>
        <time>2010-04-30T14:23:26Z</time>
      </trkpt>
      <trkpt lat="42.219468" lon="-1.510948">
        <ele>290.0</ele>
        <time>2010-04-30T14:23:35Z</time>
      </trkpt>
      <trkpt lat="42.219415" lon="-1.511047">
        <ele>290.0</ele>
        <time>2010-04-30T14:23:43Z</time>
      </trkpt>
      <trkpt lat="42.219381" lon="-1.511173">
        <ele>290.0</ele>
        <time>2010-04-30T14:23:52Z</time>
      </trkpt>
      <trkpt lat="42.219288" lon="-1.511200">
        <ele>290.0</ele>
        <time>2010-04-30T14:24:13Z</time>
      </trkpt>
      <trkpt lat="42.219188" lon="-1.511209">
        <ele>290.0</ele>
        <time>2010-04-30T14:24:22Z</time>
      </trkpt>
      <trkpt lat="42.219101" lon="-1.511155">
        <ele>290.0</ele>
        <time>2010-04-30T14:24:30Z</time>
      </trkpt>
      <trkpt lat="42.219021" lon="-1.511092">
        <ele>290.0</ele>
        <time>2010-04-30T14:24:38Z</time>
      </trkpt>
      <trkpt lat="42.219014" lon="-1.510966">
        <ele>290.0</ele>
        <time>2010-04-30T14:24:48Z</time>
      </trkpt>
      <trkpt lat="42.219001" lon="-1.510841">
        <ele>290.0</ele>
        <time>2010-04-30T14:24:58Z</time>
      </trkpt>
      <trkpt lat="42.218987" lon="-1.510715">
        <ele>290.0</ele>
        <time>2010-04-30T14:25:07Z</time>
      </trkpt>
      <trkpt lat="42.218974" lon="-1.510589">
        <ele>290.0</ele>
        <time>2010-04-30T14:25:16Z</time>
      </trkpt>
      <trkpt lat="42.218947" lon="-1.510472">
        <ele>290.0</ele>
        <time>2010-04-30T14:25:24Z</time>
      </trkpt>
      <trkpt lat="42.218921" lon="-1.510355">
        <ele>290.0</ele>
        <time>2010-04-30T14:25:32Z</time>
      </trkpt>
      <trkpt lat="42.218901" lon="-1.510230">
        <ele>290.0</ele>
        <time>2010-04-30T14:25:43Z</time>
      </trkpt>
      <trkpt lat="42.218894" lon="-1.510104">
        <ele>290.0</ele>
        <time>2010-04-30T14:25:59Z</time>
      </trkpt>
      <trkpt lat="42.218881" lon="-1.509978">
        <ele>290.0</ele>
        <time>2010-04-30T14:26:08Z</time>
      </trkpt>
      <trkpt lat="42.218867" lon="-1.509843">
        <ele>290.0</ele>
        <time>2010-04-30T14:26:16Z</time>
      </trkpt>
      <trkpt lat="42.218847" lon="-1.509718">
        <ele>290.0</ele>
        <time>2010-04-30T14:26:24Z</time>
      </trkpt>
      <trkpt lat="42.218854" lon="-1.509592">
        <ele>290.0</ele>
        <time>2010-04-30T14:26:32Z</time>
      </trkpt>
      <trkpt lat="42.218874" lon="-1.509466">
        <ele>290.0</ele>
        <time>2010-04-30T14:26:40Z</time>
      </trkpt>
      <trkpt lat="42.218887" lon="-1.509331">
        <ele>290.0</ele>
        <time>2010-04-30T14:26:48Z</time>
      </trkpt>
      <trkpt lat="42.218901" lon="-1.509206">
        <ele>290.0</ele>
        <time>2010-04-30T14:26:56Z</time>
      </trkpt>
      <trkpt lat="42.218914" lon="-1.509080">
        <ele>290.0</ele>
        <time>2010-04-30T14:27:04Z</time>
      </trkpt>
      <trkpt lat="42.218927" lon="-1.508945">
        <ele>290.0</ele>
        <time>2010-04-30T14:27:17Z</time>
      </trkpt>
      <trkpt lat="42.218927" lon="-1.508810">
        <ele>290.0</ele>
        <time>2010-04-30T14:27:25Z</time>
      </trkpt>
      <trkpt lat="42.218941" lon="-1.508685">
        <ele>290.0</ele>
        <time>2010-04-30T14:27:32Z</time>
      </trkpt>
      <trkpt lat="42.218934" lon="-1.508550">
        <ele>290.0</ele>
        <time>2010-04-30T14:27:40Z</time>
      </trkpt>
      <trkpt lat="42.218941" lon="-1.508415">
        <ele>290.0</ele>
        <time>2010-04-30T14:27:48Z</time>
      </trkpt>
      <trkpt lat="42.218947" lon="-1.508289">
        <ele>290.0</ele>
        <time>2010-04-30T14:27:56Z</time>
      </trkpt>
      <trkpt lat="42.218994" lon="-1.508182">
        <ele>290.0</ele>
        <time>2010-04-30T14:28:03Z</time>
      </trkpt>
      <trkpt lat="42.219041" lon="-1.508056">
        <ele>290.0</ele>
        <time>2010-04-30T14:28:11Z</time>
      </trkpt>
      <trkpt lat="42.219094" lon="-1.507939">
        <ele>290.0</ele>
        <time>2010-04-30T14:28:19Z</time>
      </trkpt>
      <trkpt lat="42.219168" lon="-1.507840">
        <ele>290.0</ele>
        <time>2010-04-30T14:28:27Z</time>
      </trkpt>
      <trkpt lat="42.219241" lon="-1.507768">
        <ele>290.0</ele>
        <time>2010-04-30T14:28:35Z</time>
      </trkpt>
    </trkseg>
  </trk>
</gpx>
